<?xml version="1.0" encoding="UTF-8" standalone="no" ?>
<gpx xmlns="http://www.topografix.com/GPX/1/1" xmlns:xsi="http://www.w3.org/2001/XMLSchema-instance" xsi:schemaLocation="http://www.topografix.com/GPX/1/1 http://www.topografix.com/GPX/1/1/gpx.xsd" version="1.1" creator="VisuGPX - https://www.visugpx.com">
  <metadata>
    <name>Aux abords de Decazeville</name>
    <desc><![CDATA[Petit circuit aux abords de Decazeville.
Une petite portion, env. 2km, en fôret, le reste sur route.]]></desc>
  </metadata>
  <trk>
    <name><![CDATA[Rec3]]></name>
    <trkseg>
      <trkpt lat="44.54758" lon="2.23277">
        <ele>255.9</ele>
        <time>2018-05-30T14:12:56Z</time>
      </trkpt>
      <trkpt lat="44.54716" lon="2.23292">
        <ele>233.9</ele>
        <time>2018-05-30T14:12:57Z</time>
      </trkpt>
      <trkpt lat="44.54713" lon="2.2329">
        <ele>232.4</ele>
        <time>2018-05-30T14:13:00Z</time>
      </trkpt>
      <trkpt lat="44.5471" lon="2.23289">
        <ele>231.1</ele>
        <time>2018-05-30T14:13:02Z</time>
      </trkpt>
      <trkpt lat="44.54705" lon="2.23285">
        <ele>228.6</ele>
        <time>2018-05-30T14:13:03Z</time>
      </trkpt>
      <trkpt lat="44.54701" lon="2.23282">
        <ele>227.3</ele>
        <time>2018-05-30T14:13:05Z</time>
      </trkpt>
      <trkpt lat="44.54695" lon="2.23271">
        <ele>224.4</ele>
        <time>2018-05-30T14:13:06Z</time>
      </trkpt>
      <trkpt lat="44.54693" lon="2.23268">
        <ele>224.4</ele>
        <time>2018-05-30T14:13:10Z</time>
      </trkpt>
      <trkpt lat="44.54692" lon="2.23274">
        <ele>224.4</ele>
        <time>2018-05-30T14:13:13Z</time>
      </trkpt>
      <trkpt lat="44.54692" lon="2.23279">
        <ele>224.4</ele>
        <time>2018-05-30T14:13:20Z</time>
      </trkpt>
      <trkpt lat="44.54692" lon="2.23291">
        <ele>224.5</ele>
        <time>2018-05-30T14:13:22Z</time>
      </trkpt>
      <trkpt lat="44.54688" lon="2.23291">
        <ele>224.5</ele>
        <time>2018-05-30T14:13:23Z</time>
      </trkpt>
      <trkpt lat="44.54686" lon="2.23295">
        <ele>224.5</ele>
        <time>2018-05-30T14:13:24Z</time>
      </trkpt>
      <trkpt lat="44.54688" lon="2.23298">
        <ele>224.5</ele>
        <time>2018-05-30T14:13:25Z</time>
      </trkpt>
      <trkpt lat="44.54687" lon="2.23307">
        <ele>224.5</ele>
        <time>2018-05-30T14:13:26Z</time>
      </trkpt>
      <trkpt lat="44.54685" lon="2.23312">
        <ele>224.5</ele>
        <time>2018-05-30T14:13:27Z</time>
      </trkpt>
      <trkpt lat="44.54686" lon="2.23317">
        <ele>224.6</ele>
        <time>2018-05-30T14:13:28Z</time>
      </trkpt>
      <trkpt lat="44.54687" lon="2.23321">
        <ele>224.6</ele>
        <time>2018-05-30T14:13:29Z</time>
      </trkpt>
      <trkpt lat="44.54686" lon="2.23325">
        <ele>224.6</ele>
        <time>2018-05-30T14:13:30Z</time>
      </trkpt>
      <trkpt lat="44.54686" lon="2.2333">
        <ele>224.6</ele>
        <time>2018-05-30T14:13:32Z</time>
      </trkpt>
      <trkpt lat="44.54684" lon="2.23335">
        <ele>224.6</ele>
        <time>2018-05-30T14:13:34Z</time>
      </trkpt>
      <trkpt lat="44.54685" lon="2.23344">
        <ele>224.6</ele>
        <time>2018-05-30T14:13:35Z</time>
      </trkpt>
      <trkpt lat="44.54686" lon="2.23351">
        <ele>224.6</ele>
        <time>2018-05-30T14:13:37Z</time>
      </trkpt>
      <trkpt lat="44.54689" lon="2.23358">
        <ele>224.7</ele>
        <time>2018-05-30T14:13:38Z</time>
      </trkpt>
      <trkpt lat="44.54693" lon="2.23362">
        <ele>224.7</ele>
        <time>2018-05-30T14:13:40Z</time>
      </trkpt>
      <trkpt lat="44.54693" lon="2.23374">
        <ele>224.7</ele>
        <time>2018-05-30T14:13:41Z</time>
      </trkpt>
      <trkpt lat="44.54693" lon="2.23378">
        <ele>224.7</ele>
        <time>2018-05-30T14:13:42Z</time>
      </trkpt>
      <trkpt lat="44.5469" lon="2.2339">
        <ele>224.8</ele>
        <time>2018-05-30T14:13:43Z</time>
      </trkpt>
      <trkpt lat="44.54685" lon="2.23405">
        <ele>224.8</ele>
        <time>2018-05-30T14:13:44Z</time>
      </trkpt>
      <trkpt lat="44.54684" lon="2.23414">
        <ele>224.9</ele>
        <time>2018-05-30T14:13:45Z</time>
      </trkpt>
      <trkpt lat="44.54685" lon="2.23426">
        <ele>224.9</ele>
        <time>2018-05-30T14:13:46Z</time>
      </trkpt>
      <trkpt lat="44.54685" lon="2.2343">
        <ele>225</ele>
        <time>2018-05-30T14:13:47Z</time>
      </trkpt>
      <trkpt lat="44.54687" lon="2.23434">
        <ele>225</ele>
        <time>2018-05-30T14:13:48Z</time>
      </trkpt>
      <trkpt lat="44.54687" lon="2.23443">
        <ele>225.1</ele>
        <time>2018-05-30T14:13:49Z</time>
      </trkpt>
      <trkpt lat="44.54688" lon="2.23451">
        <ele>225.2</ele>
        <time>2018-05-30T14:13:51Z</time>
      </trkpt>
      <trkpt lat="44.5469" lon="2.2346">
        <ele>225.3</ele>
        <time>2018-05-30T14:13:52Z</time>
      </trkpt>
      <trkpt lat="44.54688" lon="2.23464">
        <ele>225.4</ele>
        <time>2018-05-30T14:13:53Z</time>
      </trkpt>
      <trkpt lat="44.54688" lon="2.2347">
        <ele>225.4</ele>
        <time>2018-05-30T14:13:54Z</time>
      </trkpt>
      <trkpt lat="44.54691" lon="2.23498">
        <ele>225.8</ele>
        <time>2018-05-30T14:13:57Z</time>
      </trkpt>
      <trkpt lat="44.54693" lon="2.2349">
        <ele>225.9</ele>
        <time>2018-05-30T14:13:58Z</time>
      </trkpt>
      <trkpt lat="44.54693" lon="2.23501">
        <ele>226.1</ele>
        <time>2018-05-30T14:14:00Z</time>
      </trkpt>
      <trkpt lat="44.54693" lon="2.23509">
        <ele>226.2</ele>
        <time>2018-05-30T14:14:01Z</time>
      </trkpt>
      <trkpt lat="44.54695" lon="2.23515">
        <ele>226.3</ele>
        <time>2018-05-30T14:14:03Z</time>
      </trkpt>
      <trkpt lat="44.54693" lon="2.23527">
        <ele>226.5</ele>
        <time>2018-05-30T14:14:05Z</time>
      </trkpt>
      <trkpt lat="44.54705" lon="2.23511">
        <ele>226.9</ele>
        <time>2018-05-30T14:14:07Z</time>
      </trkpt>
      <trkpt lat="44.54707" lon="2.23519">
        <ele>227</ele>
        <time>2018-05-30T14:14:08Z</time>
      </trkpt>
      <trkpt lat="44.54706" lon="2.23515">
        <ele>227.1</ele>
        <time>2018-05-30T14:14:10Z</time>
      </trkpt>
      <trkpt lat="44.54706" lon="2.2352">
        <ele>227.2</ele>
        <time>2018-05-30T14:14:11Z</time>
      </trkpt>
      <trkpt lat="44.54707" lon="2.23527">
        <ele>227.3</ele>
        <time>2018-05-30T14:14:14Z</time>
      </trkpt>
      <trkpt lat="44.54707" lon="2.23532">
        <ele>227.4</ele>
        <time>2018-05-30T14:14:15Z</time>
      </trkpt>
      <trkpt lat="44.54709" lon="2.23541">
        <ele>227.6</ele>
        <time>2018-05-30T14:14:16Z</time>
      </trkpt>
      <trkpt lat="44.5471" lon="2.23544">
        <ele>227.7</ele>
        <time>2018-05-30T14:14:18Z</time>
      </trkpt>
      <trkpt lat="44.54715" lon="2.23546">
        <ele>227.8</ele>
        <time>2018-05-30T14:14:20Z</time>
      </trkpt>
      <trkpt lat="44.54716" lon="2.23553">
        <ele>227.9</ele>
        <time>2018-05-30T14:14:21Z</time>
      </trkpt>
      <trkpt lat="44.54716" lon="2.2356">
        <ele>228</ele>
        <time>2018-05-30T14:14:22Z</time>
      </trkpt>
      <trkpt lat="44.54718" lon="2.23569">
        <ele>228.2</ele>
        <time>2018-05-30T14:14:25Z</time>
      </trkpt>
      <trkpt lat="44.54718" lon="2.2356">
        <ele>228.3</ele>
        <time>2018-05-30T14:14:26Z</time>
      </trkpt>
      <trkpt lat="44.54718" lon="2.23566">
        <ele>228.4</ele>
        <time>2018-05-30T14:14:27Z</time>
      </trkpt>
      <trkpt lat="44.54716" lon="2.23576">
        <ele>228.5</ele>
        <time>2018-05-30T14:14:28Z</time>
      </trkpt>
      <trkpt lat="44.54716" lon="2.23589">
        <ele>228.6</ele>
        <time>2018-05-30T14:14:29Z</time>
      </trkpt>
      <trkpt lat="44.54716" lon="2.23579">
        <ele>228.6</ele>
        <time>2018-05-30T14:14:30Z</time>
      </trkpt>
      <trkpt lat="44.54718" lon="2.23572">
        <ele>228.7</ele>
        <time>2018-05-30T14:14:32Z</time>
      </trkpt>
      <trkpt lat="44.54719" lon="2.23564">
        <ele>228.8</ele>
        <time>2018-05-30T14:14:33Z</time>
      </trkpt>
      <trkpt lat="44.54721" lon="2.23573">
        <ele>228.8</ele>
        <time>2018-05-30T14:14:35Z</time>
      </trkpt>
      <trkpt lat="44.54723" lon="2.23579">
        <ele>228.9</ele>
        <time>2018-05-30T14:14:36Z</time>
      </trkpt>
      <trkpt lat="44.54723" lon="2.23586">
        <ele>228.9</ele>
        <time>2018-05-30T14:14:38Z</time>
      </trkpt>
      <trkpt lat="44.54726" lon="2.23585">
        <ele>228.9</ele>
        <time>2018-05-30T14:14:39Z</time>
      </trkpt>
      <trkpt lat="44.54733" lon="2.23585">
        <ele>229</ele>
        <time>2018-05-30T14:14:41Z</time>
      </trkpt>
      <trkpt lat="44.54733" lon="2.23591">
        <ele>229.1</ele>
        <time>2018-05-30T14:14:43Z</time>
      </trkpt>
      <trkpt lat="44.54734" lon="2.23605">
        <ele>229.2</ele>
        <time>2018-05-30T14:14:44Z</time>
      </trkpt>
      <trkpt lat="44.54736" lon="2.23602">
        <ele>229.3</ele>
        <time>2018-05-30T14:14:45Z</time>
      </trkpt>
      <trkpt lat="44.54735" lon="2.23616">
        <ele>229.3</ele>
        <time>2018-05-30T14:14:47Z</time>
      </trkpt>
      <trkpt lat="44.54734" lon="2.23623">
        <ele>229.4</ele>
        <time>2018-05-30T14:14:48Z</time>
      </trkpt>
      <trkpt lat="44.54731" lon="2.2363">
        <ele>229.4</ele>
        <time>2018-05-30T14:14:50Z</time>
      </trkpt>
      <trkpt lat="44.54731" lon="2.23638">
        <ele>229.5</ele>
        <time>2018-05-30T14:14:53Z</time>
      </trkpt>
      <trkpt lat="44.54726" lon="2.23634">
        <ele>229.5</ele>
        <time>2018-05-30T14:14:56Z</time>
      </trkpt>
      <trkpt lat="44.54725" lon="2.2364">
        <ele>229.5</ele>
        <time>2018-05-30T14:14:58Z</time>
      </trkpt>
      <trkpt lat="44.54723" lon="2.23645">
        <ele>229.5</ele>
        <time>2018-05-30T14:15:00Z</time>
      </trkpt>
      <trkpt lat="44.54727" lon="2.23656">
        <ele>229.6</ele>
        <time>2018-05-30T14:15:01Z</time>
      </trkpt>
      <trkpt lat="44.5473" lon="2.23661">
        <ele>229.6</ele>
        <time>2018-05-30T14:15:02Z</time>
      </trkpt>
      <trkpt lat="44.5473" lon="2.2367">
        <ele>229.6</ele>
        <time>2018-05-30T14:15:03Z</time>
      </trkpt>
      <trkpt lat="44.54731" lon="2.23677">
        <ele>229.7</ele>
        <time>2018-05-30T14:15:04Z</time>
      </trkpt>
      <trkpt lat="44.5474" lon="2.23692">
        <ele>229.8</ele>
        <time>2018-05-30T14:15:05Z</time>
      </trkpt>
      <trkpt lat="44.54741" lon="2.23697">
        <ele>229.8</ele>
        <time>2018-05-30T14:15:07Z</time>
      </trkpt>
      <trkpt lat="44.54741" lon="2.23701">
        <ele>229.9</ele>
        <time>2018-05-30T14:15:08Z</time>
      </trkpt>
      <trkpt lat="44.54739" lon="2.23707">
        <ele>229.9</ele>
        <time>2018-05-30T14:15:10Z</time>
      </trkpt>
      <trkpt lat="44.54741" lon="2.23712">
        <ele>229.9</ele>
        <time>2018-05-30T14:15:11Z</time>
      </trkpt>
      <trkpt lat="44.54741" lon="2.23716">
        <ele>230</ele>
        <time>2018-05-30T14:15:12Z</time>
      </trkpt>
      <trkpt lat="44.54742" lon="2.23725">
        <ele>230</ele>
        <time>2018-05-30T14:15:14Z</time>
      </trkpt>
      <trkpt lat="44.54742" lon="2.2373">
        <ele>230</ele>
        <time>2018-05-30T14:15:15Z</time>
      </trkpt>
      <trkpt lat="44.54744" lon="2.2374">
        <ele>230</ele>
        <time>2018-05-30T14:15:16Z</time>
      </trkpt>
      <trkpt lat="44.54741" lon="2.23743">
        <ele>230</ele>
        <time>2018-05-30T14:15:18Z</time>
      </trkpt>
      <trkpt lat="44.54737" lon="2.23747">
        <ele>230</ele>
        <time>2018-05-30T14:15:19Z</time>
      </trkpt>
      <trkpt lat="44.54735" lon="2.23751">
        <ele>229.7</ele>
        <time>2018-05-30T14:15:20Z</time>
      </trkpt>
      <trkpt lat="44.54739" lon="2.2376">
        <ele>229.3</ele>
        <time>2018-05-30T14:15:21Z</time>
      </trkpt>
      <trkpt lat="44.54742" lon="2.2376">
        <ele>229</ele>
        <time>2018-05-30T14:15:22Z</time>
      </trkpt>
      <trkpt lat="44.5475" lon="2.23791">
        <ele>230.4</ele>
        <time>2018-05-30T14:15:25Z</time>
      </trkpt>
      <trkpt lat="44.54751" lon="2.23796">
        <ele>230.6</ele>
        <time>2018-05-30T14:15:27Z</time>
      </trkpt>
      <trkpt lat="44.54752" lon="2.23801">
        <ele>231</ele>
        <time>2018-05-30T14:15:28Z</time>
      </trkpt>
      <trkpt lat="44.54757" lon="2.23793">
        <ele>231.1</ele>
        <time>2018-05-30T14:15:29Z</time>
      </trkpt>
      <trkpt lat="44.54755" lon="2.23797">
        <ele>231.2</ele>
        <time>2018-05-30T14:15:30Z</time>
      </trkpt>
      <trkpt lat="44.54755" lon="2.23791">
        <ele>231.2</ele>
        <time>2018-05-30T14:15:31Z</time>
      </trkpt>
      <trkpt lat="44.54756" lon="2.23796">
        <ele>231.3</ele>
        <time>2018-05-30T14:15:33Z</time>
      </trkpt>
      <trkpt lat="44.5476" lon="2.23794">
        <ele>231.5</ele>
        <time>2018-05-30T14:15:34Z</time>
      </trkpt>
      <trkpt lat="44.54761" lon="2.23797">
        <ele>231.9</ele>
        <time>2018-05-30T14:15:35Z</time>
      </trkpt>
      <trkpt lat="44.54764" lon="2.23786">
        <ele>232</ele>
        <time>2018-05-30T14:15:37Z</time>
      </trkpt>
      <trkpt lat="44.54766" lon="2.23774">
        <ele>232.1</ele>
        <time>2018-05-30T14:15:38Z</time>
      </trkpt>
      <trkpt lat="44.54778" lon="2.23792">
        <ele>233.6</ele>
        <time>2018-05-30T14:15:41Z</time>
      </trkpt>
      <trkpt lat="44.54779" lon="2.23801">
        <ele>234.4</ele>
        <time>2018-05-30T14:15:42Z</time>
      </trkpt>
      <trkpt lat="44.54786" lon="2.23799">
        <ele>235.2</ele>
        <time>2018-05-30T14:15:44Z</time>
      </trkpt>
      <trkpt lat="44.54794" lon="2.23796">
        <ele>236.2</ele>
        <time>2018-05-30T14:15:45Z</time>
      </trkpt>
      <trkpt lat="44.54793" lon="2.23806">
        <ele>236.3</ele>
        <time>2018-05-30T14:15:46Z</time>
      </trkpt>
      <trkpt lat="44.54796" lon="2.23804">
        <ele>236.8</ele>
        <time>2018-05-30T14:15:48Z</time>
      </trkpt>
      <trkpt lat="44.54791" lon="2.23854">
        <ele>236.2</ele>
        <time>2018-05-30T14:15:50Z</time>
      </trkpt>
      <trkpt lat="44.54795" lon="2.23846">
        <ele>236.7</ele>
        <time>2018-05-30T14:15:51Z</time>
      </trkpt>
      <trkpt lat="44.54794" lon="2.23854">
        <ele>236.6</ele>
        <time>2018-05-30T14:15:52Z</time>
      </trkpt>
      <trkpt lat="44.54798" lon="2.23848">
        <ele>237.1</ele>
        <time>2018-05-30T14:15:53Z</time>
      </trkpt>
      <trkpt lat="44.54796" lon="2.23854">
        <ele>236.7</ele>
        <time>2018-05-30T14:15:54Z</time>
      </trkpt>
      <trkpt lat="44.54798" lon="2.23859">
        <ele>237.1</ele>
        <time>2018-05-30T14:15:55Z</time>
      </trkpt>
      <trkpt lat="44.54798" lon="2.23871">
        <ele>237</ele>
        <time>2018-05-30T14:15:57Z</time>
      </trkpt>
      <trkpt lat="44.54806" lon="2.23856">
        <ele>238</ele>
        <time>2018-05-30T14:15:58Z</time>
      </trkpt>
      <trkpt lat="44.54806" lon="2.23864">
        <ele>237.9</ele>
        <time>2018-05-30T14:16:00Z</time>
      </trkpt>
      <trkpt lat="44.54809" lon="2.23857">
        <ele>238.5</ele>
        <time>2018-05-30T14:16:01Z</time>
      </trkpt>
      <trkpt lat="44.54809" lon="2.23864">
        <ele>238.7</ele>
        <time>2018-05-30T14:16:03Z</time>
      </trkpt>
      <trkpt lat="44.5481" lon="2.23877">
        <ele>238.3</ele>
        <time>2018-05-30T14:16:04Z</time>
      </trkpt>
      <trkpt lat="44.54814" lon="2.23875">
        <ele>238.8</ele>
        <time>2018-05-30T14:16:06Z</time>
      </trkpt>
      <trkpt lat="44.54815" lon="2.23878">
        <ele>238.7</ele>
        <time>2018-05-30T14:16:07Z</time>
      </trkpt>
      <trkpt lat="44.54814" lon="2.23868">
        <ele>239.3</ele>
        <time>2018-05-30T14:16:08Z</time>
      </trkpt>
      <trkpt lat="44.5482" lon="2.23867">
        <ele>240</ele>
        <time>2018-05-30T14:16:10Z</time>
      </trkpt>
      <trkpt lat="44.54825" lon="2.23866">
        <ele>240.8</ele>
        <time>2018-05-30T14:16:11Z</time>
      </trkpt>
      <trkpt lat="44.54832" lon="2.2386">
        <ele>242</ele>
        <time>2018-05-30T14:16:13Z</time>
      </trkpt>
      <trkpt lat="44.54837" lon="2.23858">
        <ele>243.2</ele>
        <time>2018-05-30T14:16:14Z</time>
      </trkpt>
      <trkpt lat="44.54843" lon="2.23839">
        <ele>244.8</ele>
        <time>2018-05-30T14:16:15Z</time>
      </trkpt>
      <trkpt lat="44.54846" lon="2.23852">
        <ele>244.5</ele>
        <time>2018-05-30T14:16:16Z</time>
      </trkpt>
      <trkpt lat="44.54851" lon="2.23852">
        <ele>245.5</ele>
        <time>2018-05-30T14:16:18Z</time>
      </trkpt>
      <trkpt lat="44.54855" lon="2.2385">
        <ele>246.4</ele>
        <time>2018-05-30T14:16:20Z</time>
      </trkpt>
      <trkpt lat="44.54857" lon="2.23841">
        <ele>247.7</ele>
        <time>2018-05-30T14:16:21Z</time>
      </trkpt>
      <trkpt lat="44.5486" lon="2.23854">
        <ele>247.3</ele>
        <time>2018-05-30T14:16:22Z</time>
      </trkpt>
      <trkpt lat="44.54863" lon="2.23849">
        <ele>248.4</ele>
        <time>2018-05-30T14:16:24Z</time>
      </trkpt>
      <trkpt lat="44.54866" lon="2.23847">
        <ele>249.1</ele>
        <time>2018-05-30T14:16:25Z</time>
      </trkpt>
      <trkpt lat="44.54899" lon="2.23922">
        <ele>244.5</ele>
        <time>2018-05-30T14:16:52Z</time>
      </trkpt>
      <trkpt lat="44.549" lon="2.2393">
        <ele>243.5</ele>
        <time>2018-05-30T14:16:53Z</time>
      </trkpt>
      <trkpt lat="44.55107" lon="2.24024">
        <ele>246.8</ele>
        <time>2018-05-30T14:18:27Z</time>
      </trkpt>
      <trkpt lat="44.55111" lon="2.2402">
        <ele>246.9</ele>
        <time>2018-05-30T14:18:29Z</time>
      </trkpt>
      <trkpt lat="44.55107" lon="2.24022">
        <ele>247</ele>
        <time>2018-05-30T14:18:30Z</time>
      </trkpt>
      <trkpt lat="44.5511" lon="2.24028">
        <ele>247</ele>
        <time>2018-05-30T14:18:32Z</time>
      </trkpt>
      <trkpt lat="44.55119" lon="2.24028">
        <ele>247.2</ele>
        <time>2018-05-30T14:18:33Z</time>
      </trkpt>
      <trkpt lat="44.55119" lon="2.24035">
        <ele>247.2</ele>
        <time>2018-05-30T14:18:34Z</time>
      </trkpt>
      <trkpt lat="44.55122" lon="2.24035">
        <ele>247.3</ele>
        <time>2018-05-30T14:18:36Z</time>
      </trkpt>
      <trkpt lat="44.55176" lon="2.24102">
        <ele>252</ele>
        <time>2018-05-30T14:19:06Z</time>
      </trkpt>
      <trkpt lat="44.55179" lon="2.24102">
        <ele>252.3</ele>
        <time>2018-05-30T14:19:08Z</time>
      </trkpt>
      <trkpt lat="44.55176" lon="2.24111">
        <ele>253.7</ele>
        <time>2018-05-30T14:19:10Z</time>
      </trkpt>
      <trkpt lat="44.55174" lon="2.24124">
        <ele>256</ele>
        <time>2018-05-30T14:19:11Z</time>
      </trkpt>
      <trkpt lat="44.55178" lon="2.24094">
        <ele>252.4</ele>
        <time>2018-05-30T14:19:13Z</time>
      </trkpt>
      <trkpt lat="44.5518" lon="2.24098">
        <ele>253.1</ele>
        <time>2018-05-30T14:19:14Z</time>
      </trkpt>
      <trkpt lat="44.55182" lon="2.24105">
        <ele>254.3</ele>
        <time>2018-05-30T14:19:15Z</time>
      </trkpt>
      <trkpt lat="44.55185" lon="2.24109">
        <ele>255.1</ele>
        <time>2018-05-30T14:19:17Z</time>
      </trkpt>
      <trkpt lat="44.55194" lon="2.24103">
        <ele>254.3</ele>
        <time>2018-05-30T14:19:20Z</time>
      </trkpt>
      <trkpt lat="44.55196" lon="2.24106">
        <ele>255.1</ele>
        <time>2018-05-30T14:19:22Z</time>
      </trkpt>
      <trkpt lat="44.55195" lon="2.24102">
        <ele>254.9</ele>
        <time>2018-05-30T14:19:23Z</time>
      </trkpt>
      <trkpt lat="44.55199" lon="2.24108">
        <ele>255.7</ele>
        <time>2018-05-30T14:19:24Z</time>
      </trkpt>
      <trkpt lat="44.55206" lon="2.24098">
        <ele>254.9</ele>
        <time>2018-05-30T14:19:25Z</time>
      </trkpt>
      <trkpt lat="44.55218" lon="2.24078">
        <ele>254.1</ele>
        <time>2018-05-30T14:19:26Z</time>
      </trkpt>
      <trkpt lat="44.55232" lon="2.24057">
        <ele>254.9</ele>
        <time>2018-05-30T14:19:27Z</time>
      </trkpt>
      <trkpt lat="44.55235" lon="2.24053">
        <ele>255.1</ele>
        <time>2018-05-30T14:19:28Z</time>
      </trkpt>
      <trkpt lat="44.55239" lon="2.24051">
        <ele>255.3</ele>
        <time>2018-05-30T14:19:29Z</time>
      </trkpt>
      <trkpt lat="44.55244" lon="2.24047">
        <ele>255.6</ele>
        <time>2018-05-30T14:19:32Z</time>
      </trkpt>
      <trkpt lat="44.5525" lon="2.24048">
        <ele>255.9</ele>
        <time>2018-05-30T14:19:35Z</time>
      </trkpt>
      <trkpt lat="44.55253" lon="2.24045">
        <ele>256.1</ele>
        <time>2018-05-30T14:19:36Z</time>
      </trkpt>
      <trkpt lat="44.55262" lon="2.24041">
        <ele>256.7</ele>
        <time>2018-05-30T14:19:40Z</time>
      </trkpt>
      <trkpt lat="44.55286" lon="2.24044">
        <ele>258.4</ele>
        <time>2018-05-30T14:19:49Z</time>
      </trkpt>
      <trkpt lat="44.5529" lon="2.24038">
        <ele>258.8</ele>
        <time>2018-05-30T14:19:51Z</time>
      </trkpt>
      <trkpt lat="44.55291" lon="2.24034">
        <ele>259</ele>
        <time>2018-05-30T14:19:53Z</time>
      </trkpt>
      <trkpt lat="44.55289" lon="2.24038">
        <ele>260</ele>
        <time>2018-05-30T14:19:54Z</time>
      </trkpt>
      <trkpt lat="44.55292" lon="2.24035">
        <ele>260.3</ele>
        <time>2018-05-30T14:19:56Z</time>
      </trkpt>
      <trkpt lat="44.55295" lon="2.2403">
        <ele>260.5</ele>
        <time>2018-05-30T14:20:00Z</time>
      </trkpt>
      <trkpt lat="44.55299" lon="2.2403">
        <ele>260.8</ele>
        <time>2018-05-30T14:20:01Z</time>
      </trkpt>
      <trkpt lat="44.55306" lon="2.24035">
        <ele>261.1</ele>
        <time>2018-05-30T14:20:04Z</time>
      </trkpt>
      <trkpt lat="44.55314" lon="2.24037">
        <ele>261.4</ele>
        <time>2018-05-30T14:20:05Z</time>
      </trkpt>
      <trkpt lat="44.55319" lon="2.2404">
        <ele>261.7</ele>
        <time>2018-05-30T14:20:06Z</time>
      </trkpt>
      <trkpt lat="44.5538" lon="2.23977">
        <ele>265.5</ele>
        <time>2018-05-30T14:20:45Z</time>
      </trkpt>
      <trkpt lat="44.55381" lon="2.23975">
        <ele>265.6</ele>
        <time>2018-05-30T14:20:46Z</time>
      </trkpt>
      <trkpt lat="44.55381" lon="2.23971">
        <ele>265.8</ele>
        <time>2018-05-30T14:20:47Z</time>
      </trkpt>
      <trkpt lat="44.55379" lon="2.23982">
        <ele>266.1</ele>
        <time>2018-05-30T14:20:48Z</time>
      </trkpt>
      <trkpt lat="44.55377" lon="2.23986">
        <ele>266.3</ele>
        <time>2018-05-30T14:20:49Z</time>
      </trkpt>
      <trkpt lat="44.55378" lon="2.23978">
        <ele>266.5</ele>
        <time>2018-05-30T14:20:51Z</time>
      </trkpt>
      <trkpt lat="44.55378" lon="2.23973">
        <ele>266.7</ele>
        <time>2018-05-30T14:20:52Z</time>
      </trkpt>
      <trkpt lat="44.55382" lon="2.23975">
        <ele>267</ele>
        <time>2018-05-30T14:20:53Z</time>
      </trkpt>
      <trkpt lat="44.55386" lon="2.23993">
        <ele>267.7</ele>
        <time>2018-05-30T14:21:02Z</time>
      </trkpt>
      <trkpt lat="44.55389" lon="2.23996">
        <ele>267.9</ele>
        <time>2018-05-30T14:21:03Z</time>
      </trkpt>
      <trkpt lat="44.55396" lon="2.24069">
        <ele>274.1</ele>
        <time>2018-05-30T14:21:08Z</time>
      </trkpt>
      <trkpt lat="44.55395" lon="2.24055">
        <ele>272.5</ele>
        <time>2018-05-30T14:21:09Z</time>
      </trkpt>
      <trkpt lat="44.55395" lon="2.24043">
        <ele>271</ele>
        <time>2018-05-30T14:21:10Z</time>
      </trkpt>
      <trkpt lat="44.55395" lon="2.24036">
        <ele>270.4</ele>
        <time>2018-05-30T14:21:13Z</time>
      </trkpt>
      <trkpt lat="44.55394" lon="2.2403">
        <ele>269.5</ele>
        <time>2018-05-30T14:21:14Z</time>
      </trkpt>
      <trkpt lat="44.55393" lon="2.24024">
        <ele>269</ele>
        <time>2018-05-30T14:21:15Z</time>
      </trkpt>
      <trkpt lat="44.55393" lon="2.24018">
        <ele>268.5</ele>
        <time>2018-05-30T14:21:16Z</time>
      </trkpt>
      <trkpt lat="44.55392" lon="2.24013">
        <ele>267.7</ele>
        <time>2018-05-30T14:21:18Z</time>
      </trkpt>
      <trkpt lat="44.55392" lon="2.24007">
        <ele>267.9</ele>
        <time>2018-05-30T14:21:19Z</time>
      </trkpt>
      <trkpt lat="44.55396" lon="2.24008">
        <ele>268.1</ele>
        <time>2018-05-30T14:21:21Z</time>
      </trkpt>
      <trkpt lat="44.55396" lon="2.24002">
        <ele>268.4</ele>
        <time>2018-05-30T14:21:25Z</time>
      </trkpt>
      <trkpt lat="44.55397" lon="2.23996">
        <ele>268.7</ele>
        <time>2018-05-30T14:21:26Z</time>
      </trkpt>
      <trkpt lat="44.554" lon="2.23986">
        <ele>269.1</ele>
        <time>2018-05-30T14:21:29Z</time>
      </trkpt>
      <trkpt lat="44.55404" lon="2.23985">
        <ele>269.4</ele>
        <time>2018-05-30T14:21:30Z</time>
      </trkpt>
      <trkpt lat="44.55404" lon="2.23981">
        <ele>269.5</ele>
        <time>2018-05-30T14:21:31Z</time>
      </trkpt>
      <trkpt lat="44.55407" lon="2.23956">
        <ele>270.7</ele>
        <time>2018-05-30T14:21:33Z</time>
      </trkpt>
      <trkpt lat="44.55409" lon="2.23951">
        <ele>270.8</ele>
        <time>2018-05-30T14:21:34Z</time>
      </trkpt>
      <trkpt lat="44.55415" lon="2.2394">
        <ele>271.3</ele>
        <time>2018-05-30T14:21:35Z</time>
      </trkpt>
      <trkpt lat="44.5542" lon="2.2394">
        <ele>271.5</ele>
        <time>2018-05-30T14:21:37Z</time>
      </trkpt>
      <trkpt lat="44.55428" lon="2.23904">
        <ele>273</ele>
        <time>2018-05-30T14:21:39Z</time>
      </trkpt>
      <trkpt lat="44.55424" lon="2.23903">
        <ele>273.2</ele>
        <time>2018-05-30T14:21:40Z</time>
      </trkpt>
      <trkpt lat="44.55429" lon="2.23886">
        <ele>274</ele>
        <time>2018-05-30T14:21:41Z</time>
      </trkpt>
      <trkpt lat="44.55433" lon="2.23878">
        <ele>274.5</ele>
        <time>2018-05-30T14:21:43Z</time>
      </trkpt>
      <trkpt lat="44.55434" lon="2.23866">
        <ele>275</ele>
        <time>2018-05-30T14:21:44Z</time>
      </trkpt>
      <trkpt lat="44.55438" lon="2.23856">
        <ele>275.1</ele>
        <time>2018-05-30T14:21:45Z</time>
      </trkpt>
      <trkpt lat="44.55441" lon="2.23854">
        <ele>274.6</ele>
        <time>2018-05-30T14:21:46Z</time>
      </trkpt>
      <trkpt lat="44.55436" lon="2.23849">
        <ele>275.5</ele>
        <time>2018-05-30T14:21:47Z</time>
      </trkpt>
      <trkpt lat="44.55429" lon="2.23853">
        <ele>275.4</ele>
        <time>2018-05-30T14:21:48Z</time>
      </trkpt>
      <trkpt lat="44.55421" lon="2.23858">
        <ele>275.6</ele>
        <time>2018-05-30T14:21:49Z</time>
      </trkpt>
      <trkpt lat="44.55417" lon="2.23855">
        <ele>275.9</ele>
        <time>2018-05-30T14:21:50Z</time>
      </trkpt>
      <trkpt lat="44.55416" lon="2.23864">
        <ele>275.5</ele>
        <time>2018-05-30T14:21:51Z</time>
      </trkpt>
      <trkpt lat="44.55415" lon="2.2387">
        <ele>275.3</ele>
        <time>2018-05-30T14:21:53Z</time>
      </trkpt>
      <trkpt lat="44.55465" lon="2.23706">
        <ele>299.6</ele>
        <time>2018-05-30T14:23:50Z</time>
      </trkpt>
      <trkpt lat="44.55456" lon="2.23709">
        <ele>298.1</ele>
        <time>2018-05-30T14:23:52Z</time>
      </trkpt>
      <trkpt lat="44.5545" lon="2.23716">
        <ele>296.5</ele>
        <time>2018-05-30T14:23:54Z</time>
      </trkpt>
      <trkpt lat="44.55483" lon="2.23706">
        <ele>295.1</ele>
        <time>2018-05-30T14:23:56Z</time>
      </trkpt>
      <trkpt lat="44.55486" lon="2.23703">
        <ele>295.4</ele>
        <time>2018-05-30T14:23:58Z</time>
      </trkpt>
      <trkpt lat="44.55498" lon="2.23698">
        <ele>296.3</ele>
        <time>2018-05-30T14:24:00Z</time>
      </trkpt>
      <trkpt lat="44.55501" lon="2.23695">
        <ele>296.5</ele>
        <time>2018-05-30T14:24:01Z</time>
      </trkpt>
      <trkpt lat="44.55507" lon="2.23691">
        <ele>296.9</ele>
        <time>2018-05-30T14:24:04Z</time>
      </trkpt>
      <trkpt lat="44.55521" lon="2.23693">
        <ele>297.6</ele>
        <time>2018-05-30T14:24:07Z</time>
      </trkpt>
      <trkpt lat="44.55521" lon="2.23686">
        <ele>297.7</ele>
        <time>2018-05-30T14:24:09Z</time>
      </trkpt>
      <trkpt lat="44.55523" lon="2.2369">
        <ele>297.8</ele>
        <time>2018-05-30T14:24:10Z</time>
      </trkpt>
      <trkpt lat="44.55523" lon="2.23695">
        <ele>297.9</ele>
        <time>2018-05-30T14:24:13Z</time>
      </trkpt>
      <trkpt lat="44.55527" lon="2.23694">
        <ele>298</ele>
        <time>2018-05-30T14:24:16Z</time>
      </trkpt>
      <trkpt lat="44.55525" lon="2.23699">
        <ele>298.1</ele>
        <time>2018-05-30T14:24:17Z</time>
      </trkpt>
      <trkpt lat="44.55531" lon="2.23681">
        <ele>298.5</ele>
        <time>2018-05-30T14:24:19Z</time>
      </trkpt>
      <trkpt lat="44.55534" lon="2.23678">
        <ele>298.5</ele>
        <time>2018-05-30T14:24:20Z</time>
      </trkpt>
      <trkpt lat="44.55531" lon="2.23676">
        <ele>298.6</ele>
        <time>2018-05-30T14:24:21Z</time>
      </trkpt>
      <trkpt lat="44.55532" lon="2.23682">
        <ele>298.7</ele>
        <time>2018-05-30T14:24:22Z</time>
      </trkpt>
      <trkpt lat="44.55535" lon="2.23685">
        <ele>298.8</ele>
        <time>2018-05-30T14:24:23Z</time>
      </trkpt>
      <trkpt lat="44.55536" lon="2.23681">
        <ele>298.9</ele>
        <time>2018-05-30T14:24:24Z</time>
      </trkpt>
      <trkpt lat="44.5554" lon="2.23681">
        <ele>298.9</ele>
        <time>2018-05-30T14:24:26Z</time>
      </trkpt>
      <trkpt lat="44.5554" lon="2.23669">
        <ele>299.1</ele>
        <time>2018-05-30T14:24:27Z</time>
      </trkpt>
      <trkpt lat="44.55545" lon="2.23666">
        <ele>299.3</ele>
        <time>2018-05-30T14:24:29Z</time>
      </trkpt>
      <trkpt lat="44.55547" lon="2.23668">
        <ele>299.3</ele>
        <time>2018-05-30T14:24:31Z</time>
      </trkpt>
      <trkpt lat="44.55547" lon="2.23672">
        <ele>299.4</ele>
        <time>2018-05-30T14:24:32Z</time>
      </trkpt>
      <trkpt lat="44.55547" lon="2.23665">
        <ele>299.4</ele>
        <time>2018-05-30T14:24:33Z</time>
      </trkpt>
      <trkpt lat="44.55547" lon="2.23655">
        <ele>299.5</ele>
        <time>2018-05-30T14:24:34Z</time>
      </trkpt>
      <trkpt lat="44.55551" lon="2.23639">
        <ele>299.7</ele>
        <time>2018-05-30T14:24:40Z</time>
      </trkpt>
      <trkpt lat="44.55554" lon="2.23635">
        <ele>299.7</ele>
        <time>2018-05-30T14:24:41Z</time>
      </trkpt>
      <trkpt lat="44.55552" lon="2.23631">
        <ele>299.8</ele>
        <time>2018-05-30T14:24:42Z</time>
      </trkpt>
      <trkpt lat="44.55555" lon="2.23629">
        <ele>299.8</ele>
        <time>2018-05-30T14:24:43Z</time>
      </trkpt>
      <trkpt lat="44.55552" lon="2.23632">
        <ele>300</ele>
        <time>2018-05-30T14:24:46Z</time>
      </trkpt>
      <trkpt lat="44.55557" lon="2.23628">
        <ele>299.9</ele>
        <time>2018-05-30T14:24:49Z</time>
      </trkpt>
      <trkpt lat="44.5556" lon="2.23631">
        <ele>299.9</ele>
        <time>2018-05-30T14:24:52Z</time>
      </trkpt>
      <trkpt lat="44.55567" lon="2.2362">
        <ele>299.7</ele>
        <time>2018-05-30T14:24:54Z</time>
      </trkpt>
      <trkpt lat="44.5557" lon="2.23618">
        <ele>299.7</ele>
        <time>2018-05-30T14:24:55Z</time>
      </trkpt>
      <trkpt lat="44.55573" lon="2.23613">
        <ele>299.5</ele>
        <time>2018-05-30T14:24:56Z</time>
      </trkpt>
      <trkpt lat="44.5558" lon="2.23603">
        <ele>299.3</ele>
        <time>2018-05-30T14:24:58Z</time>
      </trkpt>
      <trkpt lat="44.55583" lon="2.236">
        <ele>299.3</ele>
        <time>2018-05-30T14:25:01Z</time>
      </trkpt>
      <trkpt lat="44.55586" lon="2.23605">
        <ele>299.2</ele>
        <time>2018-05-30T14:25:06Z</time>
      </trkpt>
      <trkpt lat="44.55588" lon="2.23604">
        <ele>299.1</ele>
        <time>2018-05-30T14:25:07Z</time>
      </trkpt>
      <trkpt lat="44.55591" lon="2.236">
        <ele>299</ele>
        <time>2018-05-30T14:25:09Z</time>
      </trkpt>
      <trkpt lat="44.55587" lon="2.236">
        <ele>298.9</ele>
        <time>2018-05-30T14:25:12Z</time>
      </trkpt>
      <trkpt lat="44.55591" lon="2.23601">
        <ele>298.8</ele>
        <time>2018-05-30T14:25:16Z</time>
      </trkpt>
      <trkpt lat="44.55595" lon="2.23593">
        <ele>298.5</ele>
        <time>2018-05-30T14:25:21Z</time>
      </trkpt>
      <trkpt lat="44.55599" lon="2.23596">
        <ele>298.2</ele>
        <time>2018-05-30T14:25:22Z</time>
      </trkpt>
      <trkpt lat="44.55601" lon="2.23593">
        <ele>298</ele>
        <time>2018-05-30T14:25:26Z</time>
      </trkpt>
      <trkpt lat="44.55605" lon="2.23592">
        <ele>297.7</ele>
        <time>2018-05-30T14:25:28Z</time>
      </trkpt>
      <trkpt lat="44.55612" lon="2.23589">
        <ele>297.1</ele>
        <time>2018-05-30T14:25:32Z</time>
      </trkpt>
      <trkpt lat="44.55615" lon="2.23588">
        <ele>296.8</ele>
        <time>2018-05-30T14:25:35Z</time>
      </trkpt>
      <trkpt lat="44.55618" lon="2.23587">
        <ele>296.5</ele>
        <time>2018-05-30T14:25:36Z</time>
      </trkpt>
      <trkpt lat="44.55615" lon="2.23587">
        <ele>296.1</ele>
        <time>2018-05-30T14:25:37Z</time>
      </trkpt>
      <trkpt lat="44.55619" lon="2.23584">
        <ele>295.6</ele>
        <time>2018-05-30T14:25:39Z</time>
      </trkpt>
      <trkpt lat="44.55625" lon="2.23582">
        <ele>294.9</ele>
        <time>2018-05-30T14:25:41Z</time>
      </trkpt>
      <trkpt lat="44.55628" lon="2.23576">
        <ele>294.3</ele>
        <time>2018-05-30T14:25:43Z</time>
      </trkpt>
      <trkpt lat="44.55627" lon="2.2358">
        <ele>293.9</ele>
        <time>2018-05-30T14:25:44Z</time>
      </trkpt>
      <trkpt lat="44.55629" lon="2.23575">
        <ele>293.4</ele>
        <time>2018-05-30T14:25:46Z</time>
      </trkpt>
      <trkpt lat="44.55633" lon="2.23573">
        <ele>292.9</ele>
        <time>2018-05-30T14:25:48Z</time>
      </trkpt>
      <trkpt lat="44.55635" lon="2.23568">
        <ele>292.5</ele>
        <time>2018-05-30T14:25:49Z</time>
      </trkpt>
      <trkpt lat="44.55639" lon="2.23568">
        <ele>292</ele>
        <time>2018-05-30T14:25:52Z</time>
      </trkpt>
      <trkpt lat="44.55642" lon="2.23567">
        <ele>291.6</ele>
        <time>2018-05-30T14:25:53Z</time>
      </trkpt>
      <trkpt lat="44.55648" lon="2.23559">
        <ele>290.6</ele>
        <time>2018-05-30T14:25:56Z</time>
      </trkpt>
      <trkpt lat="44.55652" lon="2.23557">
        <ele>290.2</ele>
        <time>2018-05-30T14:25:57Z</time>
      </trkpt>
      <trkpt lat="44.55656" lon="2.23553">
        <ele>289.8</ele>
        <time>2018-05-30T14:25:58Z</time>
      </trkpt>
      <trkpt lat="44.5566" lon="2.23546">
        <ele>289.2</ele>
        <time>2018-05-30T14:25:59Z</time>
      </trkpt>
      <trkpt lat="44.55665" lon="2.2354">
        <ele>288.6</ele>
        <time>2018-05-30T14:26:00Z</time>
      </trkpt>
      <trkpt lat="44.55668" lon="2.23536">
        <ele>288.2</ele>
        <time>2018-05-30T14:26:01Z</time>
      </trkpt>
      <trkpt lat="44.5567" lon="2.23531">
        <ele>287.8</ele>
        <time>2018-05-30T14:26:02Z</time>
      </trkpt>
      <trkpt lat="44.55673" lon="2.23526">
        <ele>287.4</ele>
        <time>2018-05-30T14:26:03Z</time>
      </trkpt>
      <trkpt lat="44.55676" lon="2.23521">
        <ele>287</ele>
        <time>2018-05-30T14:26:04Z</time>
      </trkpt>
      <trkpt lat="44.5568" lon="2.23518">
        <ele>286.6</ele>
        <time>2018-05-30T14:26:05Z</time>
      </trkpt>
      <trkpt lat="44.55682" lon="2.23514">
        <ele>286.4</ele>
        <time>2018-05-30T14:26:06Z</time>
      </trkpt>
      <trkpt lat="44.55684" lon="2.23511">
        <ele>286.1</ele>
        <time>2018-05-30T14:26:07Z</time>
      </trkpt>
      <trkpt lat="44.55688" lon="2.23504">
        <ele>285.4</ele>
        <time>2018-05-30T14:26:08Z</time>
      </trkpt>
      <trkpt lat="44.55691" lon="2.235">
        <ele>284.9</ele>
        <time>2018-05-30T14:26:09Z</time>
      </trkpt>
      <trkpt lat="44.55696" lon="2.23493">
        <ele>284</ele>
        <time>2018-05-30T14:26:11Z</time>
      </trkpt>
      <trkpt lat="44.55697" lon="2.23483">
        <ele>283.4</ele>
        <time>2018-05-30T14:26:14Z</time>
      </trkpt>
      <trkpt lat="44.55698" lon="2.23479">
        <ele>283.1</ele>
        <time>2018-05-30T14:26:15Z</time>
      </trkpt>
      <trkpt lat="44.557" lon="2.23472">
        <ele>282.4</ele>
        <time>2018-05-30T14:26:17Z</time>
      </trkpt>
      <trkpt lat="44.55697" lon="2.23469">
        <ele>281.9</ele>
        <time>2018-05-30T14:26:18Z</time>
      </trkpt>
      <trkpt lat="44.55698" lon="2.23464">
        <ele>281.5</ele>
        <time>2018-05-30T14:26:19Z</time>
      </trkpt>
      <trkpt lat="44.55699" lon="2.2346">
        <ele>281.2</ele>
        <time>2018-05-30T14:26:20Z</time>
      </trkpt>
      <trkpt lat="44.55701" lon="2.23452">
        <ele>280.3</ele>
        <time>2018-05-30T14:26:22Z</time>
      </trkpt>
      <trkpt lat="44.55702" lon="2.23447">
        <ele>279.9</ele>
        <time>2018-05-30T14:26:24Z</time>
      </trkpt>
      <trkpt lat="44.55704" lon="2.23443">
        <ele>279.5</ele>
        <time>2018-05-30T14:26:25Z</time>
      </trkpt>
      <trkpt lat="44.55705" lon="2.23438">
        <ele>279.1</ele>
        <time>2018-05-30T14:26:26Z</time>
      </trkpt>
      <trkpt lat="44.55705" lon="2.23434">
        <ele>278.7</ele>
        <time>2018-05-30T14:26:27Z</time>
      </trkpt>
      <trkpt lat="44.55705" lon="2.23428">
        <ele>278.3</ele>
        <time>2018-05-30T14:26:29Z</time>
      </trkpt>
      <trkpt lat="44.55705" lon="2.23424">
        <ele>278</ele>
        <time>2018-05-30T14:26:30Z</time>
      </trkpt>
      <trkpt lat="44.55705" lon="2.23416">
        <ele>277.1</ele>
        <time>2018-05-30T14:26:31Z</time>
      </trkpt>
      <trkpt lat="44.55703" lon="2.2341">
        <ele>276.5</ele>
        <time>2018-05-30T14:26:33Z</time>
      </trkpt>
      <trkpt lat="44.55703" lon="2.23405">
        <ele>276.1</ele>
        <time>2018-05-30T14:26:34Z</time>
      </trkpt>
      <trkpt lat="44.55704" lon="2.23399">
        <ele>275.5</ele>
        <time>2018-05-30T14:26:36Z</time>
      </trkpt>
      <trkpt lat="44.55706" lon="2.23392">
        <ele>274.8</ele>
        <time>2018-05-30T14:26:37Z</time>
      </trkpt>
      <trkpt lat="44.55705" lon="2.23389">
        <ele>274.3</ele>
        <time>2018-05-30T14:26:38Z</time>
      </trkpt>
      <trkpt lat="44.5571" lon="2.23383">
        <ele>273.4</ele>
        <time>2018-05-30T14:26:40Z</time>
      </trkpt>
      <trkpt lat="44.55712" lon="2.23374">
        <ele>272.6</ele>
        <time>2018-05-30T14:26:41Z</time>
      </trkpt>
      <trkpt lat="44.55712" lon="2.23371">
        <ele>272.2</ele>
        <time>2018-05-30T14:26:44Z</time>
      </trkpt>
      <trkpt lat="44.55712" lon="2.23364">
        <ele>271.7</ele>
        <time>2018-05-30T14:26:46Z</time>
      </trkpt>
      <trkpt lat="44.55716" lon="2.2336">
        <ele>271</ele>
        <time>2018-05-30T14:26:48Z</time>
      </trkpt>
      <trkpt lat="44.5572" lon="2.23355">
        <ele>273.2</ele>
        <time>2018-05-30T14:26:50Z</time>
      </trkpt>
      <trkpt lat="44.55725" lon="2.23355">
        <ele>273.4</ele>
        <time>2018-05-30T14:26:52Z</time>
      </trkpt>
      <trkpt lat="44.55717" lon="2.23673">
        <ele>267.9</ele>
        <time>2018-05-30T14:28:24Z</time>
      </trkpt>
      <trkpt lat="44.55717" lon="2.23678">
        <ele>269.3</ele>
        <time>2018-05-30T14:28:26Z</time>
      </trkpt>
      <trkpt lat="44.55718" lon="2.23683">
        <ele>269.7</ele>
        <time>2018-05-30T14:28:28Z</time>
      </trkpt>
      <trkpt lat="44.5572" lon="2.23686">
        <ele>271.1</ele>
        <time>2018-05-30T14:28:29Z</time>
      </trkpt>
      <trkpt lat="44.55727" lon="2.23696">
        <ele>268.6</ele>
        <time>2018-05-30T14:28:30Z</time>
      </trkpt>
      <trkpt lat="44.55736" lon="2.23704">
        <ele>267.6</ele>
        <time>2018-05-30T14:28:31Z</time>
      </trkpt>
      <trkpt lat="44.55736" lon="2.23708">
        <ele>269</ele>
        <time>2018-05-30T14:28:32Z</time>
      </trkpt>
      <trkpt lat="44.5574" lon="2.23702">
        <ele>269.6</ele>
        <time>2018-05-30T14:28:34Z</time>
      </trkpt>
      <trkpt lat="44.55744" lon="2.23692">
        <ele>270.4</ele>
        <time>2018-05-30T14:28:36Z</time>
      </trkpt>
      <trkpt lat="44.55743" lon="2.23687">
        <ele>270.8</ele>
        <time>2018-05-30T14:28:38Z</time>
      </trkpt>
      <trkpt lat="44.55746" lon="2.23679">
        <ele>271.4</ele>
        <time>2018-05-30T14:28:39Z</time>
      </trkpt>
      <trkpt lat="44.55745" lon="2.23676">
        <ele>271.7</ele>
        <time>2018-05-30T14:28:41Z</time>
      </trkpt>
      <trkpt lat="44.55747" lon="2.2367">
        <ele>272.1</ele>
        <time>2018-05-30T14:28:42Z</time>
      </trkpt>
      <trkpt lat="44.55749" lon="2.23664">
        <ele>272.8</ele>
        <time>2018-05-30T14:28:43Z</time>
      </trkpt>
      <trkpt lat="44.55752" lon="2.23656">
        <ele>275</ele>
        <time>2018-05-30T14:28:44Z</time>
      </trkpt>
      <trkpt lat="44.55754" lon="2.23661">
        <ele>276.8</ele>
        <time>2018-05-30T14:28:45Z</time>
      </trkpt>
      <trkpt lat="44.55756" lon="2.23656">
        <ele>279.2</ele>
        <time>2018-05-30T14:28:46Z</time>
      </trkpt>
      <trkpt lat="44.55759" lon="2.23652">
        <ele>280.3</ele>
        <time>2018-05-30T14:28:47Z</time>
      </trkpt>
      <trkpt lat="44.55761" lon="2.23649">
        <ele>281.2</ele>
        <time>2018-05-30T14:28:48Z</time>
      </trkpt>
      <trkpt lat="44.5576" lon="2.23644">
        <ele>282.1</ele>
        <time>2018-05-30T14:28:50Z</time>
      </trkpt>
      <trkpt lat="44.55758" lon="2.23637">
        <ele>283.7</ele>
        <time>2018-05-30T14:28:53Z</time>
      </trkpt>
      <trkpt lat="44.55758" lon="2.23632">
        <ele>285.9</ele>
        <time>2018-05-30T14:28:55Z</time>
      </trkpt>
      <trkpt lat="44.55765" lon="2.23629">
        <ele>289.1</ele>
        <time>2018-05-30T14:28:56Z</time>
      </trkpt>
      <trkpt lat="44.55762" lon="2.23628">
        <ele>287</ele>
        <time>2018-05-30T14:28:57Z</time>
      </trkpt>
      <trkpt lat="44.55765" lon="2.23626">
        <ele>285.6</ele>
        <time>2018-05-30T14:28:58Z</time>
      </trkpt>
      <trkpt lat="44.5577" lon="2.2362">
        <ele>283.3</ele>
        <time>2018-05-30T14:29:01Z</time>
      </trkpt>
      <trkpt lat="44.55771" lon="2.23613">
        <ele>281.4</ele>
        <time>2018-05-30T14:29:02Z</time>
      </trkpt>
      <trkpt lat="44.55772" lon="2.23602">
        <ele>278.8</ele>
        <time>2018-05-30T14:29:03Z</time>
      </trkpt>
      <trkpt lat="44.55771" lon="2.23598">
        <ele>278</ele>
        <time>2018-05-30T14:29:04Z</time>
      </trkpt>
      <trkpt lat="44.55777" lon="2.23592">
        <ele>275.4</ele>
        <time>2018-05-30T14:29:05Z</time>
      </trkpt>
      <trkpt lat="44.55777" lon="2.23587">
        <ele>274.2</ele>
        <time>2018-05-30T14:29:06Z</time>
      </trkpt>
      <trkpt lat="44.55778" lon="2.23583">
        <ele>272.9</ele>
        <time>2018-05-30T14:29:07Z</time>
      </trkpt>
      <trkpt lat="44.5578" lon="2.23579">
        <ele>270.9</ele>
        <time>2018-05-30T14:29:08Z</time>
      </trkpt>
      <trkpt lat="44.55786" lon="2.23572">
        <ele>269.1</ele>
        <time>2018-05-30T14:29:11Z</time>
      </trkpt>
      <trkpt lat="44.55789" lon="2.23569">
        <ele>268.5</ele>
        <time>2018-05-30T14:29:15Z</time>
      </trkpt>
      <trkpt lat="44.55791" lon="2.23565">
        <ele>268</ele>
        <time>2018-05-30T14:29:16Z</time>
      </trkpt>
      <trkpt lat="44.55794" lon="2.23561">
        <ele>267.2</ele>
        <time>2018-05-30T14:29:18Z</time>
      </trkpt>
      <trkpt lat="44.55795" lon="2.23558">
        <ele>266.4</ele>
        <time>2018-05-30T14:29:19Z</time>
      </trkpt>
      <trkpt lat="44.55798" lon="2.23557">
        <ele>265.5</ele>
        <time>2018-05-30T14:29:21Z</time>
      </trkpt>
      <trkpt lat="44.558" lon="2.23553">
        <ele>264.7</ele>
        <time>2018-05-30T14:29:22Z</time>
      </trkpt>
      <trkpt lat="44.558" lon="2.23548">
        <ele>264</ele>
        <time>2018-05-30T14:29:23Z</time>
      </trkpt>
      <trkpt lat="44.55803" lon="2.23546">
        <ele>263.3</ele>
        <time>2018-05-30T14:29:24Z</time>
      </trkpt>
      <trkpt lat="44.55803" lon="2.23542">
        <ele>262.5</ele>
        <time>2018-05-30T14:29:25Z</time>
      </trkpt>
      <trkpt lat="44.5581" lon="2.23538">
        <ele>260.5</ele>
        <time>2018-05-30T14:29:27Z</time>
      </trkpt>
      <trkpt lat="44.55813" lon="2.23535">
        <ele>259.6</ele>
        <time>2018-05-30T14:29:28Z</time>
      </trkpt>
      <trkpt lat="44.55818" lon="2.23528">
        <ele>257.4</ele>
        <time>2018-05-30T14:29:29Z</time>
      </trkpt>
      <trkpt lat="44.55818" lon="2.23519">
        <ele>255.9</ele>
        <time>2018-05-30T14:29:30Z</time>
      </trkpt>
      <trkpt lat="44.55822" lon="2.23515">
        <ele>254.9</ele>
        <time>2018-05-30T14:29:31Z</time>
      </trkpt>
      <trkpt lat="44.55825" lon="2.23513">
        <ele>253.8</ele>
        <time>2018-05-30T14:29:35Z</time>
      </trkpt>
      <trkpt lat="44.55828" lon="2.23507">
        <ele>252.8</ele>
        <time>2018-05-30T14:29:37Z</time>
      </trkpt>
      <trkpt lat="44.55831" lon="2.23503">
        <ele>252.3</ele>
        <time>2018-05-30T14:29:38Z</time>
      </trkpt>
      <trkpt lat="44.55835" lon="2.23496">
        <ele>250.7</ele>
        <time>2018-05-30T14:29:39Z</time>
      </trkpt>
      <trkpt lat="44.55837" lon="2.23492">
        <ele>249.4</ele>
        <time>2018-05-30T14:29:40Z</time>
      </trkpt>
      <trkpt lat="44.55841" lon="2.23482">
        <ele>248.7</ele>
        <time>2018-05-30T14:29:42Z</time>
      </trkpt>
      <trkpt lat="44.55844" lon="2.2347">
        <ele>247.3</ele>
        <time>2018-05-30T14:29:43Z</time>
      </trkpt>
      <trkpt lat="44.55842" lon="2.23467">
        <ele>247.3</ele>
        <time>2018-05-30T14:29:44Z</time>
      </trkpt>
      <trkpt lat="44.55838" lon="2.23464">
        <ele>247.5</ele>
        <time>2018-05-30T14:29:46Z</time>
      </trkpt>
      <trkpt lat="44.5584" lon="2.2346">
        <ele>248</ele>
        <time>2018-05-30T14:29:47Z</time>
      </trkpt>
      <trkpt lat="44.55839" lon="2.23455">
        <ele>248.4</ele>
        <time>2018-05-30T14:29:48Z</time>
      </trkpt>
      <trkpt lat="44.55837" lon="2.23449">
        <ele>249.2</ele>
        <time>2018-05-30T14:29:51Z</time>
      </trkpt>
      <trkpt lat="44.55837" lon="2.23445">
        <ele>249.7</ele>
        <time>2018-05-30T14:29:53Z</time>
      </trkpt>
      <trkpt lat="44.55838" lon="2.23439">
        <ele>250.3</ele>
        <time>2018-05-30T14:29:54Z</time>
      </trkpt>
      <trkpt lat="44.5584" lon="2.23432">
        <ele>251</ele>
        <time>2018-05-30T14:29:56Z</time>
      </trkpt>
      <trkpt lat="44.55836" lon="2.23426">
        <ele>250.9</ele>
        <time>2018-05-30T14:29:57Z</time>
      </trkpt>
      <trkpt lat="44.55832" lon="2.23418">
        <ele>250.5</ele>
        <time>2018-05-30T14:29:59Z</time>
      </trkpt>
      <trkpt lat="44.55835" lon="2.23409">
        <ele>249.3</ele>
        <time>2018-05-30T14:30:00Z</time>
      </trkpt>
      <trkpt lat="44.55841" lon="2.23409">
        <ele>247.7</ele>
        <time>2018-05-30T14:30:01Z</time>
      </trkpt>
      <trkpt lat="44.55843" lon="2.23406">
        <ele>246.7</ele>
        <time>2018-05-30T14:30:02Z</time>
      </trkpt>
      <trkpt lat="44.5585" lon="2.234">
        <ele>245.1</ele>
        <time>2018-05-30T14:30:06Z</time>
      </trkpt>
      <trkpt lat="44.5585" lon="2.23393">
        <ele>244.8</ele>
        <time>2018-05-30T14:30:08Z</time>
      </trkpt>
      <trkpt lat="44.55851" lon="2.23388">
        <ele>244.6</ele>
        <time>2018-05-30T14:30:09Z</time>
      </trkpt>
      <trkpt lat="44.55854" lon="2.23386">
        <ele>244.4</ele>
        <time>2018-05-30T14:30:10Z</time>
      </trkpt>
      <trkpt lat="44.55858" lon="2.23381">
        <ele>243</ele>
        <time>2018-05-30T14:30:12Z</time>
      </trkpt>
      <trkpt lat="44.55864" lon="2.23376">
        <ele>240.5</ele>
        <time>2018-05-30T14:30:14Z</time>
      </trkpt>
      <trkpt lat="44.55864" lon="2.23372">
        <ele>240.2</ele>
        <time>2018-05-30T14:30:15Z</time>
      </trkpt>
      <trkpt lat="44.55863" lon="2.23367">
        <ele>239.9</ele>
        <time>2018-05-30T14:30:16Z</time>
      </trkpt>
      <trkpt lat="44.55859" lon="2.23359">
        <ele>240.7</ele>
        <time>2018-05-30T14:30:18Z</time>
      </trkpt>
      <trkpt lat="44.55858" lon="2.23354">
        <ele>240.3</ele>
        <time>2018-05-30T14:30:19Z</time>
      </trkpt>
      <trkpt lat="44.55858" lon="2.23349">
        <ele>241.1</ele>
        <time>2018-05-30T14:30:20Z</time>
      </trkpt>
      <trkpt lat="44.55857" lon="2.23342">
        <ele>240.6</ele>
        <time>2018-05-30T14:30:22Z</time>
      </trkpt>
      <trkpt lat="44.55854" lon="2.23337">
        <ele>241.3</ele>
        <time>2018-05-30T14:30:23Z</time>
      </trkpt>
      <trkpt lat="44.55852" lon="2.23331">
        <ele>241.9</ele>
        <time>2018-05-30T14:30:25Z</time>
      </trkpt>
      <trkpt lat="44.55853" lon="2.23326">
        <ele>240.4</ele>
        <time>2018-05-30T14:30:26Z</time>
      </trkpt>
      <trkpt lat="44.55854" lon="2.23321">
        <ele>239.9</ele>
        <time>2018-05-30T14:30:28Z</time>
      </trkpt>
      <trkpt lat="44.55857" lon="2.23321">
        <ele>238.5</ele>
        <time>2018-05-30T14:30:29Z</time>
      </trkpt>
      <trkpt lat="44.55854" lon="2.23321">
        <ele>239.3</ele>
        <time>2018-05-30T14:30:31Z</time>
      </trkpt>
      <trkpt lat="44.55855" lon="2.23317">
        <ele>238.9</ele>
        <time>2018-05-30T14:30:32Z</time>
      </trkpt>
      <trkpt lat="44.55853" lon="2.23312">
        <ele>238.5</ele>
        <time>2018-05-30T14:30:33Z</time>
      </trkpt>
      <trkpt lat="44.55851" lon="2.23308">
        <ele>239.2</ele>
        <time>2018-05-30T14:30:34Z</time>
      </trkpt>
      <trkpt lat="44.55851" lon="2.23302">
        <ele>238.9</ele>
        <time>2018-05-30T14:30:36Z</time>
      </trkpt>
      <trkpt lat="44.55855" lon="2.23298">
        <ele>237.5</ele>
        <time>2018-05-30T14:30:37Z</time>
      </trkpt>
      <trkpt lat="44.55856" lon="2.2329">
        <ele>236.2</ele>
        <time>2018-05-30T14:30:39Z</time>
      </trkpt>
      <trkpt lat="44.55855" lon="2.23286">
        <ele>236.9</ele>
        <time>2018-05-30T14:30:40Z</time>
      </trkpt>
      <trkpt lat="44.55854" lon="2.2328">
        <ele>236.6</ele>
        <time>2018-05-30T14:30:42Z</time>
      </trkpt>
      <trkpt lat="44.55855" lon="2.23274">
        <ele>236.2</ele>
        <time>2018-05-30T14:30:43Z</time>
      </trkpt>
      <trkpt lat="44.55852" lon="2.23273">
        <ele>235.9</ele>
        <time>2018-05-30T14:30:44Z</time>
      </trkpt>
      <trkpt lat="44.55849" lon="2.23272">
        <ele>236.6</ele>
        <time>2018-05-30T14:30:45Z</time>
      </trkpt>
      <trkpt lat="44.55853" lon="2.23267">
        <ele>235.2</ele>
        <time>2018-05-30T14:30:47Z</time>
      </trkpt>
      <trkpt lat="44.55855" lon="2.23264">
        <ele>234.9</ele>
        <time>2018-05-30T14:30:49Z</time>
      </trkpt>
      <trkpt lat="44.55856" lon="2.23261">
        <ele>233.4</ele>
        <time>2018-05-30T14:30:50Z</time>
      </trkpt>
      <trkpt lat="44.55855" lon="2.23255">
        <ele>234</ele>
        <time>2018-05-30T14:30:51Z</time>
      </trkpt>
      <trkpt lat="44.55855" lon="2.23249">
        <ele>232.4</ele>
        <time>2018-05-30T14:30:53Z</time>
      </trkpt>
      <trkpt lat="44.55855" lon="2.23243">
        <ele>231.9</ele>
        <time>2018-05-30T14:30:55Z</time>
      </trkpt>
      <trkpt lat="44.55859" lon="2.2324">
        <ele>230.4</ele>
        <time>2018-05-30T14:30:56Z</time>
      </trkpt>
      <trkpt lat="44.5586" lon="2.23235">
        <ele>229.9</ele>
        <time>2018-05-30T14:30:58Z</time>
      </trkpt>
      <trkpt lat="44.5586" lon="2.23227">
        <ele>229.2</ele>
        <time>2018-05-30T14:31:00Z</time>
      </trkpt>
      <trkpt lat="44.55858" lon="2.2322">
        <ele>229.4</ele>
        <time>2018-05-30T14:31:01Z</time>
      </trkpt>
      <trkpt lat="44.55857" lon="2.23214">
        <ele>228.9</ele>
        <time>2018-05-30T14:31:03Z</time>
      </trkpt>
      <trkpt lat="44.55858" lon="2.23208">
        <ele>228.4</ele>
        <time>2018-05-30T14:31:04Z</time>
      </trkpt>
      <trkpt lat="44.55862" lon="2.23203">
        <ele>226.4</ele>
        <time>2018-05-30T14:31:05Z</time>
      </trkpt>
      <trkpt lat="44.55864" lon="2.23199">
        <ele>226</ele>
        <time>2018-05-30T14:31:06Z</time>
      </trkpt>
      <trkpt lat="44.55865" lon="2.23196">
        <ele>224.9</ele>
        <time>2018-05-30T14:31:07Z</time>
      </trkpt>
      <trkpt lat="44.5587" lon="2.23196">
        <ele>224</ele>
        <time>2018-05-30T14:31:09Z</time>
      </trkpt>
      <trkpt lat="44.55864" lon="2.23194">
        <ele>224.8</ele>
        <time>2018-05-30T14:31:10Z</time>
      </trkpt>
      <trkpt lat="44.5586" lon="2.23191">
        <ele>225.2</ele>
        <time>2018-05-30T14:31:11Z</time>
      </trkpt>
      <trkpt lat="44.55858" lon="2.23188">
        <ele>225.5</ele>
        <time>2018-05-30T14:31:12Z</time>
      </trkpt>
      <trkpt lat="44.55859" lon="2.23183">
        <ele>224.3</ele>
        <time>2018-05-30T14:31:14Z</time>
      </trkpt>
      <trkpt lat="44.55852" lon="2.23183">
        <ele>225.5</ele>
        <time>2018-05-30T14:31:15Z</time>
      </trkpt>
      <trkpt lat="44.55856" lon="2.23179">
        <ele>225</ele>
        <time>2018-05-30T14:31:17Z</time>
      </trkpt>
      <trkpt lat="44.5586" lon="2.23175">
        <ele>224.4</ele>
        <time>2018-05-30T14:31:18Z</time>
      </trkpt>
      <trkpt lat="44.55855" lon="2.23169">
        <ele>222.9</ele>
        <time>2018-05-30T14:31:19Z</time>
      </trkpt>
      <trkpt lat="44.55865" lon="2.23166">
        <ele>221.2</ele>
        <time>2018-05-30T14:31:20Z</time>
      </trkpt>
      <trkpt lat="44.55868" lon="2.23161">
        <ele>220.5</ele>
        <time>2018-05-30T14:31:21Z</time>
      </trkpt>
      <trkpt lat="44.55867" lon="2.23157">
        <ele>219.9</ele>
        <time>2018-05-30T14:31:22Z</time>
      </trkpt>
      <trkpt lat="44.5587" lon="2.23155">
        <ele>219.2</ele>
        <time>2018-05-30T14:31:23Z</time>
      </trkpt>
      <trkpt lat="44.55872" lon="2.23147">
        <ele>218.1</ele>
        <time>2018-05-30T14:31:24Z</time>
      </trkpt>
      <trkpt lat="44.55876" lon="2.23143">
        <ele>217.3</ele>
        <time>2018-05-30T14:31:25Z</time>
      </trkpt>
      <trkpt lat="44.55883" lon="2.23141">
        <ele>216</ele>
        <time>2018-05-30T14:31:27Z</time>
      </trkpt>
      <trkpt lat="44.55886" lon="2.23136">
        <ele>215.3</ele>
        <time>2018-05-30T14:31:28Z</time>
      </trkpt>
      <trkpt lat="44.55889" lon="2.23135">
        <ele>214.9</ele>
        <time>2018-05-30T14:31:29Z</time>
      </trkpt>
      <trkpt lat="44.55891" lon="2.23133">
        <ele>214.5</ele>
        <time>2018-05-30T14:31:30Z</time>
      </trkpt>
      <trkpt lat="44.55893" lon="2.23125">
        <ele>213.6</ele>
        <time>2018-05-30T14:31:31Z</time>
      </trkpt>
      <trkpt lat="44.55893" lon="2.2312">
        <ele>213.1</ele>
        <time>2018-05-30T14:31:32Z</time>
      </trkpt>
      <trkpt lat="44.55897" lon="2.23113">
        <ele>212.3</ele>
        <time>2018-05-30T14:31:34Z</time>
      </trkpt>
      <trkpt lat="44.55902" lon="2.23109">
        <ele>211.5</ele>
        <time>2018-05-30T14:31:36Z</time>
      </trkpt>
      <trkpt lat="44.55903" lon="2.23106">
        <ele>211.1</ele>
        <time>2018-05-30T14:31:37Z</time>
      </trkpt>
      <trkpt lat="44.55904" lon="2.23102">
        <ele>210.7</ele>
        <time>2018-05-30T14:31:38Z</time>
      </trkpt>
      <trkpt lat="44.55904" lon="2.23096">
        <ele>210</ele>
        <time>2018-05-30T14:31:40Z</time>
      </trkpt>
      <trkpt lat="44.55907" lon="2.23088">
        <ele>209.1</ele>
        <time>2018-05-30T14:31:42Z</time>
      </trkpt>
      <trkpt lat="44.55909" lon="2.23084">
        <ele>208.7</ele>
        <time>2018-05-30T14:31:43Z</time>
      </trkpt>
      <trkpt lat="44.55909" lon="2.23078">
        <ele>208.2</ele>
        <time>2018-05-30T14:31:45Z</time>
      </trkpt>
      <trkpt lat="44.55909" lon="2.23077">
        <ele>208</ele>
        <time>2018-05-30T14:31:50Z</time>
      </trkpt>
      <trkpt lat="44.55909" lon="2.23076">
        <ele>207.9</ele>
        <time>2018-05-30T14:31:51Z</time>
      </trkpt>
      <trkpt lat="44.5591" lon="2.23066">
        <ele>207</ele>
        <time>2018-05-30T14:31:52Z</time>
      </trkpt>
      <trkpt lat="44.55905" lon="2.23355">
        <ele>210.3</ele>
        <time>2018-05-30T14:33:35Z</time>
      </trkpt>
      <trkpt lat="44.55917" lon="2.23377">
        <ele>212</ele>
        <time>2018-05-30T14:33:43Z</time>
      </trkpt>
      <trkpt lat="44.55923" lon="2.23389">
        <ele>212.3</ele>
        <time>2018-05-30T14:33:44Z</time>
      </trkpt>
      <trkpt lat="44.55927" lon="2.23404">
        <ele>212.8</ele>
        <time>2018-05-30T14:33:45Z</time>
      </trkpt>
      <trkpt lat="44.55931" lon="2.2342">
        <ele>213.6</ele>
        <time>2018-05-30T14:33:47Z</time>
      </trkpt>
      <trkpt lat="44.55932" lon="2.23426">
        <ele>213.8</ele>
        <time>2018-05-30T14:33:48Z</time>
      </trkpt>
      <trkpt lat="44.55929" lon="2.23434">
        <ele>214.2</ele>
        <time>2018-05-30T14:33:49Z</time>
      </trkpt>
      <trkpt lat="44.55925" lon="2.23429">
        <ele>214.5</ele>
        <time>2018-05-30T14:33:50Z</time>
      </trkpt>
      <trkpt lat="44.5593" lon="2.23446">
        <ele>215.1</ele>
        <time>2018-05-30T14:33:51Z</time>
      </trkpt>
      <trkpt lat="44.55923" lon="2.23452">
        <ele>215.5</ele>
        <time>2018-05-30T14:33:54Z</time>
      </trkpt>
      <trkpt lat="44.55916" lon="2.23461">
        <ele>215.8</ele>
        <time>2018-05-30T14:33:55Z</time>
      </trkpt>
      <trkpt lat="44.55912" lon="2.2346">
        <ele>216</ele>
        <time>2018-05-30T14:33:57Z</time>
      </trkpt>
      <trkpt lat="44.55907" lon="2.23526">
        <ele>219.8</ele>
        <time>2018-05-30T14:34:15Z</time>
      </trkpt>
      <trkpt lat="44.55904" lon="2.2353">
        <ele>220.1</ele>
        <time>2018-05-30T14:34:16Z</time>
      </trkpt>
      <trkpt lat="44.55907" lon="2.23531">
        <ele>220.4</ele>
        <time>2018-05-30T14:34:17Z</time>
      </trkpt>
      <trkpt lat="44.55902" lon="2.23533">
        <ele>220.8</ele>
        <time>2018-05-30T14:34:20Z</time>
      </trkpt>
      <trkpt lat="44.55901" lon="2.23537">
        <ele>221.1</ele>
        <time>2018-05-30T14:34:22Z</time>
      </trkpt>
      <trkpt lat="44.559" lon="2.23543">
        <ele>221.5</ele>
        <time>2018-05-30T14:34:25Z</time>
      </trkpt>
      <trkpt lat="44.55898" lon="2.23547">
        <ele>221.8</ele>
        <time>2018-05-30T14:34:26Z</time>
      </trkpt>
      <trkpt lat="44.55907" lon="2.23584">
        <ele>224.5</ele>
        <time>2018-05-30T14:34:31Z</time>
      </trkpt>
      <trkpt lat="44.55904" lon="2.23593">
        <ele>225.1</ele>
        <time>2018-05-30T14:34:32Z</time>
      </trkpt>
      <trkpt lat="44.55905" lon="2.23598">
        <ele>225.6</ele>
        <time>2018-05-30T14:34:34Z</time>
      </trkpt>
      <trkpt lat="44.55902" lon="2.23603">
        <ele>226</ele>
        <time>2018-05-30T14:34:35Z</time>
      </trkpt>
      <trkpt lat="44.55899" lon="2.23604">
        <ele>226</ele>
        <time>2018-05-30T14:34:36Z</time>
      </trkpt>
      <trkpt lat="44.55895" lon="2.23605">
        <ele>226</ele>
        <time>2018-05-30T14:34:39Z</time>
      </trkpt>
      <trkpt lat="44.55906" lon="2.23604">
        <ele>226</ele>
        <time>2018-05-30T14:34:47Z</time>
      </trkpt>
      <trkpt lat="44.55906" lon="2.23608">
        <ele>226</ele>
        <time>2018-05-30T14:34:48Z</time>
      </trkpt>
      <trkpt lat="44.55906" lon="2.23612">
        <ele>226</ele>
        <time>2018-05-30T14:34:51Z</time>
      </trkpt>
      <trkpt lat="44.55927" lon="2.23604">
        <ele>203</ele>
        <time>2018-05-30T14:34:59Z</time>
      </trkpt>
      <trkpt lat="44.55938" lon="2.23601">
        <ele>203</ele>
        <time>2018-05-30T14:35:01Z</time>
      </trkpt>
      <trkpt lat="44.55935" lon="2.23603">
        <ele>203</ele>
        <time>2018-05-30T14:35:02Z</time>
      </trkpt>
      <trkpt lat="44.5592" lon="2.23601">
        <ele>203</ele>
        <time>2018-05-30T14:35:11Z</time>
      </trkpt>
      <trkpt lat="44.55916" lon="2.23603">
        <ele>214</ele>
        <time>2018-05-30T14:35:18Z</time>
      </trkpt>
      <trkpt lat="44.55895" lon="2.23594">
        <ele>226</ele>
        <time>2018-05-30T14:36:10Z</time>
      </trkpt>
      <trkpt lat="44.559" lon="2.23615">
        <ele>226</ele>
        <time>2018-05-30T14:36:14Z</time>
      </trkpt>
      <trkpt lat="44.55906" lon="2.23614">
        <ele>225.6</ele>
        <time>2018-05-30T14:36:15Z</time>
      </trkpt>
      <trkpt lat="44.55907" lon="2.23619">
        <ele>225.2</ele>
        <time>2018-05-30T14:36:16Z</time>
      </trkpt>
      <trkpt lat="44.55902" lon="2.23623">
        <ele>224.9</ele>
        <time>2018-05-30T14:36:18Z</time>
      </trkpt>
      <trkpt lat="44.55902" lon="2.23627">
        <ele>224.7</ele>
        <time>2018-05-30T14:36:20Z</time>
      </trkpt>
      <trkpt lat="44.55899" lon="2.23632">
        <ele>224.4</ele>
        <time>2018-05-30T14:36:22Z</time>
      </trkpt>
      <trkpt lat="44.55897" lon="2.23636">
        <ele>224.2</ele>
        <time>2018-05-30T14:36:23Z</time>
      </trkpt>
      <trkpt lat="44.559" lon="2.2363">
        <ele>224</ele>
        <time>2018-05-30T14:36:25Z</time>
      </trkpt>
      <trkpt lat="44.55897" lon="2.23642">
        <ele>223.4</ele>
        <time>2018-05-30T14:36:26Z</time>
      </trkpt>
      <trkpt lat="44.55903" lon="2.23641">
        <ele>222.9</ele>
        <time>2018-05-30T14:36:27Z</time>
      </trkpt>
      <trkpt lat="44.55893" lon="2.23661">
        <ele>221.9</ele>
        <time>2018-05-30T14:36:29Z</time>
      </trkpt>
      <trkpt lat="44.55891" lon="2.23669">
        <ele>221.5</ele>
        <time>2018-05-30T14:36:32Z</time>
      </trkpt>
      <trkpt lat="44.55896" lon="2.23674">
        <ele>221.2</ele>
        <time>2018-05-30T14:36:33Z</time>
      </trkpt>
      <trkpt lat="44.55894" lon="2.23679">
        <ele>221</ele>
        <time>2018-05-30T14:36:34Z</time>
      </trkpt>
      <trkpt lat="44.55896" lon="2.23687">
        <ele>220.7</ele>
        <time>2018-05-30T14:36:36Z</time>
      </trkpt>
      <trkpt lat="44.55894" lon="2.23693">
        <ele>220.3</ele>
        <time>2018-05-30T14:36:37Z</time>
      </trkpt>
      <trkpt lat="44.55894" lon="2.237">
        <ele>220</ele>
        <time>2018-05-30T14:36:39Z</time>
      </trkpt>
      <trkpt lat="44.55895" lon="2.23706">
        <ele>219.7</ele>
        <time>2018-05-30T14:36:41Z</time>
      </trkpt>
      <trkpt lat="44.55898" lon="2.23711">
        <ele>219.6</ele>
        <time>2018-05-30T14:36:43Z</time>
      </trkpt>
      <trkpt lat="44.559" lon="2.23715">
        <ele>219.4</ele>
        <time>2018-05-30T14:36:45Z</time>
      </trkpt>
      <trkpt lat="44.55902" lon="2.23718">
        <ele>219.3</ele>
        <time>2018-05-30T14:36:46Z</time>
      </trkpt>
      <trkpt lat="44.55904" lon="2.23723">
        <ele>219.2</ele>
        <time>2018-05-30T14:36:47Z</time>
      </trkpt>
      <trkpt lat="44.55905" lon="2.23732">
        <ele>219</ele>
        <time>2018-05-30T14:36:49Z</time>
      </trkpt>
      <trkpt lat="44.55906" lon="2.23723">
        <ele>219.2</ele>
        <time>2018-05-30T14:36:50Z</time>
      </trkpt>
      <trkpt lat="44.55909" lon="2.2373">
        <ele>219.7</ele>
        <time>2018-05-30T14:36:51Z</time>
      </trkpt>
      <trkpt lat="44.5591" lon="2.23739">
        <ele>220.1</ele>
        <time>2018-05-30T14:36:52Z</time>
      </trkpt>
      <trkpt lat="44.55911" lon="2.23745">
        <ele>220.3</ele>
        <time>2018-05-30T14:36:53Z</time>
      </trkpt>
      <trkpt lat="44.55912" lon="2.23748">
        <ele>220.4</ele>
        <time>2018-05-30T14:36:54Z</time>
      </trkpt>
      <trkpt lat="44.55915" lon="2.23838">
        <ele>222.6</ele>
        <time>2018-05-30T14:38:38Z</time>
      </trkpt>
      <trkpt lat="44.55915" lon="2.23834">
        <ele>223</ele>
        <time>2018-05-30T14:38:39Z</time>
      </trkpt>
      <trkpt lat="44.55933" lon="2.23912">
        <ele>213</ele>
        <time>2018-05-30T14:38:42Z</time>
      </trkpt>
      <trkpt lat="44.55934" lon="2.23922">
        <ele>213</ele>
        <time>2018-05-30T14:38:43Z</time>
      </trkpt>
      <trkpt lat="44.55945" lon="2.23906">
        <ele>213</ele>
        <time>2018-05-30T14:38:45Z</time>
      </trkpt>
      <trkpt lat="44.55952" lon="2.23885">
        <ele>213.1</ele>
        <time>2018-05-30T14:38:46Z</time>
      </trkpt>
      <trkpt lat="44.55957" lon="2.23878">
        <ele>213.1</ele>
        <time>2018-05-30T14:38:47Z</time>
      </trkpt>
      <trkpt lat="44.55968" lon="2.23876">
        <ele>213.1</ele>
        <time>2018-05-30T14:38:48Z</time>
      </trkpt>
      <trkpt lat="44.5597" lon="2.23879">
        <ele>213.1</ele>
        <time>2018-05-30T14:38:49Z</time>
      </trkpt>
      <trkpt lat="44.55974" lon="2.23881">
        <ele>213.1</ele>
        <time>2018-05-30T14:38:50Z</time>
      </trkpt>
      <trkpt lat="44.55977" lon="2.23889">
        <ele>213.1</ele>
        <time>2018-05-30T14:38:51Z</time>
      </trkpt>
      <trkpt lat="44.5598" lon="2.23882">
        <ele>214.2</ele>
        <time>2018-05-30T14:38:52Z</time>
      </trkpt>
      <trkpt lat="44.55987" lon="2.23871">
        <ele>214.1</ele>
        <time>2018-05-30T14:38:53Z</time>
      </trkpt>
      <trkpt lat="44.55991" lon="2.23869">
        <ele>213.8</ele>
        <time>2018-05-30T14:38:54Z</time>
      </trkpt>
      <trkpt lat="44.55994" lon="2.23869">
        <ele>213.8</ele>
        <time>2018-05-30T14:38:55Z</time>
      </trkpt>
      <trkpt lat="44.55993" lon="2.23873">
        <ele>213.7</ele>
        <time>2018-05-30T14:38:56Z</time>
      </trkpt>
      <trkpt lat="44.55998" lon="2.23879">
        <ele>213.2</ele>
        <time>2018-05-30T14:38:57Z</time>
      </trkpt>
      <trkpt lat="44.56006" lon="2.23884">
        <ele>212.6</ele>
        <time>2018-05-30T14:38:58Z</time>
      </trkpt>
      <trkpt lat="44.56015" lon="2.23886">
        <ele>211.9</ele>
        <time>2018-05-30T14:38:59Z</time>
      </trkpt>
      <trkpt lat="44.56019" lon="2.2389">
        <ele>211.5</ele>
        <time>2018-05-30T14:39:00Z</time>
      </trkpt>
      <trkpt lat="44.56017" lon="2.23896">
        <ele>211.2</ele>
        <time>2018-05-30T14:39:01Z</time>
      </trkpt>
      <trkpt lat="44.56021" lon="2.23885">
        <ele>208.2</ele>
        <time>2018-05-30T14:39:02Z</time>
      </trkpt>
      <trkpt lat="44.56023" lon="2.23882">
        <ele>205.8</ele>
        <time>2018-05-30T14:39:03Z</time>
      </trkpt>
      <trkpt lat="44.56033" lon="2.23885">
        <ele>205.8</ele>
        <time>2018-05-30T14:39:04Z</time>
      </trkpt>
      <trkpt lat="44.56037" lon="2.23884">
        <ele>205.8</ele>
        <time>2018-05-30T14:39:05Z</time>
      </trkpt>
      <trkpt lat="44.5604" lon="2.239">
        <ele>205.9</ele>
        <time>2018-05-30T14:39:06Z</time>
      </trkpt>
      <trkpt lat="44.56038" lon="2.23922">
        <ele>205.9</ele>
        <time>2018-05-30T14:39:07Z</time>
      </trkpt>
      <trkpt lat="44.56048" lon="2.23912">
        <ele>205.9</ele>
        <time>2018-05-30T14:39:08Z</time>
      </trkpt>
      <trkpt lat="44.56055" lon="2.23916">
        <ele>205.9</ele>
        <time>2018-05-30T14:39:09Z</time>
      </trkpt>
      <trkpt lat="44.56061" lon="2.23911">
        <ele>206</ele>
        <time>2018-05-30T14:39:10Z</time>
      </trkpt>
      <trkpt lat="44.56064" lon="2.23919">
        <ele>206</ele>
        <time>2018-05-30T14:39:11Z</time>
      </trkpt>
      <trkpt lat="44.56063" lon="2.23932">
        <ele>206</ele>
        <time>2018-05-30T14:39:12Z</time>
      </trkpt>
      <trkpt lat="44.56058" lon="2.23937">
        <ele>207.3</ele>
        <time>2018-05-30T14:39:13Z</time>
      </trkpt>
      <trkpt lat="44.56059" lon="2.23932">
        <ele>207.2</ele>
        <time>2018-05-30T14:39:14Z</time>
      </trkpt>
      <trkpt lat="44.56054" lon="2.23939">
        <ele>208.5</ele>
        <time>2018-05-30T14:39:15Z</time>
      </trkpt>
      <trkpt lat="44.56053" lon="2.2395">
        <ele>210.3</ele>
        <time>2018-05-30T14:39:16Z</time>
      </trkpt>
      <trkpt lat="44.56054" lon="2.23956">
        <ele>211.1</ele>
        <time>2018-05-30T14:39:17Z</time>
      </trkpt>
      <trkpt lat="44.56056" lon="2.23968">
        <ele>212.3</ele>
        <time>2018-05-30T14:39:18Z</time>
      </trkpt>
      <trkpt lat="44.5605" lon="2.23974">
        <ele>214.3</ele>
        <time>2018-05-30T14:39:19Z</time>
      </trkpt>
      <trkpt lat="44.56056" lon="2.23975">
        <ele>213.5</ele>
        <time>2018-05-30T14:39:20Z</time>
      </trkpt>
      <trkpt lat="44.56064" lon="2.23985">
        <ele>213.6</ele>
        <time>2018-05-30T14:39:21Z</time>
      </trkpt>
      <trkpt lat="44.56066" lon="2.2399">
        <ele>214.4</ele>
        <time>2018-05-30T14:39:22Z</time>
      </trkpt>
      <trkpt lat="44.5607" lon="2.23997">
        <ele>214.1</ele>
        <time>2018-05-30T14:39:23Z</time>
      </trkpt>
      <trkpt lat="44.56068" lon="2.24004">
        <ele>215.9</ele>
        <time>2018-05-30T14:39:24Z</time>
      </trkpt>
      <trkpt lat="44.56072" lon="2.24004">
        <ele>215.7</ele>
        <time>2018-05-30T14:39:25Z</time>
      </trkpt>
      <trkpt lat="44.56072" lon="2.2401">
        <ele>216.9</ele>
        <time>2018-05-30T14:39:26Z</time>
      </trkpt>
      <trkpt lat="44.56063" lon="2.24004">
        <ele>217.6</ele>
        <time>2018-05-30T14:39:27Z</time>
      </trkpt>
      <trkpt lat="44.56057" lon="2.24003">
        <ele>219.2</ele>
        <time>2018-05-30T14:39:28Z</time>
      </trkpt>
      <trkpt lat="44.56064" lon="2.24004">
        <ele>218.4</ele>
        <time>2018-05-30T14:39:29Z</time>
      </trkpt>
      <trkpt lat="44.56064" lon="2.23989">
        <ele>217.5</ele>
        <time>2018-05-30T14:39:30Z</time>
      </trkpt>
      <trkpt lat="44.56065" lon="2.23997">
        <ele>218.3</ele>
        <time>2018-05-30T14:39:31Z</time>
      </trkpt>
      <trkpt lat="44.56066" lon="2.23985">
        <ele>217.9</ele>
        <time>2018-05-30T14:39:32Z</time>
      </trkpt>
      <trkpt lat="44.56069" lon="2.23985">
        <ele>218</ele>
        <time>2018-05-30T14:39:33Z</time>
      </trkpt>
      <trkpt lat="44.56079" lon="2.2399">
        <ele>218.5</ele>
        <time>2018-05-30T14:39:35Z</time>
      </trkpt>
      <trkpt lat="44.56087" lon="2.23995">
        <ele>218.9</ele>
        <time>2018-05-30T14:39:36Z</time>
      </trkpt>
      <trkpt lat="44.56097" lon="2.23986">
        <ele>219.4</ele>
        <time>2018-05-30T14:39:37Z</time>
      </trkpt>
      <trkpt lat="44.56106" lon="2.2397">
        <ele>220</ele>
        <time>2018-05-30T14:39:38Z</time>
      </trkpt>
      <trkpt lat="44.56109" lon="2.2397">
        <ele>220.2</ele>
        <time>2018-05-30T14:39:39Z</time>
      </trkpt>
      <trkpt lat="44.56102" lon="2.2398">
        <ele>220.6</ele>
        <time>2018-05-30T14:39:40Z</time>
      </trkpt>
      <trkpt lat="44.56104" lon="2.23983">
        <ele>220.7</ele>
        <time>2018-05-30T14:39:41Z</time>
      </trkpt>
      <trkpt lat="44.56104" lon="2.23991">
        <ele>220.9</ele>
        <time>2018-05-30T14:39:42Z</time>
      </trkpt>
      <trkpt lat="44.56105" lon="2.23995">
        <ele>221</ele>
        <time>2018-05-30T14:39:43Z</time>
      </trkpt>
      <trkpt lat="44.56108" lon="2.23987">
        <ele>221.2</ele>
        <time>2018-05-30T14:39:44Z</time>
      </trkpt>
      <trkpt lat="44.56108" lon="2.23992">
        <ele>221.3</ele>
        <time>2018-05-30T14:39:45Z</time>
      </trkpt>
      <trkpt lat="44.56109" lon="2.24003">
        <ele>221.6</ele>
        <time>2018-05-30T14:39:47Z</time>
      </trkpt>
      <trkpt lat="44.56108" lon="2.24008">
        <ele>221.7</ele>
        <time>2018-05-30T14:39:48Z</time>
      </trkpt>
      <trkpt lat="44.56108" lon="2.24013">
        <ele>221.9</ele>
        <time>2018-05-30T14:39:49Z</time>
      </trkpt>
      <trkpt lat="44.56114" lon="2.24011">
        <ele>222.1</ele>
        <time>2018-05-30T14:39:50Z</time>
      </trkpt>
      <trkpt lat="44.56114" lon="2.24017">
        <ele>222.2</ele>
        <time>2018-05-30T14:39:51Z</time>
      </trkpt>
      <trkpt lat="44.56116" lon="2.24025">
        <ele>222.3</ele>
        <time>2018-05-30T14:39:52Z</time>
      </trkpt>
      <trkpt lat="44.56118" lon="2.24028">
        <ele>222.4</ele>
        <time>2018-05-30T14:39:53Z</time>
      </trkpt>
      <trkpt lat="44.56123" lon="2.24031">
        <ele>222.6</ele>
        <time>2018-05-30T14:39:55Z</time>
      </trkpt>
      <trkpt lat="44.56121" lon="2.24036">
        <ele>222.6</ele>
        <time>2018-05-30T14:39:56Z</time>
      </trkpt>
      <trkpt lat="44.56121" lon="2.2404">
        <ele>222.7</ele>
        <time>2018-05-30T14:39:57Z</time>
      </trkpt>
      <trkpt lat="44.56126" lon="2.2405">
        <ele>223</ele>
        <time>2018-05-30T14:39:58Z</time>
      </trkpt>
      <trkpt lat="44.56131" lon="2.24035">
        <ele>223.3</ele>
        <time>2018-05-30T14:39:59Z</time>
      </trkpt>
      <trkpt lat="44.56139" lon="2.24042">
        <ele>223.5</ele>
        <time>2018-05-30T14:40:00Z</time>
      </trkpt>
      <trkpt lat="44.56139" lon="2.24046">
        <ele>223.6</ele>
        <time>2018-05-30T14:40:01Z</time>
      </trkpt>
      <trkpt lat="44.56136" lon="2.24054">
        <ele>223.8</ele>
        <time>2018-05-30T14:40:02Z</time>
      </trkpt>
      <trkpt lat="44.56137" lon="2.24059">
        <ele>223.9</ele>
        <time>2018-05-30T14:40:04Z</time>
      </trkpt>
      <trkpt lat="44.5614" lon="2.24071">
        <ele>224.1</ele>
        <time>2018-05-30T14:40:05Z</time>
      </trkpt>
      <trkpt lat="44.56141" lon="2.24078">
        <ele>224.3</ele>
        <time>2018-05-30T14:40:06Z</time>
      </trkpt>
      <trkpt lat="44.56145" lon="2.24087">
        <ele>224.6</ele>
        <time>2018-05-30T14:40:08Z</time>
      </trkpt>
      <trkpt lat="44.56146" lon="2.24092">
        <ele>224.8</ele>
        <time>2018-05-30T14:40:09Z</time>
      </trkpt>
      <trkpt lat="44.56149" lon="2.24097">
        <ele>225</ele>
        <time>2018-05-30T14:40:11Z</time>
      </trkpt>
      <trkpt lat="44.56151" lon="2.24101">
        <ele>225.1</ele>
        <time>2018-05-30T14:40:12Z</time>
      </trkpt>
      <trkpt lat="44.56153" lon="2.24107">
        <ele>225.3</ele>
        <time>2018-05-30T14:40:14Z</time>
      </trkpt>
      <trkpt lat="44.56155" lon="2.24112">
        <ele>225.5</ele>
        <time>2018-05-30T14:40:16Z</time>
      </trkpt>
      <trkpt lat="44.56156" lon="2.24115">
        <ele>225.6</ele>
        <time>2018-05-30T14:40:17Z</time>
      </trkpt>
      <trkpt lat="44.56158" lon="2.24119">
        <ele>225.7</ele>
        <time>2018-05-30T14:40:18Z</time>
      </trkpt>
      <trkpt lat="44.56158" lon="2.2413">
        <ele>226</ele>
        <time>2018-05-30T14:40:21Z</time>
      </trkpt>
      <trkpt lat="44.56158" lon="2.24135">
        <ele>226</ele>
        <time>2018-05-30T14:40:22Z</time>
      </trkpt>
      <trkpt lat="44.56164" lon="2.24145">
        <ele>225.8</ele>
        <time>2018-05-30T14:40:23Z</time>
      </trkpt>
      <trkpt lat="44.56165" lon="2.24149">
        <ele>225.5</ele>
        <time>2018-05-30T14:40:25Z</time>
      </trkpt>
      <trkpt lat="44.56168" lon="2.24152">
        <ele>225.1</ele>
        <time>2018-05-30T14:40:26Z</time>
      </trkpt>
      <trkpt lat="44.56169" lon="2.24158">
        <ele>224.7</ele>
        <time>2018-05-30T14:40:28Z</time>
      </trkpt>
      <trkpt lat="44.56173" lon="2.24169">
        <ele>223.9</ele>
        <time>2018-05-30T14:40:30Z</time>
      </trkpt>
      <trkpt lat="44.56175" lon="2.24173">
        <ele>223.6</ele>
        <time>2018-05-30T14:40:31Z</time>
      </trkpt>
      <trkpt lat="44.56177" lon="2.24178">
        <ele>223.4</ele>
        <time>2018-05-30T14:40:32Z</time>
      </trkpt>
      <trkpt lat="44.56179" lon="2.24183">
        <ele>223.1</ele>
        <time>2018-05-30T14:40:34Z</time>
      </trkpt>
      <trkpt lat="44.56179" lon="2.24191">
        <ele>222.9</ele>
        <time>2018-05-30T14:40:36Z</time>
      </trkpt>
      <trkpt lat="44.56178" lon="2.24196">
        <ele>222.7</ele>
        <time>2018-05-30T14:40:37Z</time>
      </trkpt>
      <trkpt lat="44.56177" lon="2.24199">
        <ele>222.5</ele>
        <time>2018-05-30T14:40:38Z</time>
      </trkpt>
      <trkpt lat="44.56174" lon="2.24203">
        <ele>222.3</ele>
        <time>2018-05-30T14:40:39Z</time>
      </trkpt>
      <trkpt lat="44.56176" lon="2.24209">
        <ele>222.1</ele>
        <time>2018-05-30T14:40:40Z</time>
      </trkpt>
      <trkpt lat="44.56177" lon="2.24217">
        <ele>221.8</ele>
        <time>2018-05-30T14:40:42Z</time>
      </trkpt>
      <trkpt lat="44.56178" lon="2.24227">
        <ele>221.5</ele>
        <time>2018-05-30T14:40:44Z</time>
      </trkpt>
      <trkpt lat="44.56179" lon="2.24233">
        <ele>221.3</ele>
        <time>2018-05-30T14:40:46Z</time>
      </trkpt>
      <trkpt lat="44.56178" lon="2.24239">
        <ele>221</ele>
        <time>2018-05-30T14:40:47Z</time>
      </trkpt>
      <trkpt lat="44.56182" lon="2.24247">
        <ele>220.7</ele>
        <time>2018-05-30T14:40:48Z</time>
      </trkpt>
      <trkpt lat="44.56184" lon="2.24252">
        <ele>220.5</ele>
        <time>2018-05-30T14:40:49Z</time>
      </trkpt>
      <trkpt lat="44.56185" lon="2.24259">
        <ele>220.2</ele>
        <time>2018-05-30T14:40:50Z</time>
      </trkpt>
      <trkpt lat="44.56187" lon="2.24264">
        <ele>220</ele>
        <time>2018-05-30T14:40:52Z</time>
      </trkpt>
      <trkpt lat="44.56195" lon="2.24271">
        <ele>219.6</ele>
        <time>2018-05-30T14:40:53Z</time>
      </trkpt>
      <trkpt lat="44.56199" lon="2.24267">
        <ele>219.3</ele>
        <time>2018-05-30T14:40:55Z</time>
      </trkpt>
      <trkpt lat="44.56195" lon="2.24274">
        <ele>218.6</ele>
        <time>2018-05-30T14:40:56Z</time>
      </trkpt>
      <trkpt lat="44.56196" lon="2.24278">
        <ele>218.2</ele>
        <time>2018-05-30T14:40:57Z</time>
      </trkpt>
      <trkpt lat="44.56206" lon="2.24279">
        <ele>216</ele>
        <time>2018-05-30T14:40:58Z</time>
      </trkpt>
      <trkpt lat="44.5621" lon="2.24282">
        <ele>214.7</ele>
        <time>2018-05-30T14:40:59Z</time>
      </trkpt>
      <trkpt lat="44.56211" lon="2.24279">
        <ele>213</ele>
        <time>2018-05-30T14:41:00Z</time>
      </trkpt>
      <trkpt lat="44.5621" lon="2.24285">
        <ele>212.2</ele>
        <time>2018-05-30T14:41:02Z</time>
      </trkpt>
      <trkpt lat="44.56209" lon="2.24293">
        <ele>211.7</ele>
        <time>2018-05-30T14:41:03Z</time>
      </trkpt>
      <trkpt lat="44.56203" lon="2.24305">
        <ele>211.3</ele>
        <time>2018-05-30T14:41:04Z</time>
      </trkpt>
      <trkpt lat="44.56195" lon="2.24314">
        <ele>211.7</ele>
        <time>2018-05-30T14:41:05Z</time>
      </trkpt>
      <trkpt lat="44.56191" lon="2.2432">
        <ele>211.8</ele>
        <time>2018-05-30T14:41:07Z</time>
      </trkpt>
      <trkpt lat="44.56184" lon="2.24326">
        <ele>212.1</ele>
        <time>2018-05-30T14:41:08Z</time>
      </trkpt>
      <trkpt lat="44.56176" lon="2.24329">
        <ele>212.3</ele>
        <time>2018-05-30T14:41:09Z</time>
      </trkpt>
      <trkpt lat="44.56172" lon="2.24338">
        <ele>212.3</ele>
        <time>2018-05-30T14:41:10Z</time>
      </trkpt>
      <trkpt lat="44.56166" lon="2.24342">
        <ele>212.1</ele>
        <time>2018-05-30T14:41:11Z</time>
      </trkpt>
      <trkpt lat="44.56168" lon="2.24349">
        <ele>212</ele>
        <time>2018-05-30T14:41:12Z</time>
      </trkpt>
      <trkpt lat="44.56165" lon="2.2435">
        <ele>211.9</ele>
        <time>2018-05-30T14:41:13Z</time>
      </trkpt>
      <trkpt lat="44.56162" lon="2.2435">
        <ele>211.8</ele>
        <time>2018-05-30T14:41:14Z</time>
      </trkpt>
      <trkpt lat="44.56158" lon="2.24355">
        <ele>211.8</ele>
        <time>2018-05-30T14:41:16Z</time>
      </trkpt>
      <trkpt lat="44.56154" lon="2.24353">
        <ele>211.7</ele>
        <time>2018-05-30T14:41:17Z</time>
      </trkpt>
      <trkpt lat="44.56152" lon="2.24359">
        <ele>211.7</ele>
        <time>2018-05-30T14:41:18Z</time>
      </trkpt>
      <trkpt lat="44.56148" lon="2.24363">
        <ele>211.6</ele>
        <time>2018-05-30T14:41:19Z</time>
      </trkpt>
      <trkpt lat="44.5614" lon="2.24359">
        <ele>211.5</ele>
        <time>2018-05-30T14:41:20Z</time>
      </trkpt>
      <trkpt lat="44.56134" lon="2.24354">
        <ele>211.4</ele>
        <time>2018-05-30T14:41:21Z</time>
      </trkpt>
      <trkpt lat="44.56141" lon="2.24361">
        <ele>211.3</ele>
        <time>2018-05-30T14:41:22Z</time>
      </trkpt>
      <trkpt lat="44.56142" lon="2.24366">
        <ele>211.3</ele>
        <time>2018-05-30T14:41:23Z</time>
      </trkpt>
      <trkpt lat="44.56154" lon="2.24369">
        <ele>211.2</ele>
        <time>2018-05-30T14:41:24Z</time>
      </trkpt>
      <trkpt lat="44.56168" lon="2.24376">
        <ele>211</ele>
        <time>2018-05-30T14:41:25Z</time>
      </trkpt>
      <trkpt lat="44.56171" lon="2.24387">
        <ele>210.9</ele>
        <time>2018-05-30T14:41:26Z</time>
      </trkpt>
      <trkpt lat="44.56145" lon="2.24391">
        <ele>210.6</ele>
        <time>2018-05-30T14:41:28Z</time>
      </trkpt>
      <trkpt lat="44.56148" lon="2.24394">
        <ele>210.6</ele>
        <time>2018-05-30T14:41:29Z</time>
      </trkpt>
      <trkpt lat="44.56148" lon="2.24398">
        <ele>210.5</ele>
        <time>2018-05-30T14:41:31Z</time>
      </trkpt>
      <trkpt lat="44.56153" lon="2.24404">
        <ele>210.4</ele>
        <time>2018-05-30T14:41:33Z</time>
      </trkpt>
      <trkpt lat="44.56149" lon="2.24403">
        <ele>210.4</ele>
        <time>2018-05-30T14:41:34Z</time>
      </trkpt>
      <trkpt lat="44.56153" lon="2.24407">
        <ele>210.4</ele>
        <time>2018-05-30T14:41:35Z</time>
      </trkpt>
      <trkpt lat="44.56151" lon="2.24411">
        <ele>210.3</ele>
        <time>2018-05-30T14:41:36Z</time>
      </trkpt>
      <trkpt lat="44.56146" lon="2.2441">
        <ele>210.3</ele>
        <time>2018-05-30T14:41:37Z</time>
      </trkpt>
      <trkpt lat="44.56142" lon="2.2441">
        <ele>210.3</ele>
        <time>2018-05-30T14:41:38Z</time>
      </trkpt>
      <trkpt lat="44.56146" lon="2.24417">
        <ele>210.2</ele>
        <time>2018-05-30T14:41:40Z</time>
      </trkpt>
      <trkpt lat="44.56149" lon="2.24425">
        <ele>210.2</ele>
        <time>2018-05-30T14:41:42Z</time>
      </trkpt>
      <trkpt lat="44.5615" lon="2.24432">
        <ele>210.2</ele>
        <time>2018-05-30T14:41:44Z</time>
      </trkpt>
      <trkpt lat="44.56155" lon="2.24437">
        <ele>210.1</ele>
        <time>2018-05-30T14:41:45Z</time>
      </trkpt>
      <trkpt lat="44.5616" lon="2.24446">
        <ele>210.1</ele>
        <time>2018-05-30T14:41:47Z</time>
      </trkpt>
      <trkpt lat="44.5616" lon="2.24451">
        <ele>210</ele>
        <time>2018-05-30T14:41:48Z</time>
      </trkpt>
      <trkpt lat="44.56164" lon="2.24453">
        <ele>210</ele>
        <time>2018-05-30T14:41:49Z</time>
      </trkpt>
      <trkpt lat="44.56165" lon="2.24462">
        <ele>210</ele>
        <time>2018-05-30T14:41:51Z</time>
      </trkpt>
      <trkpt lat="44.56162" lon="2.24466">
        <ele>209.9</ele>
        <time>2018-05-30T14:41:53Z</time>
      </trkpt>
      <trkpt lat="44.56161" lon="2.24471">
        <ele>209.9</ele>
        <time>2018-05-30T14:41:54Z</time>
      </trkpt>
      <trkpt lat="44.56175" lon="2.24775">
        <ele>208.9</ele>
        <time>2018-05-30T14:43:14Z</time>
      </trkpt>
      <trkpt lat="44.56181" lon="2.2478">
        <ele>212.5</ele>
        <time>2018-05-30T14:43:15Z</time>
      </trkpt>
      <trkpt lat="44.56167" lon="2.24789">
        <ele>217.7</ele>
        <time>2018-05-30T14:43:17Z</time>
      </trkpt>
      <trkpt lat="44.56169" lon="2.24794">
        <ele>217.3</ele>
        <time>2018-05-30T14:43:19Z</time>
      </trkpt>
      <trkpt lat="44.56171" lon="2.24799">
        <ele>216.9</ele>
        <time>2018-05-30T14:43:21Z</time>
      </trkpt>
      <trkpt lat="44.56167" lon="2.24805">
        <ele>216.4</ele>
        <time>2018-05-30T14:43:22Z</time>
      </trkpt>
      <trkpt lat="44.56167" lon="2.24815">
        <ele>215.7</ele>
        <time>2018-05-30T14:43:23Z</time>
      </trkpt>
      <trkpt lat="44.56168" lon="2.24819">
        <ele>215.4</ele>
        <time>2018-05-30T14:43:24Z</time>
      </trkpt>
      <trkpt lat="44.56168" lon="2.24828">
        <ele>214.8</ele>
        <time>2018-05-30T14:43:25Z</time>
      </trkpt>
      <trkpt lat="44.56169" lon="2.24833">
        <ele>214.4</ele>
        <time>2018-05-30T14:43:26Z</time>
      </trkpt>
      <trkpt lat="44.56168" lon="2.24838">
        <ele>214.1</ele>
        <time>2018-05-30T14:43:27Z</time>
      </trkpt>
      <trkpt lat="44.5617" lon="2.24843">
        <ele>213.7</ele>
        <time>2018-05-30T14:43:29Z</time>
      </trkpt>
      <trkpt lat="44.56166" lon="2.24843">
        <ele>213.4</ele>
        <time>2018-05-30T14:43:30Z</time>
      </trkpt>
      <trkpt lat="44.56168" lon="2.24857">
        <ele>212</ele>
        <time>2018-05-30T14:44:10Z</time>
      </trkpt>
      <trkpt lat="44.56164" lon="2.24857">
        <ele>209</ele>
        <time>2018-05-30T14:44:11Z</time>
      </trkpt>
      <trkpt lat="44.56172" lon="2.24863">
        <ele>209</ele>
        <time>2018-05-30T14:45:50Z</time>
      </trkpt>
      <trkpt lat="44.56171" lon="2.24865">
        <ele>209</ele>
        <time>2018-05-30T14:45:51Z</time>
      </trkpt>
      <trkpt lat="44.56179" lon="2.24868">
        <ele>210.1</ele>
        <time>2018-05-30T14:45:52Z</time>
      </trkpt>
      <trkpt lat="44.56185" lon="2.2486">
        <ele>210.9</ele>
        <time>2018-05-30T14:45:53Z</time>
      </trkpt>
      <trkpt lat="44.56198" lon="2.2485">
        <ele>212.4</ele>
        <time>2018-05-30T14:45:55Z</time>
      </trkpt>
      <trkpt lat="44.56196" lon="2.24846">
        <ele>212.7</ele>
        <time>2018-05-30T14:45:57Z</time>
      </trkpt>
      <trkpt lat="44.56192" lon="2.24843">
        <ele>213.2</ele>
        <time>2018-05-30T14:45:58Z</time>
      </trkpt>
      <trkpt lat="44.56192" lon="2.24839">
        <ele>213.4</ele>
        <time>2018-05-30T14:45:59Z</time>
      </trkpt>
      <trkpt lat="44.56185" lon="2.24836">
        <ele>213.9</ele>
        <time>2018-05-30T14:46:00Z</time>
      </trkpt>
      <trkpt lat="44.56178" lon="2.24838">
        <ele>214.4</ele>
        <time>2018-05-30T14:46:01Z</time>
      </trkpt>
      <trkpt lat="44.56175" lon="2.24833">
        <ele>214.7</ele>
        <time>2018-05-30T14:46:03Z</time>
      </trkpt>
      <trkpt lat="44.5617" lon="2.24832">
        <ele>215.1</ele>
        <time>2018-05-30T14:46:04Z</time>
      </trkpt>
      <trkpt lat="44.56167" lon="2.24829">
        <ele>215.4</ele>
        <time>2018-05-30T14:46:05Z</time>
      </trkpt>
      <trkpt lat="44.56165" lon="2.24824">
        <ele>215.7</ele>
        <time>2018-05-30T14:46:06Z</time>
      </trkpt>
      <trkpt lat="44.56162" lon="2.24821">
        <ele>215.9</ele>
        <time>2018-05-30T14:46:08Z</time>
      </trkpt>
      <trkpt lat="44.56157" lon="2.24818">
        <ele>216.3</ele>
        <time>2018-05-30T14:46:11Z</time>
      </trkpt>
      <trkpt lat="44.56152" lon="2.24814">
        <ele>216.7</ele>
        <time>2018-05-30T14:46:12Z</time>
      </trkpt>
      <trkpt lat="44.56154" lon="2.24802">
        <ele>217.4</ele>
        <time>2018-05-30T14:46:13Z</time>
      </trkpt>
      <trkpt lat="44.56152" lon="2.24799">
        <ele>217.6</ele>
        <time>2018-05-30T14:46:15Z</time>
      </trkpt>
      <trkpt lat="44.56149" lon="2.24796">
        <ele>217.8</ele>
        <time>2018-05-30T14:46:17Z</time>
      </trkpt>
      <trkpt lat="44.56146" lon="2.24796">
        <ele>219.6</ele>
        <time>2018-05-30T14:46:18Z</time>
      </trkpt>
      <trkpt lat="44.56139" lon="2.24799">
        <ele>221.5</ele>
        <time>2018-05-30T14:46:19Z</time>
      </trkpt>
      <trkpt lat="44.56131" lon="2.24801">
        <ele>222.6</ele>
        <time>2018-05-30T14:46:20Z</time>
      </trkpt>
      <trkpt lat="44.56127" lon="2.24797">
        <ele>223.1</ele>
        <time>2018-05-30T14:46:21Z</time>
      </trkpt>
      <trkpt lat="44.56121" lon="2.24796">
        <ele>224.1</ele>
        <time>2018-05-30T14:46:23Z</time>
      </trkpt>
      <trkpt lat="44.56115" lon="2.24799">
        <ele>225.4</ele>
        <time>2018-05-30T14:46:25Z</time>
      </trkpt>
      <trkpt lat="44.56113" lon="2.24805">
        <ele>233.3</ele>
        <time>2018-05-30T14:46:27Z</time>
      </trkpt>
      <trkpt lat="44.56111" lon="2.2481">
        <ele>233.7</ele>
        <time>2018-05-30T14:46:28Z</time>
      </trkpt>
      <trkpt lat="44.56114" lon="2.24813">
        <ele>234.1</ele>
        <time>2018-05-30T14:46:29Z</time>
      </trkpt>
      <trkpt lat="44.56117" lon="2.24817">
        <ele>234.5</ele>
        <time>2018-05-30T14:46:31Z</time>
      </trkpt>
      <trkpt lat="44.56119" lon="2.24822">
        <ele>234.9</ele>
        <time>2018-05-30T14:46:33Z</time>
      </trkpt>
      <trkpt lat="44.56116" lon="2.24828">
        <ele>235.3</ele>
        <time>2018-05-30T14:46:34Z</time>
      </trkpt>
      <trkpt lat="44.56111" lon="2.24837">
        <ele>236</ele>
        <time>2018-05-30T14:46:35Z</time>
      </trkpt>
      <trkpt lat="44.56109" lon="2.24847">
        <ele>236.5</ele>
        <time>2018-05-30T14:46:37Z</time>
      </trkpt>
      <trkpt lat="44.56107" lon="2.24854">
        <ele>237</ele>
        <time>2018-05-30T14:46:39Z</time>
      </trkpt>
      <trkpt lat="44.56101" lon="2.24849">
        <ele>237.6</ele>
        <time>2018-05-30T14:46:41Z</time>
      </trkpt>
      <trkpt lat="44.56099" lon="2.24854">
        <ele>237.9</ele>
        <time>2018-05-30T14:46:42Z</time>
      </trkpt>
      <trkpt lat="44.56105" lon="2.24859">
        <ele>238.6</ele>
        <time>2018-05-30T14:46:43Z</time>
      </trkpt>
      <trkpt lat="44.56099" lon="2.24861">
        <ele>239.1</ele>
        <time>2018-05-30T14:46:46Z</time>
      </trkpt>
      <trkpt lat="44.56096" lon="2.24864">
        <ele>239.5</ele>
        <time>2018-05-30T14:46:47Z</time>
      </trkpt>
      <trkpt lat="44.5609" lon="2.2486">
        <ele>240</ele>
        <time>2018-05-30T14:46:49Z</time>
      </trkpt>
      <trkpt lat="44.56087" lon="2.24864">
        <ele>240.4</ele>
        <time>2018-05-30T14:46:51Z</time>
      </trkpt>
      <trkpt lat="44.56083" lon="2.24869">
        <ele>240.9</ele>
        <time>2018-05-30T14:46:52Z</time>
      </trkpt>
      <trkpt lat="44.5608" lon="2.24864">
        <ele>241.4</ele>
        <time>2018-05-30T14:46:54Z</time>
      </trkpt>
      <trkpt lat="44.56076" lon="2.2487">
        <ele>242</ele>
        <time>2018-05-30T14:46:55Z</time>
      </trkpt>
      <trkpt lat="44.55911" lon="2.25015">
        <ele>247.4</ele>
        <time>2018-05-30T14:48:40Z</time>
      </trkpt>
      <trkpt lat="44.5591" lon="2.25011">
        <ele>244.7</ele>
        <time>2018-05-30T14:48:41Z</time>
      </trkpt>
      <trkpt lat="44.55907" lon="2.25011">
        <ele>241.6</ele>
        <time>2018-05-30T14:48:42Z</time>
      </trkpt>
      <trkpt lat="44.55906" lon="2.25005">
        <ele>238.8</ele>
        <time>2018-05-30T14:48:43Z</time>
      </trkpt>
      <trkpt lat="44.55924" lon="2.25042">
        <ele>229</ele>
        <time>2018-05-30T14:48:45Z</time>
      </trkpt>
      <trkpt lat="44.55917" lon="2.25045">
        <ele>229</ele>
        <time>2018-05-30T14:48:46Z</time>
      </trkpt>
      <trkpt lat="44.55922" lon="2.25049">
        <ele>229</ele>
        <time>2018-05-30T14:48:47Z</time>
      </trkpt>
      <trkpt lat="44.55919" lon="2.25066">
        <ele>229</ele>
        <time>2018-05-30T14:48:49Z</time>
      </trkpt>
      <trkpt lat="44.55915" lon="2.25068">
        <ele>238.5</ele>
        <time>2018-05-30T14:48:50Z</time>
      </trkpt>
      <trkpt lat="44.55913" lon="2.25063">
        <ele>246.3</ele>
        <time>2018-05-30T14:48:52Z</time>
      </trkpt>
      <trkpt lat="44.55911" lon="2.25058">
        <ele>246.6</ele>
        <time>2018-05-30T14:48:53Z</time>
      </trkpt>
      <trkpt lat="44.55909" lon="2.25056">
        <ele>246.9</ele>
        <time>2018-05-30T14:48:54Z</time>
      </trkpt>
      <trkpt lat="44.55905" lon="2.25052">
        <ele>247.4</ele>
        <time>2018-05-30T14:48:56Z</time>
      </trkpt>
      <trkpt lat="44.55901" lon="2.2505">
        <ele>247.8</ele>
        <time>2018-05-30T14:48:57Z</time>
      </trkpt>
      <trkpt lat="44.55896" lon="2.2505">
        <ele>248.4</ele>
        <time>2018-05-30T14:48:59Z</time>
      </trkpt>
      <trkpt lat="44.55872" lon="2.25046">
        <ele>251</ele>
        <time>2018-05-30T14:49:17Z</time>
      </trkpt>
      <trkpt lat="44.55869" lon="2.25045">
        <ele>251.5</ele>
        <time>2018-05-30T14:49:18Z</time>
      </trkpt>
      <trkpt lat="44.55867" lon="2.25036">
        <ele>252.6</ele>
        <time>2018-05-30T14:49:19Z</time>
      </trkpt>
      <trkpt lat="44.55863" lon="2.25039">
        <ele>253.4</ele>
        <time>2018-05-30T14:49:20Z</time>
      </trkpt>
      <trkpt lat="44.55861" lon="2.25044">
        <ele>253.9</ele>
        <time>2018-05-30T14:49:21Z</time>
      </trkpt>
      <trkpt lat="44.55861" lon="2.2505">
        <ele>254.7</ele>
        <time>2018-05-30T14:49:24Z</time>
      </trkpt>
      <trkpt lat="44.55857" lon="2.25051">
        <ele>255.2</ele>
        <time>2018-05-30T14:49:26Z</time>
      </trkpt>
      <trkpt lat="44.55856" lon="2.25055">
        <ele>255.6</ele>
        <time>2018-05-30T14:49:27Z</time>
      </trkpt>
      <trkpt lat="44.55856" lon="2.2506">
        <ele>256</ele>
        <time>2018-05-30T14:49:28Z</time>
      </trkpt>
      <trkpt lat="44.55858" lon="2.25065">
        <ele>256.4</ele>
        <time>2018-05-30T14:49:29Z</time>
      </trkpt>
      <trkpt lat="44.55858" lon="2.25072">
        <ele>256.6</ele>
        <time>2018-05-30T14:49:32Z</time>
      </trkpt>
      <trkpt lat="44.55854" lon="2.25073">
        <ele>257.2</ele>
        <time>2018-05-30T14:49:33Z</time>
      </trkpt>
      <trkpt lat="44.5585" lon="2.25076">
        <ele>257.7</ele>
        <time>2018-05-30T14:49:36Z</time>
      </trkpt>
      <trkpt lat="44.55847" lon="2.25082">
        <ele>259</ele>
        <time>2018-05-30T14:49:37Z</time>
      </trkpt>
      <trkpt lat="44.55844" lon="2.2508">
        <ele>259.3</ele>
        <time>2018-05-30T14:49:42Z</time>
      </trkpt>
      <trkpt lat="44.5584" lon="2.25081">
        <ele>259.8</ele>
        <time>2018-05-30T14:49:46Z</time>
      </trkpt>
      <trkpt lat="44.55835" lon="2.25087">
        <ele>260.5</ele>
        <time>2018-05-30T14:49:48Z</time>
      </trkpt>
      <trkpt lat="44.55831" lon="2.25076">
        <ele>261</ele>
        <time>2018-05-30T14:49:50Z</time>
      </trkpt>
      <trkpt lat="44.55833" lon="2.25082">
        <ele>261</ele>
        <time>2018-05-30T14:49:54Z</time>
      </trkpt>
      <trkpt lat="44.55831" lon="2.25084">
        <ele>261</ele>
        <time>2018-05-30T14:49:55Z</time>
      </trkpt>
      <trkpt lat="44.55826" lon="2.25079">
        <ele>261</ele>
        <time>2018-05-30T14:49:56Z</time>
      </trkpt>
      <trkpt lat="44.55823" lon="2.25075">
        <ele>261</ele>
        <time>2018-05-30T14:49:57Z</time>
      </trkpt>
      <trkpt lat="44.55819" lon="2.25075">
        <ele>261</ele>
        <time>2018-05-30T14:49:59Z</time>
      </trkpt>
      <trkpt lat="44.55816" lon="2.25079">
        <ele>261</ele>
        <time>2018-05-30T14:50:02Z</time>
      </trkpt>
      <trkpt lat="44.55813" lon="2.25078">
        <ele>261</ele>
        <time>2018-05-30T14:50:04Z</time>
      </trkpt>
      <trkpt lat="44.5581" lon="2.25079">
        <ele>261</ele>
        <time>2018-05-30T14:50:05Z</time>
      </trkpt>
      <trkpt lat="44.55805" lon="2.25078">
        <ele>261</ele>
        <time>2018-05-30T14:50:08Z</time>
      </trkpt>
      <trkpt lat="44.55801" lon="2.25075">
        <ele>261.7</ele>
        <time>2018-05-30T14:50:10Z</time>
      </trkpt>
      <trkpt lat="44.55798" lon="2.25076">
        <ele>262.3</ele>
        <time>2018-05-30T14:50:13Z</time>
      </trkpt>
      <trkpt lat="44.55783" lon="2.25073">
        <ele>264.4</ele>
        <time>2018-05-30T14:50:21Z</time>
      </trkpt>
      <trkpt lat="44.55776" lon="2.25071">
        <ele>265.5</ele>
        <time>2018-05-30T14:50:22Z</time>
      </trkpt>
      <trkpt lat="44.55773" lon="2.25073">
        <ele>266.1</ele>
        <time>2018-05-30T14:50:24Z</time>
      </trkpt>
      <trkpt lat="44.5577" lon="2.25071">
        <ele>266.6</ele>
        <time>2018-05-30T14:50:25Z</time>
      </trkpt>
      <trkpt lat="44.55773" lon="2.25075">
        <ele>267.3</ele>
        <time>2018-05-30T14:50:26Z</time>
      </trkpt>
      <trkpt lat="44.55776" lon="2.25073">
        <ele>268</ele>
        <time>2018-05-30T14:50:27Z</time>
      </trkpt>
      <trkpt lat="44.55774" lon="2.25066">
        <ele>269</ele>
        <time>2018-05-30T14:50:29Z</time>
      </trkpt>
      <trkpt lat="44.55777" lon="2.25064">
        <ele>269.6</ele>
        <time>2018-05-30T14:50:30Z</time>
      </trkpt>
      <trkpt lat="44.55778" lon="2.25057">
        <ele>270.4</ele>
        <time>2018-05-30T14:50:31Z</time>
      </trkpt>
      <trkpt lat="44.55779" lon="2.25052">
        <ele>270.9</ele>
        <time>2018-05-30T14:50:32Z</time>
      </trkpt>
      <trkpt lat="44.55775" lon="2.25051">
        <ele>271.5</ele>
        <time>2018-05-30T14:50:33Z</time>
      </trkpt>
      <trkpt lat="44.55775" lon="2.25046">
        <ele>272.1</ele>
        <time>2018-05-30T14:50:34Z</time>
      </trkpt>
      <trkpt lat="44.55772" lon="2.25043">
        <ele>272.6</ele>
        <time>2018-05-30T14:50:35Z</time>
      </trkpt>
      <trkpt lat="44.55755" lon="2.25039">
        <ele>275.1</ele>
        <time>2018-05-30T14:50:43Z</time>
      </trkpt>
      <trkpt lat="44.55753" lon="2.25041">
        <ele>275.5</ele>
        <time>2018-05-30T14:50:45Z</time>
      </trkpt>
      <trkpt lat="44.55742" lon="2.25041">
        <ele>277</ele>
        <time>2018-05-30T14:50:55Z</time>
      </trkpt>
      <trkpt lat="44.55736" lon="2.25038">
        <ele>277.8</ele>
        <time>2018-05-30T14:50:57Z</time>
      </trkpt>
      <trkpt lat="44.55735" lon="2.25032">
        <ele>278.5</ele>
        <time>2018-05-30T14:51:03Z</time>
      </trkpt>
      <trkpt lat="44.55727" lon="2.25022">
        <ele>279.7</ele>
        <time>2018-05-30T14:51:07Z</time>
      </trkpt>
      <trkpt lat="44.55727" lon="2.25018">
        <ele>280.1</ele>
        <time>2018-05-30T14:51:10Z</time>
      </trkpt>
      <trkpt lat="44.55729" lon="2.25011">
        <ele>280.8</ele>
        <time>2018-05-30T14:51:12Z</time>
      </trkpt>
      <trkpt lat="44.55728" lon="2.25008">
        <ele>281.1</ele>
        <time>2018-05-30T14:51:13Z</time>
      </trkpt>
      <trkpt lat="44.55725" lon="2.25009">
        <ele>281.5</ele>
        <time>2018-05-30T14:51:17Z</time>
      </trkpt>
      <trkpt lat="44.55724" lon="2.25004">
        <ele>282.1</ele>
        <time>2018-05-30T14:51:18Z</time>
      </trkpt>
      <trkpt lat="44.55722" lon="2.24999">
        <ele>282.6</ele>
        <time>2018-05-30T14:51:23Z</time>
      </trkpt>
      <trkpt lat="44.55718" lon="2.2499">
        <ele>283.6</ele>
        <time>2018-05-30T14:51:26Z</time>
      </trkpt>
      <trkpt lat="44.55716" lon="2.24989">
        <ele>283.8</ele>
        <time>2018-05-30T14:51:28Z</time>
      </trkpt>
      <trkpt lat="44.55716" lon="2.24991">
        <ele>284</ele>
        <time>2018-05-30T14:51:30Z</time>
      </trkpt>
      <trkpt lat="44.55716" lon="2.24994">
        <ele>284.1</ele>
        <time>2018-05-30T14:51:31Z</time>
      </trkpt>
      <trkpt lat="44.55715" lon="2.24991">
        <ele>284.9</ele>
        <time>2018-05-30T14:51:33Z</time>
      </trkpt>
      <trkpt lat="44.55712" lon="2.24987">
        <ele>285.9</ele>
        <time>2018-05-30T14:51:34Z</time>
      </trkpt>
      <trkpt lat="44.5571" lon="2.24985">
        <ele>286.7</ele>
        <time>2018-05-30T14:51:35Z</time>
      </trkpt>
      <trkpt lat="44.55707" lon="2.2498">
        <ele>287.9</ele>
        <time>2018-05-30T14:51:38Z</time>
      </trkpt>
      <trkpt lat="44.5571" lon="2.24976">
        <ele>289.1</ele>
        <time>2018-05-30T14:51:40Z</time>
      </trkpt>
      <trkpt lat="44.55708" lon="2.24973">
        <ele>289.8</ele>
        <time>2018-05-30T14:51:46Z</time>
      </trkpt>
      <trkpt lat="44.55705" lon="2.24973">
        <ele>290.7</ele>
        <time>2018-05-30T14:51:48Z</time>
      </trkpt>
      <trkpt lat="44.55703" lon="2.24969">
        <ele>291.5</ele>
        <time>2018-05-30T14:51:50Z</time>
      </trkpt>
      <trkpt lat="44.557" lon="2.24969">
        <ele>292.3</ele>
        <time>2018-05-30T14:51:52Z</time>
      </trkpt>
      <trkpt lat="44.55697" lon="2.24969">
        <ele>293</ele>
        <time>2018-05-30T14:51:54Z</time>
      </trkpt>
      <trkpt lat="44.55695" lon="2.24965">
        <ele>293.9</ele>
        <time>2018-05-30T14:51:55Z</time>
      </trkpt>
      <trkpt lat="44.55534" lon="2.25012">
        <ele>301.4</ele>
        <time>2018-05-30T14:53:01Z</time>
      </trkpt>
      <trkpt lat="44.55528" lon="2.25008">
        <ele>300.8</ele>
        <time>2018-05-30T14:53:02Z</time>
      </trkpt>
      <trkpt lat="44.55523" lon="2.25">
        <ele>300.6</ele>
        <time>2018-05-30T14:53:03Z</time>
      </trkpt>
      <trkpt lat="44.55517" lon="2.24996">
        <ele>300.5</ele>
        <time>2018-05-30T14:53:04Z</time>
      </trkpt>
      <trkpt lat="44.55521" lon="2.25006">
        <ele>300.4</ele>
        <time>2018-05-30T14:53:05Z</time>
      </trkpt>
      <trkpt lat="44.55524" lon="2.25004">
        <ele>300.3</ele>
        <time>2018-05-30T14:53:06Z</time>
      </trkpt>
      <trkpt lat="44.55519" lon="2.25006">
        <ele>300.3</ele>
        <time>2018-05-30T14:53:08Z</time>
      </trkpt>
      <trkpt lat="44.55519" lon="2.2501">
        <ele>300.2</ele>
        <time>2018-05-30T14:53:10Z</time>
      </trkpt>
      <trkpt lat="44.55513" lon="2.25012">
        <ele>300.2</ele>
        <time>2018-05-30T14:53:12Z</time>
      </trkpt>
      <trkpt lat="44.55508" lon="2.25013">
        <ele>300.2</ele>
        <time>2018-05-30T14:53:13Z</time>
      </trkpt>
      <trkpt lat="44.55505" lon="2.25014">
        <ele>300.2</ele>
        <time>2018-05-30T14:53:14Z</time>
      </trkpt>
      <trkpt lat="44.55502" lon="2.25014">
        <ele>300.3</ele>
        <time>2018-05-30T14:53:15Z</time>
      </trkpt>
      <trkpt lat="44.555" lon="2.25018">
        <ele>300.3</ele>
        <time>2018-05-30T14:53:17Z</time>
      </trkpt>
      <trkpt lat="44.55497" lon="2.2502">
        <ele>300.4</ele>
        <time>2018-05-30T14:53:19Z</time>
      </trkpt>
      <trkpt lat="44.55492" lon="2.25022">
        <ele>300.5</ele>
        <time>2018-05-30T14:53:20Z</time>
      </trkpt>
      <trkpt lat="44.55489" lon="2.25023">
        <ele>300.5</ele>
        <time>2018-05-30T14:53:22Z</time>
      </trkpt>
      <trkpt lat="44.55484" lon="2.25031">
        <ele>300.7</ele>
        <time>2018-05-30T14:53:24Z</time>
      </trkpt>
      <trkpt lat="44.55479" lon="2.25035">
        <ele>300.8</ele>
        <time>2018-05-30T14:53:25Z</time>
      </trkpt>
      <trkpt lat="44.55474" lon="2.25035">
        <ele>300.9</ele>
        <time>2018-05-30T14:53:26Z</time>
      </trkpt>
      <trkpt lat="44.5547" lon="2.25036">
        <ele>300.9</ele>
        <time>2018-05-30T14:53:28Z</time>
      </trkpt>
      <trkpt lat="44.55467" lon="2.25036">
        <ele>301</ele>
        <time>2018-05-30T14:53:29Z</time>
      </trkpt>
      <trkpt lat="44.55469" lon="2.25043">
        <ele>301</ele>
        <time>2018-05-30T14:53:31Z</time>
      </trkpt>
      <trkpt lat="44.55466" lon="2.25044">
        <ele>301</ele>
        <time>2018-05-30T14:53:32Z</time>
      </trkpt>
      <trkpt lat="44.55459" lon="2.25044">
        <ele>301</ele>
        <time>2018-05-30T14:53:34Z</time>
      </trkpt>
      <trkpt lat="44.55453" lon="2.25045">
        <ele>301</ele>
        <time>2018-05-30T14:53:35Z</time>
      </trkpt>
      <trkpt lat="44.5545" lon="2.25045">
        <ele>301</ele>
        <time>2018-05-30T14:53:36Z</time>
      </trkpt>
      <trkpt lat="44.55447" lon="2.25046">
        <ele>301</ele>
        <time>2018-05-30T14:53:37Z</time>
      </trkpt>
      <trkpt lat="44.55443" lon="2.25047">
        <ele>301</ele>
        <time>2018-05-30T14:53:38Z</time>
      </trkpt>
      <trkpt lat="44.55439" lon="2.25048">
        <ele>301</ele>
        <time>2018-05-30T14:53:40Z</time>
      </trkpt>
      <trkpt lat="44.55436" lon="2.25049">
        <ele>301</ele>
        <time>2018-05-30T14:53:42Z</time>
      </trkpt>
      <trkpt lat="44.55427" lon="2.25053">
        <ele>305.8</ele>
        <time>2018-05-30T14:53:45Z</time>
      </trkpt>
      <trkpt lat="44.55419" lon="2.25063">
        <ele>311.7</ele>
        <time>2018-05-30T14:53:47Z</time>
      </trkpt>
      <trkpt lat="44.55418" lon="2.25072">
        <ele>315.4</ele>
        <time>2018-05-30T14:53:48Z</time>
      </trkpt>
      <trkpt lat="44.55421" lon="2.25079">
        <ele>318.7</ele>
        <time>2018-05-30T14:53:49Z</time>
      </trkpt>
      <trkpt lat="44.55419" lon="2.25083">
        <ele>320.5</ele>
        <time>2018-05-30T14:53:50Z</time>
      </trkpt>
      <trkpt lat="44.55415" lon="2.2508">
        <ele>323</ele>
        <time>2018-05-30T14:53:52Z</time>
      </trkpt>
      <trkpt lat="44.55421" lon="2.25089">
        <ele>323</ele>
        <time>2018-05-30T14:53:53Z</time>
      </trkpt>
      <trkpt lat="44.55428" lon="2.25099">
        <ele>294.2</ele>
        <time>2018-05-30T14:53:54Z</time>
      </trkpt>
      <trkpt lat="44.55432" lon="2.25108">
        <ele>293.1</ele>
        <time>2018-05-30T14:53:56Z</time>
      </trkpt>
      <trkpt lat="44.55438" lon="2.25113">
        <ele>292.1</ele>
        <time>2018-05-30T14:53:57Z</time>
      </trkpt>
      <trkpt lat="44.55433" lon="2.25118">
        <ele>291.2</ele>
        <time>2018-05-30T14:53:59Z</time>
      </trkpt>
      <trkpt lat="44.55437" lon="2.25122">
        <ele>290.4</ele>
        <time>2018-05-30T14:54:00Z</time>
      </trkpt>
      <trkpt lat="44.55442" lon="2.25127">
        <ele>289.6</ele>
        <time>2018-05-30T14:54:01Z</time>
      </trkpt>
      <trkpt lat="44.5544" lon="2.25133">
        <ele>289</ele>
        <time>2018-05-30T14:54:04Z</time>
      </trkpt>
      <trkpt lat="44.55437" lon="2.25135">
        <ele>288.5</ele>
        <time>2018-05-30T14:54:05Z</time>
      </trkpt>
      <trkpt lat="44.55438" lon="2.25139">
        <ele>288.1</ele>
        <time>2018-05-30T14:54:06Z</time>
      </trkpt>
      <trkpt lat="44.55435" lon="2.25143">
        <ele>287.6</ele>
        <time>2018-05-30T14:54:07Z</time>
      </trkpt>
      <trkpt lat="44.55439" lon="2.25147">
        <ele>286.9</ele>
        <time>2018-05-30T14:54:08Z</time>
      </trkpt>
      <trkpt lat="44.5544" lon="2.25151">
        <ele>286.5</ele>
        <time>2018-05-30T14:54:09Z</time>
      </trkpt>
      <trkpt lat="44.55439" lon="2.25157">
        <ele>285.9</ele>
        <time>2018-05-30T14:54:11Z</time>
      </trkpt>
      <trkpt lat="44.55439" lon="2.25164">
        <ele>285.2</ele>
        <time>2018-05-30T14:54:12Z</time>
      </trkpt>
      <trkpt lat="44.5544" lon="2.25168">
        <ele>284.8</ele>
        <time>2018-05-30T14:54:13Z</time>
      </trkpt>
      <trkpt lat="44.55439" lon="2.25172">
        <ele>284.3</ele>
        <time>2018-05-30T14:54:14Z</time>
      </trkpt>
      <trkpt lat="44.55442" lon="2.25179">
        <ele>283.3</ele>
        <time>2018-05-30T14:54:15Z</time>
      </trkpt>
      <trkpt lat="44.55441" lon="2.25185">
        <ele>282.7</ele>
        <time>2018-05-30T14:54:17Z</time>
      </trkpt>
      <trkpt lat="44.55442" lon="2.2519">
        <ele>282</ele>
        <time>2018-05-30T14:54:19Z</time>
      </trkpt>
      <trkpt lat="44.55438" lon="2.25201">
        <ele>280</ele>
        <time>2018-05-30T14:54:26Z</time>
      </trkpt>
      <trkpt lat="44.55436" lon="2.25198">
        <ele>280</ele>
        <time>2018-05-30T14:54:27Z</time>
      </trkpt>
      <trkpt lat="44.55433" lon="2.25194">
        <ele>280.7</ele>
        <time>2018-05-30T14:54:28Z</time>
      </trkpt>
      <trkpt lat="44.55431" lon="2.25192">
        <ele>281.2</ele>
        <time>2018-05-30T14:54:30Z</time>
      </trkpt>
      <trkpt lat="44.55427" lon="2.25189">
        <ele>281.8</ele>
        <time>2018-05-30T14:54:33Z</time>
      </trkpt>
      <trkpt lat="44.55424" lon="2.25187">
        <ele>282.4</ele>
        <time>2018-05-30T14:54:35Z</time>
      </trkpt>
      <trkpt lat="44.55419" lon="2.25186">
        <ele>283.3</ele>
        <time>2018-05-30T14:54:37Z</time>
      </trkpt>
      <trkpt lat="44.55416" lon="2.25186">
        <ele>283.8</ele>
        <time>2018-05-30T14:54:38Z</time>
      </trkpt>
      <trkpt lat="44.55411" lon="2.25183">
        <ele>284.7</ele>
        <time>2018-05-30T14:54:40Z</time>
      </trkpt>
      <trkpt lat="44.55407" lon="2.25183">
        <ele>285.2</ele>
        <time>2018-05-30T14:54:41Z</time>
      </trkpt>
      <trkpt lat="44.55403" lon="2.25181">
        <ele>285.5</ele>
        <time>2018-05-30T14:54:43Z</time>
      </trkpt>
      <trkpt lat="44.554" lon="2.25182">
        <ele>285.7</ele>
        <time>2018-05-30T14:54:44Z</time>
      </trkpt>
      <trkpt lat="44.55396" lon="2.25178">
        <ele>286.1</ele>
        <time>2018-05-30T14:54:46Z</time>
      </trkpt>
      <trkpt lat="44.55393" lon="2.25175">
        <ele>286.4</ele>
        <time>2018-05-30T14:54:49Z</time>
      </trkpt>
      <trkpt lat="44.5539" lon="2.25173">
        <ele>286.6</ele>
        <time>2018-05-30T14:54:52Z</time>
      </trkpt>
      <trkpt lat="44.55386" lon="2.25171">
        <ele>287</ele>
        <time>2018-05-30T14:54:53Z</time>
      </trkpt>
      <trkpt lat="44.55381" lon="2.25171">
        <ele>287.4</ele>
        <time>2018-05-30T14:54:55Z</time>
      </trkpt>
      <trkpt lat="44.55375" lon="2.2517">
        <ele>287.7</ele>
        <time>2018-05-30T14:54:57Z</time>
      </trkpt>
      <trkpt lat="44.55373" lon="2.25166">
        <ele>287.9</ele>
        <time>2018-05-30T14:54:58Z</time>
      </trkpt>
      <trkpt lat="44.55369" lon="2.25165">
        <ele>288.3</ele>
        <time>2018-05-30T14:55:00Z</time>
      </trkpt>
      <trkpt lat="44.55364" lon="2.25166">
        <ele>288.8</ele>
        <time>2018-05-30T14:55:02Z</time>
      </trkpt>
      <trkpt lat="44.55359" lon="2.25166">
        <ele>289.2</ele>
        <time>2018-05-30T14:55:04Z</time>
      </trkpt>
      <trkpt lat="44.55356" lon="2.25165">
        <ele>289.5</ele>
        <time>2018-05-30T14:55:05Z</time>
      </trkpt>
      <trkpt lat="44.55351" lon="2.25165">
        <ele>289.8</ele>
        <time>2018-05-30T14:55:07Z</time>
      </trkpt>
      <trkpt lat="44.55346" lon="2.25162">
        <ele>290.1</ele>
        <time>2018-05-30T14:55:08Z</time>
      </trkpt>
      <trkpt lat="44.55344" lon="2.2516">
        <ele>290.3</ele>
        <time>2018-05-30T14:55:10Z</time>
      </trkpt>
      <trkpt lat="44.55339" lon="2.25158">
        <ele>290.7</ele>
        <time>2018-05-30T14:55:12Z</time>
      </trkpt>
      <trkpt lat="44.55336" lon="2.25155">
        <ele>291.1</ele>
        <time>2018-05-30T14:55:14Z</time>
      </trkpt>
      <trkpt lat="44.55332" lon="2.25154">
        <ele>291.4</ele>
        <time>2018-05-30T14:55:16Z</time>
      </trkpt>
      <trkpt lat="44.55326" lon="2.25152">
        <ele>292</ele>
        <time>2018-05-30T14:55:18Z</time>
      </trkpt>
      <trkpt lat="44.55323" lon="2.25151">
        <ele>292.4</ele>
        <time>2018-05-30T14:55:19Z</time>
      </trkpt>
      <trkpt lat="44.5532" lon="2.25149">
        <ele>292.8</ele>
        <time>2018-05-30T14:55:20Z</time>
      </trkpt>
      <trkpt lat="44.55317" lon="2.25148">
        <ele>293.1</ele>
        <time>2018-05-30T14:55:21Z</time>
      </trkpt>
      <trkpt lat="44.55313" lon="2.25144">
        <ele>293.8</ele>
        <time>2018-05-30T14:55:24Z</time>
      </trkpt>
      <trkpt lat="44.5531" lon="2.25143">
        <ele>294</ele>
        <time>2018-05-30T14:55:25Z</time>
      </trkpt>
      <trkpt lat="44.55306" lon="2.25142">
        <ele>294.4</ele>
        <time>2018-05-30T14:55:27Z</time>
      </trkpt>
      <trkpt lat="44.55301" lon="2.25139">
        <ele>295</ele>
        <time>2018-05-30T14:55:29Z</time>
      </trkpt>
      <trkpt lat="44.55299" lon="2.25136">
        <ele>295.4</ele>
        <time>2018-05-30T14:55:31Z</time>
      </trkpt>
      <trkpt lat="44.55296" lon="2.25137">
        <ele>295.6</ele>
        <time>2018-05-30T14:55:32Z</time>
      </trkpt>
      <trkpt lat="44.55292" lon="2.25134">
        <ele>295.8</ele>
        <time>2018-05-30T14:55:34Z</time>
      </trkpt>
      <trkpt lat="44.55289" lon="2.25133">
        <ele>295.9</ele>
        <time>2018-05-30T14:55:35Z</time>
      </trkpt>
      <trkpt lat="44.55285" lon="2.25131">
        <ele>296.2</ele>
        <time>2018-05-30T14:55:36Z</time>
      </trkpt>
      <trkpt lat="44.55282" lon="2.2513">
        <ele>296.5</ele>
        <time>2018-05-30T14:55:38Z</time>
      </trkpt>
      <trkpt lat="44.55277" lon="2.25126">
        <ele>297.2</ele>
        <time>2018-05-30T14:55:40Z</time>
      </trkpt>
      <trkpt lat="44.55274" lon="2.25126">
        <ele>297.6</ele>
        <time>2018-05-30T14:55:44Z</time>
      </trkpt>
      <trkpt lat="44.55271" lon="2.25128">
        <ele>297.8</ele>
        <time>2018-05-30T14:55:46Z</time>
      </trkpt>
      <trkpt lat="44.55268" lon="2.25128">
        <ele>298</ele>
        <time>2018-05-30T14:55:48Z</time>
      </trkpt>
      <trkpt lat="44.55263" lon="2.25127">
        <ele>298.2</ele>
        <time>2018-05-30T14:55:50Z</time>
      </trkpt>
      <trkpt lat="44.55259" lon="2.25126">
        <ele>298.4</ele>
        <time>2018-05-30T14:55:51Z</time>
      </trkpt>
      <trkpt lat="44.55253" lon="2.25126">
        <ele>299</ele>
        <time>2018-05-30T14:55:53Z</time>
      </trkpt>
      <trkpt lat="44.55249" lon="2.25125">
        <ele>299.4</ele>
        <time>2018-05-30T14:55:55Z</time>
      </trkpt>
      <trkpt lat="44.55244" lon="2.25125">
        <ele>299.7</ele>
        <time>2018-05-30T14:55:57Z</time>
      </trkpt>
      <trkpt lat="44.5524" lon="2.25128">
        <ele>300.1</ele>
        <time>2018-05-30T14:55:59Z</time>
      </trkpt>
      <trkpt lat="44.55235" lon="2.2513">
        <ele>300.5</ele>
        <time>2018-05-30T14:56:01Z</time>
      </trkpt>
      <trkpt lat="44.55231" lon="2.25131">
        <ele>300.8</ele>
        <time>2018-05-30T14:56:02Z</time>
      </trkpt>
      <trkpt lat="44.55228" lon="2.25131">
        <ele>301.1</ele>
        <time>2018-05-30T14:56:03Z</time>
      </trkpt>
      <trkpt lat="44.55225" lon="2.25133">
        <ele>301.4</ele>
        <time>2018-05-30T14:56:05Z</time>
      </trkpt>
      <trkpt lat="44.55222" lon="2.25134">
        <ele>301.7</ele>
        <time>2018-05-30T14:56:06Z</time>
      </trkpt>
      <trkpt lat="44.55219" lon="2.25135">
        <ele>302</ele>
        <time>2018-05-30T14:56:08Z</time>
      </trkpt>
      <trkpt lat="44.55217" lon="2.25138">
        <ele>302.4</ele>
        <time>2018-05-30T14:56:10Z</time>
      </trkpt>
      <trkpt lat="44.55213" lon="2.25139">
        <ele>302.8</ele>
        <time>2018-05-30T14:56:12Z</time>
      </trkpt>
      <trkpt lat="44.55212" lon="2.25143">
        <ele>303.2</ele>
        <time>2018-05-30T14:56:14Z</time>
      </trkpt>
      <trkpt lat="44.5521" lon="2.25147">
        <ele>303.5</ele>
        <time>2018-05-30T14:56:16Z</time>
      </trkpt>
      <trkpt lat="44.55206" lon="2.25147">
        <ele>304</ele>
        <time>2018-05-30T14:56:19Z</time>
      </trkpt>
      <trkpt lat="44.55201" lon="2.25148">
        <ele>304.4</ele>
        <time>2018-05-30T14:56:21Z</time>
      </trkpt>
      <trkpt lat="44.55198" lon="2.25148">
        <ele>304.6</ele>
        <time>2018-05-30T14:56:23Z</time>
      </trkpt>
      <trkpt lat="44.55194" lon="2.25152">
        <ele>305.1</ele>
        <time>2018-05-30T14:56:26Z</time>
      </trkpt>
      <trkpt lat="44.55189" lon="2.25153">
        <ele>305.6</ele>
        <time>2018-05-30T14:56:28Z</time>
      </trkpt>
      <trkpt lat="44.55185" lon="2.25154">
        <ele>305.9</ele>
        <time>2018-05-30T14:56:29Z</time>
      </trkpt>
      <trkpt lat="44.55181" lon="2.25155">
        <ele>306.1</ele>
        <time>2018-05-30T14:56:30Z</time>
      </trkpt>
      <trkpt lat="44.55177" lon="2.25158">
        <ele>306.3</ele>
        <time>2018-05-30T14:56:33Z</time>
      </trkpt>
      <trkpt lat="44.55172" lon="2.25159">
        <ele>306.6</ele>
        <time>2018-05-30T14:56:34Z</time>
      </trkpt>
      <trkpt lat="44.55169" lon="2.25161">
        <ele>306.7</ele>
        <time>2018-05-30T14:56:37Z</time>
      </trkpt>
      <trkpt lat="44.55165" lon="2.25161">
        <ele>307</ele>
        <time>2018-05-30T14:56:38Z</time>
      </trkpt>
      <trkpt lat="44.55161" lon="2.25165">
        <ele>307.4</ele>
        <time>2018-05-30T14:56:39Z</time>
      </trkpt>
      <trkpt lat="44.55154" lon="2.25169">
        <ele>308</ele>
        <time>2018-05-30T14:56:42Z</time>
      </trkpt>
      <trkpt lat="44.55151" lon="2.25171">
        <ele>308.4</ele>
        <time>2018-05-30T14:56:43Z</time>
      </trkpt>
      <trkpt lat="44.55147" lon="2.25174">
        <ele>308.7</ele>
        <time>2018-05-30T14:56:44Z</time>
      </trkpt>
      <trkpt lat="44.54998" lon="2.2519">
        <ele>302.5</ele>
        <time>2018-05-30T14:58:42Z</time>
      </trkpt>
      <trkpt lat="44.54991" lon="2.25196">
        <ele>301.3</ele>
        <time>2018-05-30T14:58:43Z</time>
      </trkpt>
      <trkpt lat="44.54986" lon="2.25196">
        <ele>301</ele>
        <time>2018-05-30T14:58:44Z</time>
      </trkpt>
      <trkpt lat="44.54982" lon="2.25199">
        <ele>300.7</ele>
        <time>2018-05-30T14:58:45Z</time>
      </trkpt>
      <trkpt lat="44.54978" lon="2.25197">
        <ele>300.4</ele>
        <time>2018-05-30T14:58:46Z</time>
      </trkpt>
      <trkpt lat="44.54975" lon="2.25199">
        <ele>300.2</ele>
        <time>2018-05-30T14:58:47Z</time>
      </trkpt>
      <trkpt lat="44.54974" lon="2.25194">
        <ele>299.9</ele>
        <time>2018-05-30T14:58:48Z</time>
      </trkpt>
      <trkpt lat="44.54969" lon="2.25199">
        <ele>299.5</ele>
        <time>2018-05-30T14:58:49Z</time>
      </trkpt>
      <trkpt lat="44.54966" lon="2.25204">
        <ele>299.1</ele>
        <time>2018-05-30T14:58:50Z</time>
      </trkpt>
      <trkpt lat="44.54961" lon="2.25209">
        <ele>298.7</ele>
        <time>2018-05-30T14:58:51Z</time>
      </trkpt>
      <trkpt lat="44.54963" lon="2.25205">
        <ele>298.4</ele>
        <time>2018-05-30T14:58:53Z</time>
      </trkpt>
      <trkpt lat="44.54957" lon="2.25211">
        <ele>297.9</ele>
        <time>2018-05-30T14:58:54Z</time>
      </trkpt>
      <trkpt lat="44.54959" lon="2.25206">
        <ele>297.7</ele>
        <time>2018-05-30T14:58:55Z</time>
      </trkpt>
      <trkpt lat="44.54957" lon="2.25201">
        <ele>297.3</ele>
        <time>2018-05-30T14:59:00Z</time>
      </trkpt>
      <trkpt lat="44.54954" lon="2.25202">
        <ele>297.1</ele>
        <time>2018-05-30T14:59:01Z</time>
      </trkpt>
      <trkpt lat="44.54947" lon="2.25204">
        <ele>296.6</ele>
        <time>2018-05-30T14:59:02Z</time>
      </trkpt>
      <trkpt lat="44.5494" lon="2.25201">
        <ele>296.1</ele>
        <time>2018-05-30T14:59:04Z</time>
      </trkpt>
      <trkpt lat="44.54933" lon="2.252">
        <ele>295.8</ele>
        <time>2018-05-30T14:59:05Z</time>
      </trkpt>
      <trkpt lat="44.5493" lon="2.25203">
        <ele>295.7</ele>
        <time>2018-05-30T14:59:06Z</time>
      </trkpt>
      <trkpt lat="44.54927" lon="2.25202">
        <ele>295.6</ele>
        <time>2018-05-30T14:59:07Z</time>
      </trkpt>
      <trkpt lat="44.54919" lon="2.25201">
        <ele>295.4</ele>
        <time>2018-05-30T14:59:08Z</time>
      </trkpt>
      <trkpt lat="44.54915" lon="2.25199">
        <ele>295.2</ele>
        <time>2018-05-30T14:59:09Z</time>
      </trkpt>
      <trkpt lat="44.5491" lon="2.25195">
        <ele>295.1</ele>
        <time>2018-05-30T14:59:10Z</time>
      </trkpt>
      <trkpt lat="44.54906" lon="2.25193">
        <ele>294.9</ele>
        <time>2018-05-30T14:59:11Z</time>
      </trkpt>
      <trkpt lat="44.54902" lon="2.25192">
        <ele>294.5</ele>
        <time>2018-05-30T14:59:12Z</time>
      </trkpt>
      <trkpt lat="44.549" lon="2.25189">
        <ele>294.3</ele>
        <time>2018-05-30T14:59:13Z</time>
      </trkpt>
      <trkpt lat="44.54895" lon="2.25187">
        <ele>293.8</ele>
        <time>2018-05-30T14:59:15Z</time>
      </trkpt>
      <trkpt lat="44.54892" lon="2.25185">
        <ele>293.6</ele>
        <time>2018-05-30T14:59:16Z</time>
      </trkpt>
      <trkpt lat="44.54887" lon="2.25184">
        <ele>293.1</ele>
        <time>2018-05-30T14:59:18Z</time>
      </trkpt>
      <trkpt lat="44.54882" lon="2.25182">
        <ele>292.8</ele>
        <time>2018-05-30T14:59:19Z</time>
      </trkpt>
      <trkpt lat="44.54877" lon="2.25182">
        <ele>292.3</ele>
        <time>2018-05-30T14:59:20Z</time>
      </trkpt>
      <trkpt lat="44.54874" lon="2.25185">
        <ele>292</ele>
        <time>2018-05-30T14:59:22Z</time>
      </trkpt>
      <trkpt lat="44.5487" lon="2.25183">
        <ele>291.7</ele>
        <time>2018-05-30T14:59:23Z</time>
      </trkpt>
      <trkpt lat="44.54868" lon="2.25184">
        <ele>291.5</ele>
        <time>2018-05-30T14:59:24Z</time>
      </trkpt>
      <trkpt lat="44.54863" lon="2.25185">
        <ele>291.1</ele>
        <time>2018-05-30T14:59:26Z</time>
      </trkpt>
      <trkpt lat="44.54857" lon="2.25185">
        <ele>290.6</ele>
        <time>2018-05-30T14:59:29Z</time>
      </trkpt>
      <trkpt lat="44.54852" lon="2.25184">
        <ele>290.2</ele>
        <time>2018-05-30T14:59:30Z</time>
      </trkpt>
      <trkpt lat="44.54847" lon="2.2518">
        <ele>289.7</ele>
        <time>2018-05-30T14:59:31Z</time>
      </trkpt>
      <trkpt lat="44.54843" lon="2.25178">
        <ele>289.4</ele>
        <time>2018-05-30T14:59:32Z</time>
      </trkpt>
      <trkpt lat="44.54836" lon="2.25177">
        <ele>288.8</ele>
        <time>2018-05-30T14:59:33Z</time>
      </trkpt>
      <trkpt lat="44.54829" lon="2.25174">
        <ele>288.2</ele>
        <time>2018-05-30T14:59:35Z</time>
      </trkpt>
      <trkpt lat="44.54826" lon="2.25172">
        <ele>287.9</ele>
        <time>2018-05-30T14:59:36Z</time>
      </trkpt>
      <trkpt lat="44.5482" lon="2.25168">
        <ele>287.3</ele>
        <time>2018-05-30T14:59:38Z</time>
      </trkpt>
      <trkpt lat="44.54816" lon="2.25166">
        <ele>286.9</ele>
        <time>2018-05-30T14:59:40Z</time>
      </trkpt>
      <trkpt lat="44.54811" lon="2.25165">
        <ele>286.5</ele>
        <time>2018-05-30T14:59:42Z</time>
      </trkpt>
      <trkpt lat="44.54808" lon="2.25164">
        <ele>286.2</ele>
        <time>2018-05-30T14:59:43Z</time>
      </trkpt>
      <trkpt lat="44.54805" lon="2.2516">
        <ele>285.9</ele>
        <time>2018-05-30T14:59:44Z</time>
      </trkpt>
      <trkpt lat="44.54802" lon="2.25157">
        <ele>285.6</ele>
        <time>2018-05-30T14:59:45Z</time>
      </trkpt>
      <trkpt lat="44.54797" lon="2.25158">
        <ele>285.1</ele>
        <time>2018-05-30T14:59:47Z</time>
      </trkpt>
      <trkpt lat="44.54795" lon="2.25155">
        <ele>284.8</ele>
        <time>2018-05-30T14:59:48Z</time>
      </trkpt>
      <trkpt lat="44.5479" lon="2.25155">
        <ele>284.4</ele>
        <time>2018-05-30T14:59:50Z</time>
      </trkpt>
      <trkpt lat="44.54786" lon="2.25153">
        <ele>284</ele>
        <time>2018-05-30T14:59:51Z</time>
      </trkpt>
      <trkpt lat="44.54783" lon="2.25155">
        <ele>283.7</ele>
        <time>2018-05-30T14:59:52Z</time>
      </trkpt>
      <trkpt lat="44.54778" lon="2.25148">
        <ele>283.1</ele>
        <time>2018-05-30T14:59:53Z</time>
      </trkpt>
      <trkpt lat="44.54775" lon="2.25143">
        <ele>282.6</ele>
        <time>2018-05-30T14:59:54Z</time>
      </trkpt>
      <trkpt lat="44.54772" lon="2.2514">
        <ele>282.3</ele>
        <time>2018-05-30T14:59:55Z</time>
      </trkpt>
      <trkpt lat="44.54768" lon="2.2514">
        <ele>282</ele>
        <time>2018-05-30T14:59:56Z</time>
      </trkpt>
      <trkpt lat="44.54766" lon="2.25147">
        <ele>281.5</ele>
        <time>2018-05-30T14:59:57Z</time>
      </trkpt>
      <trkpt lat="44.5476" lon="2.25144">
        <ele>280.9</ele>
        <time>2018-05-30T14:59:58Z</time>
      </trkpt>
      <trkpt lat="44.54754" lon="2.25143">
        <ele>280.4</ele>
        <time>2018-05-30T14:59:59Z</time>
      </trkpt>
      <trkpt lat="44.54751" lon="2.25142">
        <ele>280.1</ele>
        <time>2018-05-30T15:00:00Z</time>
      </trkpt>
      <trkpt lat="44.54748" lon="2.2514">
        <ele>279.7</ele>
        <time>2018-05-30T15:00:01Z</time>
      </trkpt>
      <trkpt lat="44.54743" lon="2.25136">
        <ele>279.2</ele>
        <time>2018-05-30T15:00:03Z</time>
      </trkpt>
      <trkpt lat="44.54739" lon="2.25133">
        <ele>278.7</ele>
        <time>2018-05-30T15:00:04Z</time>
      </trkpt>
      <trkpt lat="44.54744" lon="2.25131">
        <ele>278.3</ele>
        <time>2018-05-30T15:00:06Z</time>
      </trkpt>
      <trkpt lat="44.54742" lon="2.25127">
        <ele>277.9</ele>
        <time>2018-05-30T15:00:07Z</time>
      </trkpt>
      <trkpt lat="44.54741" lon="2.25122">
        <ele>277.6</ele>
        <time>2018-05-30T15:00:08Z</time>
      </trkpt>
      <trkpt lat="44.54741" lon="2.25118">
        <ele>277.4</ele>
        <time>2018-05-30T15:00:09Z</time>
      </trkpt>
      <trkpt lat="44.5474" lon="2.25114">
        <ele>277.1</ele>
        <time>2018-05-30T15:00:10Z</time>
      </trkpt>
      <trkpt lat="44.54737" lon="2.2511">
        <ele>276.6</ele>
        <time>2018-05-30T15:00:11Z</time>
      </trkpt>
      <trkpt lat="44.54736" lon="2.25103">
        <ele>276.2</ele>
        <time>2018-05-30T15:00:12Z</time>
      </trkpt>
      <trkpt lat="44.54733" lon="2.25099">
        <ele>275.8</ele>
        <time>2018-05-30T15:00:13Z</time>
      </trkpt>
      <trkpt lat="44.54728" lon="2.25096">
        <ele>275.3</ele>
        <time>2018-05-30T15:00:14Z</time>
      </trkpt>
      <trkpt lat="44.54725" lon="2.25094">
        <ele>274.9</ele>
        <time>2018-05-30T15:00:15Z</time>
      </trkpt>
      <trkpt lat="44.54721" lon="2.2509">
        <ele>274.4</ele>
        <time>2018-05-30T15:00:16Z</time>
      </trkpt>
      <trkpt lat="44.54717" lon="2.25087">
        <ele>273.5</ele>
        <time>2018-05-30T15:00:17Z</time>
      </trkpt>
      <trkpt lat="44.54714" lon="2.25085">
        <ele>273.2</ele>
        <time>2018-05-30T15:00:18Z</time>
      </trkpt>
      <trkpt lat="44.5471" lon="2.25081">
        <ele>272.8</ele>
        <time>2018-05-30T15:00:20Z</time>
      </trkpt>
      <trkpt lat="44.5471" lon="2.25075">
        <ele>272.5</ele>
        <time>2018-05-30T15:00:21Z</time>
      </trkpt>
      <trkpt lat="44.54709" lon="2.25071">
        <ele>272.2</ele>
        <time>2018-05-30T15:00:22Z</time>
      </trkpt>
      <trkpt lat="44.54703" lon="2.25067">
        <ele>271.7</ele>
        <time>2018-05-30T15:00:24Z</time>
      </trkpt>
      <trkpt lat="44.54699" lon="2.25062">
        <ele>271.3</ele>
        <time>2018-05-30T15:00:25Z</time>
      </trkpt>
      <trkpt lat="44.54696" lon="2.25064">
        <ele>271</ele>
        <time>2018-05-30T15:00:26Z</time>
      </trkpt>
      <trkpt lat="44.54692" lon="2.25064">
        <ele>270.7</ele>
        <time>2018-05-30T15:00:27Z</time>
      </trkpt>
      <trkpt lat="44.54687" lon="2.2506">
        <ele>270.3</ele>
        <time>2018-05-30T15:00:28Z</time>
      </trkpt>
      <trkpt lat="44.54684" lon="2.25059">
        <ele>270</ele>
        <time>2018-05-30T15:00:29Z</time>
      </trkpt>
      <trkpt lat="44.54682" lon="2.25053">
        <ele>269.7</ele>
        <time>2018-05-30T15:00:30Z</time>
      </trkpt>
      <trkpt lat="44.54678" lon="2.25051">
        <ele>269.3</ele>
        <time>2018-05-30T15:00:31Z</time>
      </trkpt>
      <trkpt lat="44.54676" lon="2.25047">
        <ele>269.1</ele>
        <time>2018-05-30T15:00:32Z</time>
      </trkpt>
      <trkpt lat="44.54673" lon="2.25044">
        <ele>268.8</ele>
        <time>2018-05-30T15:00:33Z</time>
      </trkpt>
      <trkpt lat="44.54669" lon="2.25042">
        <ele>268.5</ele>
        <time>2018-05-30T15:00:34Z</time>
      </trkpt>
      <trkpt lat="44.54665" lon="2.25042">
        <ele>268.2</ele>
        <time>2018-05-30T15:00:35Z</time>
      </trkpt>
      <trkpt lat="44.54662" lon="2.25038">
        <ele>267.9</ele>
        <time>2018-05-30T15:00:36Z</time>
      </trkpt>
      <trkpt lat="44.54659" lon="2.25034">
        <ele>267.7</ele>
        <time>2018-05-30T15:00:38Z</time>
      </trkpt>
      <trkpt lat="44.54656" lon="2.25034">
        <ele>267.5</ele>
        <time>2018-05-30T15:00:40Z</time>
      </trkpt>
      <trkpt lat="44.54655" lon="2.2503">
        <ele>267.3</ele>
        <time>2018-05-30T15:00:41Z</time>
      </trkpt>
      <trkpt lat="44.54653" lon="2.25028">
        <ele>267</ele>
        <time>2018-05-30T15:00:42Z</time>
      </trkpt>
      <trkpt lat="44.54651" lon="2.25023">
        <ele>266.8</ele>
        <time>2018-05-30T15:00:44Z</time>
      </trkpt>
      <trkpt lat="44.54647" lon="2.25019">
        <ele>266.5</ele>
        <time>2018-05-30T15:00:46Z</time>
      </trkpt>
      <trkpt lat="44.54642" lon="2.25017">
        <ele>266.1</ele>
        <time>2018-05-30T15:00:47Z</time>
      </trkpt>
      <trkpt lat="44.5464" lon="2.25013">
        <ele>265.9</ele>
        <time>2018-05-30T15:00:48Z</time>
      </trkpt>
      <trkpt lat="44.54623" lon="2.24989">
        <ele>264.3</ele>
        <time>2018-05-30T15:00:55Z</time>
      </trkpt>
      <trkpt lat="44.54622" lon="2.24981">
        <ele>264</ele>
        <time>2018-05-30T15:00:56Z</time>
      </trkpt>
      <trkpt lat="44.54618" lon="2.24973">
        <ele>263.5</ele>
        <time>2018-05-30T15:00:58Z</time>
      </trkpt>
      <trkpt lat="44.54613" lon="2.24973">
        <ele>263.2</ele>
        <time>2018-05-30T15:00:59Z</time>
      </trkpt>
      <trkpt lat="44.54611" lon="2.24967">
        <ele>262.9</ele>
        <time>2018-05-30T15:01:00Z</time>
      </trkpt>
      <trkpt lat="44.54605" lon="2.24965">
        <ele>262.5</ele>
        <time>2018-05-30T15:01:01Z</time>
      </trkpt>
      <trkpt lat="44.54603" lon="2.2496">
        <ele>262.3</ele>
        <time>2018-05-30T15:01:02Z</time>
      </trkpt>
      <trkpt lat="44.54599" lon="2.24945">
        <ele>261.5</ele>
        <time>2018-05-30T15:01:04Z</time>
      </trkpt>
      <trkpt lat="44.54595" lon="2.24941">
        <ele>261.2</ele>
        <time>2018-05-30T15:01:06Z</time>
      </trkpt>
      <trkpt lat="44.54591" lon="2.24939">
        <ele>261</ele>
        <time>2018-05-30T15:01:07Z</time>
      </trkpt>
      <trkpt lat="44.54584" lon="2.24942">
        <ele>260.5</ele>
        <time>2018-05-30T15:01:09Z</time>
      </trkpt>
      <trkpt lat="44.54574" lon="2.2494">
        <ele>259.8</ele>
        <time>2018-05-30T15:01:12Z</time>
      </trkpt>
      <trkpt lat="44.54571" lon="2.24939">
        <ele>259.5</ele>
        <time>2018-05-30T15:01:13Z</time>
      </trkpt>
      <trkpt lat="44.5457" lon="2.24934">
        <ele>259.3</ele>
        <time>2018-05-30T15:01:14Z</time>
      </trkpt>
      <trkpt lat="44.54567" lon="2.24931">
        <ele>259</ele>
        <time>2018-05-30T15:01:15Z</time>
      </trkpt>
      <trkpt lat="44.54562" lon="2.24931">
        <ele>258.7</ele>
        <time>2018-05-30T15:01:16Z</time>
      </trkpt>
      <trkpt lat="44.54559" lon="2.2493">
        <ele>258.5</ele>
        <time>2018-05-30T15:01:17Z</time>
      </trkpt>
      <trkpt lat="44.54555" lon="2.24928">
        <ele>258.2</ele>
        <time>2018-05-30T15:01:18Z</time>
      </trkpt>
      <trkpt lat="44.54556" lon="2.24924">
        <ele>258</ele>
        <time>2018-05-30T15:01:19Z</time>
      </trkpt>
      <trkpt lat="44.54553" lon="2.24917">
        <ele>257.6</ele>
        <time>2018-05-30T15:01:21Z</time>
      </trkpt>
      <trkpt lat="44.54549" lon="2.2491">
        <ele>257.2</ele>
        <time>2018-05-30T15:01:23Z</time>
      </trkpt>
      <trkpt lat="44.54547" lon="2.24908">
        <ele>257</ele>
        <time>2018-05-30T15:01:24Z</time>
      </trkpt>
      <trkpt lat="44.54547" lon="2.24899">
        <ele>256.8</ele>
        <time>2018-05-30T15:01:26Z</time>
      </trkpt>
      <trkpt lat="44.54543" lon="2.24896">
        <ele>256.6</ele>
        <time>2018-05-30T15:01:27Z</time>
      </trkpt>
      <trkpt lat="44.5454" lon="2.24891">
        <ele>256.4</ele>
        <time>2018-05-30T15:01:28Z</time>
      </trkpt>
      <trkpt lat="44.54535" lon="2.24897">
        <ele>256.2</ele>
        <time>2018-05-30T15:01:29Z</time>
      </trkpt>
      <trkpt lat="44.54528" lon="2.24904">
        <ele>255.8</ele>
        <time>2018-05-30T15:01:30Z</time>
      </trkpt>
      <trkpt lat="44.54525" lon="2.24911">
        <ele>255.6</ele>
        <time>2018-05-30T15:01:31Z</time>
      </trkpt>
      <trkpt lat="44.54525" lon="2.24905">
        <ele>255.5</ele>
        <time>2018-05-30T15:01:32Z</time>
      </trkpt>
      <trkpt lat="44.54525" lon="2.24899">
        <ele>255.3</ele>
        <time>2018-05-30T15:01:33Z</time>
      </trkpt>
      <trkpt lat="44.54522" lon="2.24898">
        <ele>255.1</ele>
        <time>2018-05-30T15:01:34Z</time>
      </trkpt>
      <trkpt lat="44.54522" lon="2.24893">
        <ele>255</ele>
        <time>2018-05-30T15:01:35Z</time>
      </trkpt>
      <trkpt lat="44.54518" lon="2.2489">
        <ele>254.8</ele>
        <time>2018-05-30T15:01:38Z</time>
      </trkpt>
      <trkpt lat="44.54512" lon="2.24886">
        <ele>254.5</ele>
        <time>2018-05-30T15:01:40Z</time>
      </trkpt>
      <trkpt lat="44.54507" lon="2.24887">
        <ele>254.3</ele>
        <time>2018-05-30T15:01:41Z</time>
      </trkpt>
      <trkpt lat="44.54498" lon="2.24893">
        <ele>253.9</ele>
        <time>2018-05-30T15:01:42Z</time>
      </trkpt>
      <trkpt lat="44.54493" lon="2.24889">
        <ele>253.7</ele>
        <time>2018-05-30T15:01:43Z</time>
      </trkpt>
      <trkpt lat="44.54497" lon="2.24874">
        <ele>253.2</ele>
        <time>2018-05-30T15:01:45Z</time>
      </trkpt>
      <trkpt lat="44.54494" lon="2.24859">
        <ele>252.7</ele>
        <time>2018-05-30T15:01:46Z</time>
      </trkpt>
      <trkpt lat="44.54493" lon="2.24854">
        <ele>252.6</ele>
        <time>2018-05-30T15:01:47Z</time>
      </trkpt>
      <trkpt lat="44.54494" lon="2.24848">
        <ele>252.4</ele>
        <time>2018-05-30T15:01:48Z</time>
      </trkpt>
      <trkpt lat="44.54494" lon="2.24844">
        <ele>252.3</ele>
        <time>2018-05-30T15:01:49Z</time>
      </trkpt>
      <trkpt lat="44.54491" lon="2.24842">
        <ele>252.1</ele>
        <time>2018-05-30T15:01:50Z</time>
      </trkpt>
      <trkpt lat="44.54489" lon="2.2484">
        <ele>252</ele>
        <time>2018-05-30T15:01:51Z</time>
      </trkpt>
      <trkpt lat="44.54491" lon="2.24834">
        <ele>251.8</ele>
        <time>2018-05-30T15:01:52Z</time>
      </trkpt>
      <trkpt lat="44.54488" lon="2.24833">
        <ele>251.7</ele>
        <time>2018-05-30T15:01:53Z</time>
      </trkpt>
      <trkpt lat="44.54484" lon="2.24831">
        <ele>251.5</ele>
        <time>2018-05-30T15:01:54Z</time>
      </trkpt>
      <trkpt lat="44.54481" lon="2.2483">
        <ele>251.4</ele>
        <time>2018-05-30T15:01:55Z</time>
      </trkpt>
      <trkpt lat="44.54304" lon="2.24597">
        <ele>224.9</ele>
        <time>2018-05-30T15:03:28Z</time>
      </trkpt>
      <trkpt lat="44.54307" lon="2.24601">
        <ele>226.3</ele>
        <time>2018-05-30T15:03:30Z</time>
      </trkpt>
      <trkpt lat="44.54307" lon="2.24584">
        <ele>227.2</ele>
        <time>2018-05-30T15:03:31Z</time>
      </trkpt>
      <trkpt lat="44.54307" lon="2.24569">
        <ele>228.2</ele>
        <time>2018-05-30T15:03:32Z</time>
      </trkpt>
      <trkpt lat="44.54305" lon="2.24563">
        <ele>229.4</ele>
        <time>2018-05-30T15:03:33Z</time>
      </trkpt>
      <trkpt lat="44.54303" lon="2.24556">
        <ele>230.5</ele>
        <time>2018-05-30T15:03:34Z</time>
      </trkpt>
      <trkpt lat="44.54303" lon="2.24545">
        <ele>231.7</ele>
        <time>2018-05-30T15:03:37Z</time>
      </trkpt>
      <trkpt lat="44.54304" lon="2.24538">
        <ele>232.9</ele>
        <time>2018-05-30T15:03:39Z</time>
      </trkpt>
      <trkpt lat="44.54302" lon="2.24529">
        <ele>234.2</ele>
        <time>2018-05-30T15:03:42Z</time>
      </trkpt>
      <trkpt lat="44.54303" lon="2.24523">
        <ele>235.5</ele>
        <time>2018-05-30T15:03:44Z</time>
      </trkpt>
      <trkpt lat="44.54302" lon="2.24519">
        <ele>236.8</ele>
        <time>2018-05-30T15:03:46Z</time>
      </trkpt>
      <trkpt lat="44.54303" lon="2.24509">
        <ele>238.3</ele>
        <time>2018-05-30T15:03:48Z</time>
      </trkpt>
      <trkpt lat="44.54302" lon="2.24505">
        <ele>239.7</ele>
        <time>2018-05-30T15:03:50Z</time>
      </trkpt>
      <trkpt lat="44.54299" lon="2.24497">
        <ele>241.6</ele>
        <time>2018-05-30T15:03:54Z</time>
      </trkpt>
      <trkpt lat="44.54299" lon="2.24491">
        <ele>243</ele>
        <time>2018-05-30T15:03:55Z</time>
      </trkpt>
      <trkpt lat="44.543" lon="2.24484">
        <ele>243</ele>
        <time>2018-05-30T15:03:56Z</time>
      </trkpt>
      <trkpt lat="44.54302" lon="2.2449">
        <ele>243</ele>
        <time>2018-05-30T15:03:57Z</time>
      </trkpt>
      <trkpt lat="44.54306" lon="2.24484">
        <ele>243</ele>
        <time>2018-05-30T15:03:58Z</time>
      </trkpt>
      <trkpt lat="44.54308" lon="2.2448">
        <ele>243</ele>
        <time>2018-05-30T15:03:59Z</time>
      </trkpt>
      <trkpt lat="44.5431" lon="2.24472">
        <ele>243</ele>
        <time>2018-05-30T15:04:00Z</time>
      </trkpt>
      <trkpt lat="44.54312" lon="2.24466">
        <ele>243</ele>
        <time>2018-05-30T15:04:01Z</time>
      </trkpt>
      <trkpt lat="44.5431" lon="2.24449">
        <ele>243</ele>
        <time>2018-05-30T15:04:02Z</time>
      </trkpt>
      <trkpt lat="44.54311" lon="2.24445">
        <ele>243</ele>
        <time>2018-05-30T15:04:03Z</time>
      </trkpt>
      <trkpt lat="44.54312" lon="2.24439">
        <ele>243</ele>
        <time>2018-05-30T15:04:04Z</time>
      </trkpt>
      <trkpt lat="44.54309" lon="2.24437">
        <ele>242.4</ele>
        <time>2018-05-30T15:04:05Z</time>
      </trkpt>
      <trkpt lat="44.543" lon="2.24431">
        <ele>242.7</ele>
        <time>2018-05-30T15:04:06Z</time>
      </trkpt>
      <trkpt lat="44.54305" lon="2.24429">
        <ele>242.7</ele>
        <time>2018-05-30T15:04:07Z</time>
      </trkpt>
      <trkpt lat="44.54308" lon="2.24425">
        <ele>242.6</ele>
        <time>2018-05-30T15:04:08Z</time>
      </trkpt>
      <trkpt lat="44.54314" lon="2.24426">
        <ele>242.5</ele>
        <time>2018-05-30T15:04:09Z</time>
      </trkpt>
      <trkpt lat="44.54314" lon="2.24421">
        <ele>242.4</ele>
        <time>2018-05-30T15:04:11Z</time>
      </trkpt>
      <trkpt lat="44.54315" lon="2.24413">
        <ele>242.3</ele>
        <time>2018-05-30T15:04:12Z</time>
      </trkpt>
      <trkpt lat="44.54319" lon="2.24411">
        <ele>242.3</ele>
        <time>2018-05-30T15:04:13Z</time>
      </trkpt>
      <trkpt lat="44.54322" lon="2.24414">
        <ele>242.2</ele>
        <time>2018-05-30T15:04:15Z</time>
      </trkpt>
      <trkpt lat="44.5432" lon="2.2441">
        <ele>242.2</ele>
        <time>2018-05-30T15:04:17Z</time>
      </trkpt>
      <trkpt lat="44.54324" lon="2.24409">
        <ele>242.2</ele>
        <time>2018-05-30T15:04:18Z</time>
      </trkpt>
      <trkpt lat="44.54325" lon="2.24404">
        <ele>242.1</ele>
        <time>2018-05-30T15:04:20Z</time>
      </trkpt>
      <trkpt lat="44.54325" lon="2.24398">
        <ele>242.1</ele>
        <time>2018-05-30T15:04:21Z</time>
      </trkpt>
      <trkpt lat="44.54327" lon="2.24393">
        <ele>242</ele>
        <time>2018-05-30T15:04:22Z</time>
      </trkpt>
      <trkpt lat="44.54329" lon="2.2439">
        <ele>242</ele>
        <time>2018-05-30T15:04:23Z</time>
      </trkpt>
      <trkpt lat="44.54329" lon="2.24386">
        <ele>242</ele>
        <time>2018-05-30T15:04:24Z</time>
      </trkpt>
      <trkpt lat="44.5433" lon="2.24381">
        <ele>242</ele>
        <time>2018-05-30T15:04:25Z</time>
      </trkpt>
      <trkpt lat="44.54334" lon="2.24377">
        <ele>242</ele>
        <time>2018-05-30T15:04:26Z</time>
      </trkpt>
      <trkpt lat="44.54339" lon="2.24372">
        <ele>242</ele>
        <time>2018-05-30T15:04:27Z</time>
      </trkpt>
      <trkpt lat="44.54346" lon="2.24369">
        <ele>242</ele>
        <time>2018-05-30T15:04:28Z</time>
      </trkpt>
      <trkpt lat="44.54349" lon="2.24369">
        <ele>241.9</ele>
        <time>2018-05-30T15:04:29Z</time>
      </trkpt>
      <trkpt lat="44.54355" lon="2.24368">
        <ele>241.8</ele>
        <time>2018-05-30T15:04:31Z</time>
      </trkpt>
      <trkpt lat="44.54359" lon="2.24367">
        <ele>241.8</ele>
        <time>2018-05-30T15:04:32Z</time>
      </trkpt>
      <trkpt lat="44.54361" lon="2.24369">
        <ele>241.8</ele>
        <time>2018-05-30T15:04:33Z</time>
      </trkpt>
      <trkpt lat="44.54367" lon="2.24368">
        <ele>241.9</ele>
        <time>2018-05-30T15:04:35Z</time>
      </trkpt>
      <trkpt lat="44.5437" lon="2.24365">
        <ele>241.9</ele>
        <time>2018-05-30T15:04:37Z</time>
      </trkpt>
      <trkpt lat="44.54376" lon="2.24364">
        <ele>241.9</ele>
        <time>2018-05-30T15:04:40Z</time>
      </trkpt>
      <trkpt lat="44.5438" lon="2.24365">
        <ele>241.9</ele>
        <time>2018-05-30T15:04:41Z</time>
      </trkpt>
      <trkpt lat="44.5438" lon="2.24358">
        <ele>242</ele>
        <time>2018-05-30T15:04:42Z</time>
      </trkpt>
      <trkpt lat="44.54384" lon="2.24355">
        <ele>242</ele>
        <time>2018-05-30T15:04:43Z</time>
      </trkpt>
      <trkpt lat="44.54387" lon="2.24356">
        <ele>242</ele>
        <time>2018-05-30T15:04:44Z</time>
      </trkpt>
      <trkpt lat="44.5439" lon="2.24351">
        <ele>242</ele>
        <time>2018-05-30T15:04:46Z</time>
      </trkpt>
      <trkpt lat="44.54392" lon="2.24346">
        <ele>242</ele>
        <time>2018-05-30T15:04:47Z</time>
      </trkpt>
      <trkpt lat="44.54398" lon="2.24344">
        <ele>242</ele>
        <time>2018-05-30T15:04:48Z</time>
      </trkpt>
      <trkpt lat="44.54403" lon="2.24337">
        <ele>239.4</ele>
        <time>2018-05-30T15:04:50Z</time>
      </trkpt>
      <trkpt lat="44.54408" lon="2.24329">
        <ele>236.4</ele>
        <time>2018-05-30T15:04:51Z</time>
      </trkpt>
      <trkpt lat="44.54413" lon="2.24323">
        <ele>233.6</ele>
        <time>2018-05-30T15:04:53Z</time>
      </trkpt>
      <trkpt lat="44.54418" lon="2.24321">
        <ele>231.5</ele>
        <time>2018-05-30T15:04:56Z</time>
      </trkpt>
      <trkpt lat="44.54421" lon="2.24321">
        <ele>231</ele>
        <time>2018-05-30T15:04:57Z</time>
      </trkpt>
      <trkpt lat="44.54425" lon="2.24318">
        <ele>231</ele>
        <time>2018-05-30T15:04:58Z</time>
      </trkpt>
      <trkpt lat="44.54427" lon="2.24314">
        <ele>231.1</ele>
        <time>2018-05-30T15:04:59Z</time>
      </trkpt>
      <trkpt lat="44.54433" lon="2.24311">
        <ele>231.1</ele>
        <time>2018-05-30T15:05:02Z</time>
      </trkpt>
      <trkpt lat="44.54437" lon="2.24312">
        <ele>231.1</ele>
        <time>2018-05-30T15:05:03Z</time>
      </trkpt>
      <trkpt lat="44.54441" lon="2.24308">
        <ele>231.2</ele>
        <time>2018-05-30T15:05:04Z</time>
      </trkpt>
      <trkpt lat="44.54443" lon="2.24302">
        <ele>231.2</ele>
        <time>2018-05-30T15:05:05Z</time>
      </trkpt>
      <trkpt lat="44.5444" lon="2.24295">
        <ele>231.2</ele>
        <time>2018-05-30T15:05:06Z</time>
      </trkpt>
      <trkpt lat="44.54443" lon="2.2428">
        <ele>231.3</ele>
        <time>2018-05-30T15:05:07Z</time>
      </trkpt>
      <trkpt lat="44.54444" lon="2.24276">
        <ele>231.3</ele>
        <time>2018-05-30T15:05:08Z</time>
      </trkpt>
      <trkpt lat="44.54446" lon="2.24274">
        <ele>231.3</ele>
        <time>2018-05-30T15:05:09Z</time>
      </trkpt>
      <trkpt lat="44.54446" lon="2.24264">
        <ele>231.4</ele>
        <time>2018-05-30T15:05:10Z</time>
      </trkpt>
      <trkpt lat="44.54447" lon="2.24254">
        <ele>231.4</ele>
        <time>2018-05-30T15:05:11Z</time>
      </trkpt>
      <trkpt lat="44.54447" lon="2.24249">
        <ele>231.4</ele>
        <time>2018-05-30T15:05:12Z</time>
      </trkpt>
      <trkpt lat="44.54455" lon="2.24242">
        <ele>231.5</ele>
        <time>2018-05-30T15:05:13Z</time>
      </trkpt>
      <trkpt lat="44.5446" lon="2.24241">
        <ele>231.5</ele>
        <time>2018-05-30T15:05:15Z</time>
      </trkpt>
      <trkpt lat="44.54466" lon="2.24242">
        <ele>231.6</ele>
        <time>2018-05-30T15:05:16Z</time>
      </trkpt>
      <trkpt lat="44.54469" lon="2.24238">
        <ele>231.6</ele>
        <time>2018-05-30T15:05:18Z</time>
      </trkpt>
      <trkpt lat="44.54477" lon="2.24227">
        <ele>231.7</ele>
        <time>2018-05-30T15:05:21Z</time>
      </trkpt>
      <trkpt lat="44.54484" lon="2.24221">
        <ele>231.7</ele>
        <time>2018-05-30T15:05:23Z</time>
      </trkpt>
      <trkpt lat="44.54487" lon="2.24216">
        <ele>231.7</ele>
        <time>2018-05-30T15:05:24Z</time>
      </trkpt>
      <trkpt lat="44.54492" lon="2.2421">
        <ele>231.8</ele>
        <time>2018-05-30T15:05:26Z</time>
      </trkpt>
      <trkpt lat="44.54489" lon="2.24213">
        <ele>231.8</ele>
        <time>2018-05-30T15:05:28Z</time>
      </trkpt>
      <trkpt lat="44.54488" lon="2.24218">
        <ele>231.8</ele>
        <time>2018-05-30T15:05:29Z</time>
      </trkpt>
      <trkpt lat="44.54487" lon="2.2421">
        <ele>231.8</ele>
        <time>2018-05-30T15:05:30Z</time>
      </trkpt>
      <trkpt lat="44.54484" lon="2.24199">
        <ele>231.9</ele>
        <time>2018-05-30T15:05:31Z</time>
      </trkpt>
      <trkpt lat="44.54489" lon="2.24209">
        <ele>231.9</ele>
        <time>2018-05-30T15:05:32Z</time>
      </trkpt>
      <trkpt lat="44.5449" lon="2.24206">
        <ele>231.9</ele>
        <time>2018-05-30T15:05:33Z</time>
      </trkpt>
      <trkpt lat="44.54493" lon="2.24203">
        <ele>231.9</ele>
        <time>2018-05-30T15:05:34Z</time>
      </trkpt>
      <trkpt lat="44.54497" lon="2.24198">
        <ele>232</ele>
        <time>2018-05-30T15:05:36Z</time>
      </trkpt>
      <trkpt lat="44.54504" lon="2.2419">
        <ele>232</ele>
        <time>2018-05-30T15:05:40Z</time>
      </trkpt>
      <trkpt lat="44.54505" lon="2.24188">
        <ele>232</ele>
        <time>2018-05-30T15:05:41Z</time>
      </trkpt>
      <trkpt lat="44.5451" lon="2.24181">
        <ele>232.1</ele>
        <time>2018-05-30T15:05:42Z</time>
      </trkpt>
      <trkpt lat="44.54513" lon="2.24176">
        <ele>232.1</ele>
        <time>2018-05-30T15:05:44Z</time>
      </trkpt>
      <trkpt lat="44.54516" lon="2.24179">
        <ele>232.1</ele>
        <time>2018-05-30T15:05:46Z</time>
      </trkpt>
      <trkpt lat="44.54518" lon="2.24174">
        <ele>232.1</ele>
        <time>2018-05-30T15:05:47Z</time>
      </trkpt>
      <trkpt lat="44.54521" lon="2.24172">
        <ele>232.1</ele>
        <time>2018-05-30T15:05:48Z</time>
      </trkpt>
      <trkpt lat="44.54524" lon="2.2417">
        <ele>232.1</ele>
        <time>2018-05-30T15:05:49Z</time>
      </trkpt>
      <trkpt lat="44.54528" lon="2.2417">
        <ele>232.2</ele>
        <time>2018-05-30T15:05:51Z</time>
      </trkpt>
      <trkpt lat="44.5453" lon="2.24167">
        <ele>232.2</ele>
        <time>2018-05-30T15:05:52Z</time>
      </trkpt>
      <trkpt lat="44.54536" lon="2.24164">
        <ele>232.2</ele>
        <time>2018-05-30T15:05:53Z</time>
      </trkpt>
      <trkpt lat="44.54539" lon="2.2416">
        <ele>232.2</ele>
        <time>2018-05-30T15:05:54Z</time>
      </trkpt>
      <trkpt lat="44.54543" lon="2.24162">
        <ele>232.3</ele>
        <time>2018-05-30T15:05:55Z</time>
      </trkpt>
      <trkpt lat="44.54547" lon="2.2416">
        <ele>232.3</ele>
        <time>2018-05-30T15:05:57Z</time>
      </trkpt>
      <trkpt lat="44.54543" lon="2.24167">
        <ele>232.3</ele>
        <time>2018-05-30T15:05:58Z</time>
      </trkpt>
      <trkpt lat="44.54545" lon="2.24162">
        <ele>232.3</ele>
        <time>2018-05-30T15:05:59Z</time>
      </trkpt>
      <trkpt lat="44.54548" lon="2.24154">
        <ele>232.4</ele>
        <time>2018-05-30T15:06:00Z</time>
      </trkpt>
      <trkpt lat="44.54549" lon="2.2415">
        <ele>232.4</ele>
        <time>2018-05-30T15:06:01Z</time>
      </trkpt>
      <trkpt lat="44.54552" lon="2.24148">
        <ele>232.4</ele>
        <time>2018-05-30T15:06:02Z</time>
      </trkpt>
      <trkpt lat="44.54558" lon="2.24143">
        <ele>232.5</ele>
        <time>2018-05-30T15:06:03Z</time>
      </trkpt>
      <trkpt lat="44.54561" lon="2.24136">
        <ele>232.6</ele>
        <time>2018-05-30T15:06:05Z</time>
      </trkpt>
      <trkpt lat="44.54564" lon="2.24134">
        <ele>232.6</ele>
        <time>2018-05-30T15:06:06Z</time>
      </trkpt>
      <trkpt lat="44.54566" lon="2.2413">
        <ele>232.6</ele>
        <time>2018-05-30T15:06:07Z</time>
      </trkpt>
      <trkpt lat="44.54569" lon="2.24126">
        <ele>232.6</ele>
        <time>2018-05-30T15:06:09Z</time>
      </trkpt>
      <trkpt lat="44.54572" lon="2.24123">
        <ele>232.7</ele>
        <time>2018-05-30T15:06:10Z</time>
      </trkpt>
      <trkpt lat="44.54574" lon="2.2412">
        <ele>232.7</ele>
        <time>2018-05-30T15:06:11Z</time>
      </trkpt>
      <trkpt lat="44.54576" lon="2.24117">
        <ele>232.7</ele>
        <time>2018-05-30T15:06:12Z</time>
      </trkpt>
      <trkpt lat="44.54581" lon="2.24113">
        <ele>232.8</ele>
        <time>2018-05-30T15:06:14Z</time>
      </trkpt>
      <trkpt lat="44.54584" lon="2.2411">
        <ele>232.8</ele>
        <time>2018-05-30T15:06:15Z</time>
      </trkpt>
      <trkpt lat="44.54588" lon="2.24107">
        <ele>232.8</ele>
        <time>2018-05-30T15:06:16Z</time>
      </trkpt>
      <trkpt lat="44.54591" lon="2.24103">
        <ele>232.8</ele>
        <time>2018-05-30T15:06:18Z</time>
      </trkpt>
      <trkpt lat="44.54594" lon="2.24099">
        <ele>232.9</ele>
        <time>2018-05-30T15:06:20Z</time>
      </trkpt>
      <trkpt lat="44.546" lon="2.24094">
        <ele>232.9</ele>
        <time>2018-05-30T15:06:22Z</time>
      </trkpt>
      <trkpt lat="44.54602" lon="2.24092">
        <ele>232.9</ele>
        <time>2018-05-30T15:06:23Z</time>
      </trkpt>
      <trkpt lat="44.54606" lon="2.24087">
        <ele>233</ele>
        <time>2018-05-30T15:06:25Z</time>
      </trkpt>
      <trkpt lat="44.54611" lon="2.24082">
        <ele>233.2</ele>
        <time>2018-05-30T15:06:27Z</time>
      </trkpt>
      <trkpt lat="44.54615" lon="2.24078">
        <ele>233.3</ele>
        <time>2018-05-30T15:06:29Z</time>
      </trkpt>
      <trkpt lat="44.54617" lon="2.24076">
        <ele>233.4</ele>
        <time>2018-05-30T15:06:30Z</time>
      </trkpt>
      <trkpt lat="44.54622" lon="2.24071">
        <ele>233.5</ele>
        <time>2018-05-30T15:06:32Z</time>
      </trkpt>
      <trkpt lat="44.54625" lon="2.24067">
        <ele>233.6</ele>
        <time>2018-05-30T15:06:35Z</time>
      </trkpt>
      <trkpt lat="44.54629" lon="2.24062">
        <ele>233.8</ele>
        <time>2018-05-30T15:06:37Z</time>
      </trkpt>
      <trkpt lat="44.54633" lon="2.24057">
        <ele>233.9</ele>
        <time>2018-05-30T15:06:39Z</time>
      </trkpt>
      <trkpt lat="44.54636" lon="2.24054">
        <ele>234</ele>
        <time>2018-05-30T15:06:40Z</time>
      </trkpt>
      <trkpt lat="44.54639" lon="2.24049">
        <ele>234.3</ele>
        <time>2018-05-30T15:06:42Z</time>
      </trkpt>
      <trkpt lat="44.54643" lon="2.24044">
        <ele>234.6</ele>
        <time>2018-05-30T15:06:44Z</time>
      </trkpt>
      <trkpt lat="44.54648" lon="2.24039">
        <ele>235</ele>
        <time>2018-05-30T15:06:46Z</time>
      </trkpt>
      <trkpt lat="44.5465" lon="2.24036">
        <ele>235.2</ele>
        <time>2018-05-30T15:06:47Z</time>
      </trkpt>
      <trkpt lat="44.54653" lon="2.2403">
        <ele>235.4</ele>
        <time>2018-05-30T15:06:49Z</time>
      </trkpt>
      <trkpt lat="44.54654" lon="2.24026">
        <ele>235.6</ele>
        <time>2018-05-30T15:06:50Z</time>
      </trkpt>
      <trkpt lat="44.54656" lon="2.24022">
        <ele>235.7</ele>
        <time>2018-05-30T15:06:51Z</time>
      </trkpt>
      <trkpt lat="44.54657" lon="2.24019">
        <ele>235.9</ele>
        <time>2018-05-30T15:06:52Z</time>
      </trkpt>
      <trkpt lat="44.5466" lon="2.24016">
        <ele>236</ele>
        <time>2018-05-30T15:06:53Z</time>
      </trkpt>
      <trkpt lat="44.54664" lon="2.2401">
        <ele>236.3</ele>
        <time>2018-05-30T15:06:55Z</time>
      </trkpt>
      <trkpt lat="44.54665" lon="2.24006">
        <ele>236.5</ele>
        <time>2018-05-30T15:06:56Z</time>
      </trkpt>
      <trkpt lat="44.54705" lon="2.23822">
        <ele>232</ele>
        <time>2018-05-30T15:07:44Z</time>
      </trkpt>
      <trkpt lat="44.54707" lon="2.23816">
        <ele>231.8</ele>
        <time>2018-05-30T15:07:48Z</time>
      </trkpt>
      <trkpt lat="44.54707" lon="2.23811">
        <ele>231.6</ele>
        <time>2018-05-30T15:07:49Z</time>
      </trkpt>
      <trkpt lat="44.54708" lon="2.23807">
        <ele>231.4</ele>
        <time>2018-05-30T15:07:50Z</time>
      </trkpt>
      <trkpt lat="44.54709" lon="2.23802">
        <ele>231.3</ele>
        <time>2018-05-30T15:07:54Z</time>
      </trkpt>
      <trkpt lat="44.54712" lon="2.23801">
        <ele>231.1</ele>
        <time>2018-05-30T15:07:55Z</time>
      </trkpt>
      <trkpt lat="44.54709" lon="2.23804">
        <ele>231</ele>
        <time>2018-05-30T15:07:56Z</time>
      </trkpt>
      <trkpt lat="44.5471" lon="2.23802">
        <ele>230.9</ele>
        <time>2018-05-30T15:07:57Z</time>
      </trkpt>
      <trkpt lat="44.54721" lon="2.23772">
        <ele>229.9</ele>
        <time>2018-05-30T15:07:59Z</time>
      </trkpt>
      <trkpt lat="44.54724" lon="2.23769">
        <ele>229.7</ele>
        <time>2018-05-30T15:08:03Z</time>
      </trkpt>
      <trkpt lat="44.54726" lon="2.23766">
        <ele>229.5</ele>
        <time>2018-05-30T15:08:05Z</time>
      </trkpt>
      <trkpt lat="44.5473" lon="2.23762">
        <ele>229.2</ele>
        <time>2018-05-30T15:08:07Z</time>
      </trkpt>
      <trkpt lat="44.54735" lon="2.23753">
        <ele>229.6</ele>
        <time>2018-05-30T15:08:09Z</time>
      </trkpt>
      <trkpt lat="44.54737" lon="2.23742">
        <ele>230</ele>
        <time>2018-05-30T15:08:11Z</time>
      </trkpt>
      <trkpt lat="44.54739" lon="2.23738">
        <ele>230</ele>
        <time>2018-05-30T15:08:12Z</time>
      </trkpt>
      <trkpt lat="44.54739" lon="2.23733">
        <ele>230</ele>
        <time>2018-05-30T15:08:13Z</time>
      </trkpt>
      <trkpt lat="44.54737" lon="2.23724">
        <ele>230</ele>
        <time>2018-05-30T15:08:15Z</time>
      </trkpt>
      <trkpt lat="44.54739" lon="2.23717">
        <ele>230</ele>
        <time>2018-05-30T15:08:17Z</time>
      </trkpt>
      <trkpt lat="44.5474" lon="2.23713">
        <ele>229.9</ele>
        <time>2018-05-30T15:08:18Z</time>
      </trkpt>
      <trkpt lat="44.54744" lon="2.23708">
        <ele>229.9</ele>
        <time>2018-05-30T15:08:21Z</time>
      </trkpt>
      <trkpt lat="44.54745" lon="2.23703">
        <ele>229.9</ele>
        <time>2018-05-30T15:08:22Z</time>
      </trkpt>
      <trkpt lat="44.54746" lon="2.23697">
        <ele>229.8</ele>
        <time>2018-05-30T15:08:25Z</time>
      </trkpt>
      <trkpt lat="44.54749" lon="2.23692">
        <ele>229.8</ele>
        <time>2018-05-30T15:08:27Z</time>
      </trkpt>
      <trkpt lat="44.54745" lon="2.23686">
        <ele>229.7</ele>
        <time>2018-05-30T15:08:28Z</time>
      </trkpt>
      <trkpt lat="44.54745" lon="2.23682">
        <ele>229.7</ele>
        <time>2018-05-30T15:08:29Z</time>
      </trkpt>
      <trkpt lat="44.54746" lon="2.23677">
        <ele>229.7</ele>
        <time>2018-05-30T15:08:31Z</time>
      </trkpt>
      <trkpt lat="44.54747" lon="2.23674">
        <ele>229.6</ele>
        <time>2018-05-30T15:08:33Z</time>
      </trkpt>
      <trkpt lat="44.54745" lon="2.23668">
        <ele>229.6</ele>
        <time>2018-05-30T15:08:35Z</time>
      </trkpt>
      <trkpt lat="44.54745" lon="2.23664">
        <ele>229.6</ele>
        <time>2018-05-30T15:08:37Z</time>
      </trkpt>
      <trkpt lat="44.54744" lon="2.2366">
        <ele>229.6</ele>
        <time>2018-05-30T15:08:39Z</time>
      </trkpt>
      <trkpt lat="44.54743" lon="2.23655">
        <ele>229.6</ele>
        <time>2018-05-30T15:08:41Z</time>
      </trkpt>
      <trkpt lat="44.54744" lon="2.23663">
        <ele>229.5</ele>
        <time>2018-05-30T15:08:44Z</time>
      </trkpt>
      <trkpt lat="44.54745" lon="2.2366">
        <ele>229.5</ele>
        <time>2018-05-30T15:08:45Z</time>
      </trkpt>
      <trkpt lat="44.54738" lon="2.2367">
        <ele>229.4</ele>
        <time>2018-05-30T15:08:46Z</time>
      </trkpt>
      <trkpt lat="44.54743" lon="2.23633">
        <ele>229.2</ele>
        <time>2018-05-30T15:08:49Z</time>
      </trkpt>
      <trkpt lat="44.54746" lon="2.23634">
        <ele>229.2</ele>
        <time>2018-05-30T15:08:51Z</time>
      </trkpt>
      <trkpt lat="44.54743" lon="2.23631">
        <ele>229.1</ele>
        <time>2018-05-30T15:08:53Z</time>
      </trkpt>
      <trkpt lat="44.5474" lon="2.23627">
        <ele>229</ele>
        <time>2018-05-30T15:08:55Z</time>
      </trkpt>
      <trkpt lat="44.5474" lon="2.23623">
        <ele>229</ele>
        <time>2018-05-30T15:08:58Z</time>
      </trkpt>
      <trkpt lat="44.54734" lon="2.23618">
        <ele>228.9</ele>
        <time>2018-05-30T15:09:01Z</time>
      </trkpt>
      <trkpt lat="44.54725" lon="2.23613">
        <ele>228.8</ele>
        <time>2018-05-30T15:09:02Z</time>
      </trkpt>
      <trkpt lat="44.5472" lon="2.23608">
        <ele>228.7</ele>
        <time>2018-05-30T15:09:03Z</time>
      </trkpt>
      <trkpt lat="44.54712" lon="2.23604">
        <ele>228.7</ele>
        <time>2018-05-30T15:09:04Z</time>
      </trkpt>
      <trkpt lat="44.54708" lon="2.23602">
        <ele>228.6</ele>
        <time>2018-05-30T15:09:05Z</time>
      </trkpt>
      <trkpt lat="44.54704" lon="2.23597">
        <ele>228.6</ele>
        <time>2018-05-30T15:09:07Z</time>
      </trkpt>
      <trkpt lat="44.54701" lon="2.23595">
        <ele>228.5</ele>
        <time>2018-05-30T15:09:08Z</time>
      </trkpt>
      <trkpt lat="44.54701" lon="2.23588">
        <ele>228.5</ele>
        <time>2018-05-30T15:09:09Z</time>
      </trkpt>
      <trkpt lat="44.547" lon="2.23582">
        <ele>228.4</ele>
        <time>2018-05-30T15:09:10Z</time>
      </trkpt>
      <trkpt lat="44.54699" lon="2.23577">
        <ele>228.3</ele>
        <time>2018-05-30T15:09:11Z</time>
      </trkpt>
      <trkpt lat="44.54699" lon="2.23572">
        <ele>228.3</ele>
        <time>2018-05-30T15:09:12Z</time>
      </trkpt>
      <trkpt lat="44.547" lon="2.23569">
        <ele>228.2</ele>
        <time>2018-05-30T15:09:13Z</time>
      </trkpt>
      <trkpt lat="44.54701" lon="2.23565">
        <ele>228.1</ele>
        <time>2018-05-30T15:09:14Z</time>
      </trkpt>
      <trkpt lat="44.54701" lon="2.23559">
        <ele>228</ele>
        <time>2018-05-30T15:09:16Z</time>
      </trkpt>
      <trkpt lat="44.54699" lon="2.23553">
        <ele>227.9</ele>
        <time>2018-05-30T15:09:17Z</time>
      </trkpt>
      <trkpt lat="44.54696" lon="2.23549">
        <ele>227.8</ele>
        <time>2018-05-30T15:09:18Z</time>
      </trkpt>
      <trkpt lat="44.54695" lon="2.23544">
        <ele>227.7</ele>
        <time>2018-05-30T15:09:20Z</time>
      </trkpt>
      <trkpt lat="44.54696" lon="2.23541">
        <ele>227.6</ele>
        <time>2018-05-30T15:09:21Z</time>
      </trkpt>
      <trkpt lat="44.54696" lon="2.23533">
        <ele>227.5</ele>
        <time>2018-05-30T15:09:22Z</time>
      </trkpt>
      <trkpt lat="44.54695" lon="2.23529">
        <ele>227.4</ele>
        <time>2018-05-30T15:09:23Z</time>
      </trkpt>
      <trkpt lat="44.54692" lon="2.23525">
        <ele>227.3</ele>
        <time>2018-05-30T15:09:24Z</time>
      </trkpt>
      <trkpt lat="44.54691" lon="2.23521">
        <ele>227.2</ele>
        <time>2018-05-30T15:09:25Z</time>
      </trkpt>
      <trkpt lat="44.5469" lon="2.23515">
        <ele>227.1</ele>
        <time>2018-05-30T15:09:26Z</time>
      </trkpt>
      <trkpt lat="44.5469" lon="2.23509">
        <ele>227</ele>
        <time>2018-05-30T15:09:27Z</time>
      </trkpt>
      <trkpt lat="44.54693" lon="2.23504">
        <ele>226.8</ele>
        <time>2018-05-30T15:09:29Z</time>
      </trkpt>
      <trkpt lat="44.54693" lon="2.23497">
        <ele>226.7</ele>
        <time>2018-05-30T15:09:31Z</time>
      </trkpt>
      <trkpt lat="44.54692" lon="2.2349">
        <ele>226.6</ele>
        <time>2018-05-30T15:09:33Z</time>
      </trkpt>
      <trkpt lat="44.54693" lon="2.23483">
        <ele>226.5</ele>
        <time>2018-05-30T15:09:36Z</time>
      </trkpt>
      <trkpt lat="44.54692" lon="2.2348">
        <ele>226.4</ele>
        <time>2018-05-30T15:09:37Z</time>
      </trkpt>
      <trkpt lat="44.54687" lon="2.23474">
        <ele>226.2</ele>
        <time>2018-05-30T15:09:39Z</time>
      </trkpt>
      <trkpt lat="44.54683" lon="2.23467">
        <ele>226.1</ele>
        <time>2018-05-30T15:09:41Z</time>
      </trkpt>
      <trkpt lat="44.54686" lon="2.23461">
        <ele>226</ele>
        <time>2018-05-30T15:09:42Z</time>
      </trkpt>
      <trkpt lat="44.54684" lon="2.23459">
        <ele>225.9</ele>
        <time>2018-05-30T15:09:43Z</time>
      </trkpt>
      <trkpt lat="44.54681" lon="2.23444">
        <ele>225.7</ele>
        <time>2018-05-30T15:09:45Z</time>
      </trkpt>
      <trkpt lat="44.54685" lon="2.23436">
        <ele>225.6</ele>
        <time>2018-05-30T15:09:46Z</time>
      </trkpt>
      <trkpt lat="44.54684" lon="2.23429">
        <ele>225.5</ele>
        <time>2018-05-30T15:09:48Z</time>
      </trkpt>
      <trkpt lat="44.54679" lon="2.23426">
        <ele>225.4</ele>
        <time>2018-05-30T15:09:49Z</time>
      </trkpt>
      <trkpt lat="44.54676" lon="2.23423">
        <ele>225.3</ele>
        <time>2018-05-30T15:09:50Z</time>
      </trkpt>
      <trkpt lat="44.54671" lon="2.23418">
        <ele>225.2</ele>
        <time>2018-05-30T15:09:51Z</time>
      </trkpt>
      <trkpt lat="44.54672" lon="2.2341">
        <ele>225.1</ele>
        <time>2018-05-30T15:09:52Z</time>
      </trkpt>
      <trkpt lat="44.54674" lon="2.23407">
        <ele>225.1</ele>
        <time>2018-05-30T15:09:53Z</time>
      </trkpt>
      <trkpt lat="44.54671" lon="2.23405">
        <ele>225</ele>
        <time>2018-05-30T15:09:54Z</time>
      </trkpt>
      <trkpt lat="44.54668" lon="2.23403">
        <ele>225</ele>
        <time>2018-05-30T15:09:58Z</time>
      </trkpt>
      <trkpt lat="44.54671" lon="2.23402">
        <ele>224.9</ele>
        <time>2018-05-30T15:10:01Z</time>
      </trkpt>
      <trkpt lat="44.54672" lon="2.23397">
        <ele>224.9</ele>
        <time>2018-05-30T15:10:02Z</time>
      </trkpt>
      <trkpt lat="44.54674" lon="2.23393">
        <ele>224.9</ele>
        <time>2018-05-30T15:10:03Z</time>
      </trkpt>
      <trkpt lat="44.54676" lon="2.23387">
        <ele>224.8</ele>
        <time>2018-05-30T15:10:05Z</time>
      </trkpt>
      <trkpt lat="44.54673" lon="2.23385">
        <ele>224.8</ele>
        <time>2018-05-30T15:10:06Z</time>
      </trkpt>
      <trkpt lat="44.54673" lon="2.2338">
        <ele>224.8</ele>
        <time>2018-05-30T15:10:08Z</time>
      </trkpt>
      <trkpt lat="44.54675" lon="2.23376">
        <ele>224.8</ele>
        <time>2018-05-30T15:10:10Z</time>
      </trkpt>
      <trkpt lat="44.54675" lon="2.23372">
        <ele>224.8</ele>
        <time>2018-05-30T15:10:12Z</time>
      </trkpt>
      <trkpt lat="44.54683" lon="2.23294">
        <ele>224.5</ele>
        <time>2018-05-30T15:10:33Z</time>
      </trkpt>
      <trkpt lat="44.54683" lon="2.2329">
        <ele>224.5</ele>
        <time>2018-05-30T15:10:35Z</time>
      </trkpt>
      <trkpt lat="44.54682" lon="2.23286">
        <ele>224.5</ele>
        <time>2018-05-30T15:10:36Z</time>
      </trkpt>
      <trkpt lat="44.54683" lon="2.23281">
        <ele>224.5</ele>
        <time>2018-05-30T15:10:38Z</time>
      </trkpt>
      <trkpt lat="44.54686" lon="2.23286">
        <ele>224.5</ele>
        <time>2018-05-30T15:10:40Z</time>
      </trkpt>
    </trkseg>
  </trk>
</gpx>